<?xml version="1.0" encoding="UTF-8" standalone="no" ?>
<gpx xmlns="http://www.topografix.com/GPX/1/1" xmlns:xsi="http://www.w3.org/2001/XMLSchema-instance" xsi:schemaLocation="http://www.topografix.com/GPX/1/1 http://www.topografix.com/GPX/1/1/gpx.xsd" version="1.1" creator="VisuGPX - https://www.visugpx.com">
  <metadata>
    <name> la Séguiniere / 49280</name>
    <desc><![CDATA[Facile et agréable]]></desc>
  </metadata>
  <trk>
    <name><![CDATA[ la Séguiniere / 49280_1]]></name>
    <trkseg>
      <trkpt lat="47.05836" lon="-0.94148">
        <ele>73.9</ele>
        <time>2014-11-09T07:40:52Z</time>
      </trkpt>
      <trkpt lat="47.05836" lon="-0.94148">
        <ele>107</ele>
        <time>2014-11-09T07:40:54Z</time>
      </trkpt>
      <trkpt lat="47.05847" lon="-0.9414">
        <ele>111</ele>
        <time>2014-11-09T07:41:03Z</time>
      </trkpt>
      <trkpt lat="47.05847" lon="-0.9414">
        <ele>111</ele>
        <time>2014-11-09T07:41:05Z</time>
      </trkpt>
      <trkpt lat="47.05847" lon="-0.9414">
        <ele>111</ele>
        <time>2014-11-09T07:41:13Z</time>
      </trkpt>
      <trkpt lat="47.05857" lon="-0.94126">
        <ele>111</ele>
        <time>2014-11-09T07:41:15Z</time>
      </trkpt>
      <trkpt lat="47.05857" lon="-0.94126">
        <ele>111</ele>
        <time>2014-11-09T07:41:17Z</time>
      </trkpt>
      <trkpt lat="47.05857" lon="-0.94126">
        <ele>111</ele>
        <time>2014-11-09T07:41:25Z</time>
      </trkpt>
      <trkpt lat="47.05871" lon="-0.94113">
        <ele>114</ele>
        <time>2014-11-09T07:41:28Z</time>
      </trkpt>
      <trkpt lat="47.05871" lon="-0.94113">
        <ele>114</ele>
        <time>2014-11-09T07:41:29Z</time>
      </trkpt>
      <trkpt lat="47.05871" lon="-0.94113">
        <ele>114</ele>
        <time>2014-11-09T07:41:37Z</time>
      </trkpt>
      <trkpt lat="47.05871" lon="-0.94113">
        <ele>114</ele>
        <time>2014-11-09T07:41:41Z</time>
      </trkpt>
      <trkpt lat="47.05871" lon="-0.94113">
        <ele>114</ele>
        <time>2014-11-09T07:41:45Z</time>
      </trkpt>
      <trkpt lat="47.05889" lon="-0.94102">
        <ele>115</ele>
        <time>2014-11-09T07:41:47Z</time>
      </trkpt>
      <trkpt lat="47.05889" lon="-0.94102">
        <ele>115</ele>
        <time>2014-11-09T07:41:49Z</time>
      </trkpt>
      <trkpt lat="47.05889" lon="-0.94102">
        <ele>115</ele>
        <time>2014-11-09T07:41:57Z</time>
      </trkpt>
      <trkpt lat="47.05901" lon="-0.94098">
        <ele>116</ele>
        <time>2014-11-09T07:42:09Z</time>
      </trkpt>
      <trkpt lat="47.05923" lon="-0.94094">
        <ele>115</ele>
        <time>2014-11-09T07:42:10Z</time>
      </trkpt>
      <trkpt lat="47.05923" lon="-0.94094">
        <ele>115</ele>
        <time>2014-11-09T07:42:13Z</time>
      </trkpt>
      <trkpt lat="47.05937" lon="-0.9409">
        <ele>110</ele>
        <time>2014-11-09T07:42:20Z</time>
      </trkpt>
      <trkpt lat="47.05937" lon="-0.9409">
        <ele>110</ele>
        <time>2014-11-09T07:42:21Z</time>
      </trkpt>
      <trkpt lat="47.05937" lon="-0.9409">
        <ele>110</ele>
        <time>2014-11-09T07:42:29Z</time>
      </trkpt>
      <trkpt lat="47.0595" lon="-0.94084">
        <ele>115</ele>
        <time>2014-11-09T07:42:32Z</time>
      </trkpt>
      <trkpt lat="47.0595" lon="-0.94084">
        <ele>115</ele>
        <time>2014-11-09T07:42:33Z</time>
      </trkpt>
      <trkpt lat="47.0595" lon="-0.94084">
        <ele>115</ele>
        <time>2014-11-09T07:42:41Z</time>
      </trkpt>
      <trkpt lat="47.05972" lon="-0.94081">
        <ele>113</ele>
        <time>2014-11-09T07:42:50Z</time>
      </trkpt>
      <trkpt lat="47.05972" lon="-0.94081">
        <ele>113</ele>
        <time>2014-11-09T07:42:53Z</time>
      </trkpt>
      <trkpt lat="47.05972" lon="-0.94081">
        <ele>113</ele>
        <time>2014-11-09T07:43:01Z</time>
      </trkpt>
      <trkpt lat="47.05982" lon="-0.94076">
        <ele>113</ele>
        <time>2014-11-09T07:43:02Z</time>
      </trkpt>
      <trkpt lat="47.05982" lon="-0.94076">
        <ele>113</ele>
        <time>2014-11-09T07:43:05Z</time>
      </trkpt>
      <trkpt lat="47.05993" lon="-0.94082">
        <ele>113</ele>
        <time>2014-11-09T07:43:12Z</time>
      </trkpt>
      <trkpt lat="47.05993" lon="-0.94082">
        <ele>113</ele>
        <time>2014-11-09T07:43:13Z</time>
      </trkpt>
      <trkpt lat="47.05993" lon="-0.94082">
        <ele>113</ele>
        <time>2014-11-09T07:43:21Z</time>
      </trkpt>
      <trkpt lat="47.05993" lon="-0.94082">
        <ele>113</ele>
        <time>2014-11-09T07:43:25Z</time>
      </trkpt>
      <trkpt lat="47.06012" lon="-0.94087">
        <ele>114</ele>
        <time>2014-11-09T07:43:37Z</time>
      </trkpt>
      <trkpt lat="47.06029" lon="-0.9409">
        <ele>110</ele>
        <time>2014-11-09T07:43:39Z</time>
      </trkpt>
      <trkpt lat="47.06029" lon="-0.9409">
        <ele>110</ele>
        <time>2014-11-09T07:43:41Z</time>
      </trkpt>
      <trkpt lat="47.06029" lon="-0.9409">
        <ele>110</ele>
        <time>2014-11-09T07:43:49Z</time>
      </trkpt>
      <trkpt lat="47.06029" lon="-0.9409">
        <ele>110</ele>
        <time>2014-11-09T07:43:53Z</time>
      </trkpt>
      <trkpt lat="47.06046" lon="-0.94072">
        <ele>106</ele>
        <time>2014-11-09T07:43:54Z</time>
      </trkpt>
      <trkpt lat="47.06046" lon="-0.94072">
        <ele>106</ele>
        <time>2014-11-09T07:43:57Z</time>
      </trkpt>
      <trkpt lat="47.06046" lon="-0.94072">
        <ele>106</ele>
        <time>2014-11-09T07:44:05Z</time>
      </trkpt>
      <trkpt lat="47.06046" lon="-0.94072">
        <ele>106</ele>
        <time>2014-11-09T07:44:09Z</time>
      </trkpt>
      <trkpt lat="47.06057" lon="-0.94048">
        <ele>107</ele>
        <time>2014-11-09T07:44:10Z</time>
      </trkpt>
      <trkpt lat="47.06057" lon="-0.94048">
        <ele>107</ele>
        <time>2014-11-09T07:44:13Z</time>
      </trkpt>
      <trkpt lat="47.06057" lon="-0.94048">
        <ele>107</ele>
        <time>2014-11-09T07:44:21Z</time>
      </trkpt>
      <trkpt lat="47.06057" lon="-0.94048">
        <ele>107</ele>
        <time>2014-11-09T07:44:25Z</time>
      </trkpt>
      <trkpt lat="47.06071" lon="-0.94027">
        <ele>106</ele>
        <time>2014-11-09T07:44:26Z</time>
      </trkpt>
      <trkpt lat="47.06071" lon="-0.94027">
        <ele>106</ele>
        <time>2014-11-09T07:44:29Z</time>
      </trkpt>
      <trkpt lat="47.06071" lon="-0.94027">
        <ele>106</ele>
        <time>2014-11-09T07:44:37Z</time>
      </trkpt>
      <trkpt lat="47.06081" lon="-0.94004">
        <ele>108</ele>
        <time>2014-11-09T07:44:40Z</time>
      </trkpt>
      <trkpt lat="47.06081" lon="-0.94004">
        <ele>108</ele>
        <time>2014-11-09T07:44:41Z</time>
      </trkpt>
      <trkpt lat="47.06081" lon="-0.94004">
        <ele>108</ele>
        <time>2014-11-09T07:44:49Z</time>
      </trkpt>
      <trkpt lat="47.06092" lon="-0.93986">
        <ele>109</ele>
        <time>2014-11-09T07:44:52Z</time>
      </trkpt>
      <trkpt lat="47.06092" lon="-0.93986">
        <ele>109</ele>
        <time>2014-11-09T07:44:53Z</time>
      </trkpt>
      <trkpt lat="47.06092" lon="-0.93986">
        <ele>109</ele>
        <time>2014-11-09T07:45:01Z</time>
      </trkpt>
      <trkpt lat="47.06101" lon="-0.9397">
        <ele>109</ele>
        <time>2014-11-09T07:45:13Z</time>
      </trkpt>
      <trkpt lat="47.06115" lon="-0.93958">
        <ele>103</ele>
        <time>2014-11-09T07:45:25Z</time>
      </trkpt>
      <trkpt lat="47.06133" lon="-0.93953">
        <ele>107</ele>
        <time>2014-11-09T07:45:26Z</time>
      </trkpt>
      <trkpt lat="47.06133" lon="-0.93953">
        <ele>107</ele>
        <time>2014-11-09T07:45:29Z</time>
      </trkpt>
      <trkpt lat="47.06133" lon="-0.93953">
        <ele>107</ele>
        <time>2014-11-09T07:45:37Z</time>
      </trkpt>
      <trkpt lat="47.06145" lon="-0.93956">
        <ele>108</ele>
        <time>2014-11-09T07:45:38Z</time>
      </trkpt>
      <trkpt lat="47.06145" lon="-0.93956">
        <ele>108</ele>
        <time>2014-11-09T07:45:41Z</time>
      </trkpt>
      <trkpt lat="47.06145" lon="-0.93956">
        <ele>108</ele>
        <time>2014-11-09T07:45:49Z</time>
      </trkpt>
      <trkpt lat="47.06145" lon="-0.93956">
        <ele>108</ele>
        <time>2014-11-09T07:45:53Z</time>
      </trkpt>
      <trkpt lat="47.06145" lon="-0.93956">
        <ele>108</ele>
        <time>2014-11-09T07:45:57Z</time>
      </trkpt>
      <trkpt lat="47.0618" lon="-0.93943">
        <ele>108</ele>
        <time>2014-11-09T07:46:08Z</time>
      </trkpt>
      <trkpt lat="47.0618" lon="-0.93943">
        <ele>108</ele>
        <time>2014-11-09T07:46:09Z</time>
      </trkpt>
      <trkpt lat="47.0618" lon="-0.93943">
        <ele>108</ele>
        <time>2014-11-09T07:46:17Z</time>
      </trkpt>
      <trkpt lat="47.0618" lon="-0.93943">
        <ele>108</ele>
        <time>2014-11-09T07:46:21Z</time>
      </trkpt>
      <trkpt lat="47.06192" lon="-0.93929">
        <ele>109</ele>
        <time>2014-11-09T07:46:33Z</time>
      </trkpt>
      <trkpt lat="47.06206" lon="-0.93913">
        <ele>113</ele>
        <time>2014-11-09T07:46:36Z</time>
      </trkpt>
      <trkpt lat="47.06206" lon="-0.93913">
        <ele>113</ele>
        <time>2014-11-09T07:46:37Z</time>
      </trkpt>
      <trkpt lat="47.06206" lon="-0.93913">
        <ele>113</ele>
        <time>2014-11-09T07:46:45Z</time>
      </trkpt>
      <trkpt lat="47.06206" lon="-0.93913">
        <ele>113</ele>
        <time>2014-11-09T07:46:49Z</time>
      </trkpt>
      <trkpt lat="47.06226" lon="-0.93895">
        <ele>119</ele>
        <time>2014-11-09T07:46:51Z</time>
      </trkpt>
      <trkpt lat="47.06226" lon="-0.93895">
        <ele>119</ele>
        <time>2014-11-09T07:46:53Z</time>
      </trkpt>
      <trkpt lat="47.06226" lon="-0.93895">
        <ele>119</ele>
        <time>2014-11-09T07:47:01Z</time>
      </trkpt>
      <trkpt lat="47.06226" lon="-0.93895">
        <ele>119</ele>
        <time>2014-11-09T07:47:05Z</time>
      </trkpt>
      <trkpt lat="47.06236" lon="-0.93875">
        <ele>119</ele>
        <time>2014-11-09T07:47:06Z</time>
      </trkpt>
      <trkpt lat="47.06236" lon="-0.93875">
        <ele>119</ele>
        <time>2014-11-09T07:47:09Z</time>
      </trkpt>
      <trkpt lat="47.06236" lon="-0.93875">
        <ele>119</ele>
        <time>2014-11-09T07:47:17Z</time>
      </trkpt>
      <trkpt lat="47.06238" lon="-0.93857">
        <ele>112</ele>
        <time>2014-11-09T07:47:20Z</time>
      </trkpt>
      <trkpt lat="47.06238" lon="-0.93857">
        <ele>112</ele>
        <time>2014-11-09T07:47:21Z</time>
      </trkpt>
      <trkpt lat="47.06238" lon="-0.93857">
        <ele>112</ele>
        <time>2014-11-09T07:47:29Z</time>
      </trkpt>
      <trkpt lat="47.06238" lon="-0.93857">
        <ele>112</ele>
        <time>2014-11-09T07:47:33Z</time>
      </trkpt>
      <trkpt lat="47.06242" lon="-0.93828">
        <ele>115</ele>
        <time>2014-11-09T07:47:45Z</time>
      </trkpt>
      <trkpt lat="47.0625" lon="-0.93808">
        <ele>118</ele>
        <time>2014-11-09T07:47:47Z</time>
      </trkpt>
      <trkpt lat="47.0625" lon="-0.93808">
        <ele>118</ele>
        <time>2014-11-09T07:47:49Z</time>
      </trkpt>
      <trkpt lat="47.0625" lon="-0.93808">
        <ele>118</ele>
        <time>2014-11-09T07:47:57Z</time>
      </trkpt>
      <trkpt lat="47.0625" lon="-0.93808">
        <ele>118</ele>
        <time>2014-11-09T07:48:01Z</time>
      </trkpt>
      <trkpt lat="47.0625" lon="-0.93808">
        <ele>118</ele>
        <time>2014-11-09T07:48:05Z</time>
      </trkpt>
      <trkpt lat="47.06271" lon="-0.93795">
        <ele>114</ele>
        <time>2014-11-09T07:48:17Z</time>
      </trkpt>
      <trkpt lat="47.06287" lon="-0.93793">
        <ele>115</ele>
        <time>2014-11-09T07:48:19Z</time>
      </trkpt>
      <trkpt lat="47.06287" lon="-0.93793">
        <ele>115</ele>
        <time>2014-11-09T07:48:21Z</time>
      </trkpt>
      <trkpt lat="47.06287" lon="-0.93793">
        <ele>115</ele>
        <time>2014-11-09T07:48:29Z</time>
      </trkpt>
      <trkpt lat="47.06287" lon="-0.93793">
        <ele>115</ele>
        <time>2014-11-09T07:48:33Z</time>
      </trkpt>
      <trkpt lat="47.06287" lon="-0.93793">
        <ele>115</ele>
        <time>2014-11-09T07:48:37Z</time>
      </trkpt>
      <trkpt lat="47.06303" lon="-0.93781">
        <ele>119</ele>
        <time>2014-11-09T07:48:38Z</time>
      </trkpt>
      <trkpt lat="47.06303" lon="-0.93781">
        <ele>119</ele>
        <time>2014-11-09T07:48:49Z</time>
      </trkpt>
      <trkpt lat="47.06303" lon="-0.93781">
        <ele>119</ele>
        <time>2014-11-09T07:48:53Z</time>
      </trkpt>
      <trkpt lat="47.06325" lon="-0.93774">
        <ele>122</ele>
        <time>2014-11-09T07:48:55Z</time>
      </trkpt>
      <trkpt lat="47.06325" lon="-0.93774">
        <ele>122</ele>
        <time>2014-11-09T07:48:57Z</time>
      </trkpt>
      <trkpt lat="47.06325" lon="-0.93774">
        <ele>122</ele>
        <time>2014-11-09T07:49:05Z</time>
      </trkpt>
      <trkpt lat="47.06325" lon="-0.93774">
        <ele>122</ele>
        <time>2014-11-09T07:49:09Z</time>
      </trkpt>
      <trkpt lat="47.06325" lon="-0.93774">
        <ele>122</ele>
        <time>2014-11-09T07:49:13Z</time>
      </trkpt>
      <trkpt lat="47.06342" lon="-0.93772">
        <ele>128</ele>
        <time>2014-11-09T07:49:14Z</time>
      </trkpt>
      <trkpt lat="47.06342" lon="-0.93772">
        <ele>128</ele>
        <time>2014-11-09T07:49:17Z</time>
      </trkpt>
      <trkpt lat="47.06342" lon="-0.93772">
        <ele>128</ele>
        <time>2014-11-09T07:49:25Z</time>
      </trkpt>
      <trkpt lat="47.06342" lon="-0.93772">
        <ele>128</ele>
        <time>2014-11-09T07:49:29Z</time>
      </trkpt>
      <trkpt lat="47.0636" lon="-0.93759">
        <ele>130</ele>
        <time>2014-11-09T07:49:30Z</time>
      </trkpt>
      <trkpt lat="47.0636" lon="-0.93759">
        <ele>130</ele>
        <time>2014-11-09T07:49:33Z</time>
      </trkpt>
      <trkpt lat="47.0636" lon="-0.93759">
        <ele>130</ele>
        <time>2014-11-09T07:49:41Z</time>
      </trkpt>
      <trkpt lat="47.0636" lon="-0.93759">
        <ele>130</ele>
        <time>2014-11-09T07:49:45Z</time>
      </trkpt>
      <trkpt lat="47.06374" lon="-0.93744">
        <ele>133</ele>
        <time>2014-11-09T07:49:48Z</time>
      </trkpt>
      <trkpt lat="47.06374" lon="-0.93744">
        <ele>133</ele>
        <time>2014-11-09T07:49:49Z</time>
      </trkpt>
      <trkpt lat="47.06374" lon="-0.93744">
        <ele>133</ele>
        <time>2014-11-09T07:49:57Z</time>
      </trkpt>
      <trkpt lat="47.06374" lon="-0.93744">
        <ele>133</ele>
        <time>2014-11-09T07:50:01Z</time>
      </trkpt>
      <trkpt lat="47.06374" lon="-0.93744">
        <ele>133</ele>
        <time>2014-11-09T07:50:05Z</time>
      </trkpt>
      <trkpt lat="47.06403" lon="-0.93725">
        <ele>137</ele>
        <time>2014-11-09T07:50:15Z</time>
      </trkpt>
      <trkpt lat="47.06403" lon="-0.93725">
        <ele>137</ele>
        <time>2014-11-09T07:50:17Z</time>
      </trkpt>
      <trkpt lat="47.06403" lon="-0.93725">
        <ele>137</ele>
        <time>2014-11-09T07:50:25Z</time>
      </trkpt>
      <trkpt lat="47.06414" lon="-0.9372">
        <ele>136</ele>
        <time>2014-11-09T07:50:37Z</time>
      </trkpt>
      <trkpt lat="47.06425" lon="-0.93707">
        <ele>138</ele>
        <time>2014-11-09T07:50:49Z</time>
      </trkpt>
      <trkpt lat="47.06439" lon="-0.93696">
        <ele>140</ele>
        <time>2014-11-09T07:50:50Z</time>
      </trkpt>
      <trkpt lat="47.06439" lon="-0.93696">
        <ele>140</ele>
        <time>2014-11-09T07:50:53Z</time>
      </trkpt>
      <trkpt lat="47.06439" lon="-0.93696">
        <ele>140</ele>
        <time>2014-11-09T07:51:01Z</time>
      </trkpt>
      <trkpt lat="47.06455" lon="-0.93688">
        <ele>140</ele>
        <time>2014-11-09T07:51:04Z</time>
      </trkpt>
      <trkpt lat="47.06455" lon="-0.93688">
        <ele>140</ele>
        <time>2014-11-09T07:51:05Z</time>
      </trkpt>
      <trkpt lat="47.06455" lon="-0.93688">
        <ele>140</ele>
        <time>2014-11-09T07:51:13Z</time>
      </trkpt>
      <trkpt lat="47.06466" lon="-0.93685">
        <ele>141</ele>
        <time>2014-11-09T07:51:15Z</time>
      </trkpt>
      <trkpt lat="47.06466" lon="-0.93685">
        <ele>141</ele>
        <time>2014-11-09T07:51:17Z</time>
      </trkpt>
      <trkpt lat="47.06466" lon="-0.93685">
        <ele>141</ele>
        <time>2014-11-09T07:51:25Z</time>
      </trkpt>
      <trkpt lat="47.06466" lon="-0.93685">
        <ele>141</ele>
        <time>2014-11-09T07:51:29Z</time>
      </trkpt>
      <trkpt lat="47.06466" lon="-0.93685">
        <ele>141</ele>
        <time>2014-11-09T07:51:33Z</time>
      </trkpt>
      <trkpt lat="47.06466" lon="-0.93685">
        <ele>95.2</ele>
        <time>2014-11-09T07:51:36Z</time>
      </trkpt>
      <trkpt lat="47.06466" lon="-0.93685">
        <ele>95.2</ele>
        <time>2014-11-09T07:51:42Z</time>
      </trkpt>
      <trkpt lat="47.06489" lon="-0.93679">
        <ele>140</ele>
        <time>2014-11-09T07:51:42Z</time>
      </trkpt>
      <trkpt lat="47.06489" lon="-0.93679">
        <ele>140</ele>
        <time>2014-11-09T07:51:50Z</time>
      </trkpt>
      <trkpt lat="47.06489" lon="-0.93679">
        <ele>140</ele>
        <time>2014-11-09T07:51:54Z</time>
      </trkpt>
      <trkpt lat="47.06489" lon="-0.93679">
        <ele>140</ele>
        <time>2014-11-09T07:51:58Z</time>
      </trkpt>
      <trkpt lat="47.06511" lon="-0.93673">
        <ele>142</ele>
        <time>2014-11-09T07:52:00Z</time>
      </trkpt>
      <trkpt lat="47.06511" lon="-0.93673">
        <ele>142</ele>
        <time>2014-11-09T07:52:02Z</time>
      </trkpt>
      <trkpt lat="47.06511" lon="-0.93673">
        <ele>142</ele>
        <time>2014-11-09T07:52:11Z</time>
      </trkpt>
      <trkpt lat="47.06511" lon="-0.93673">
        <ele>142</ele>
        <time>2014-11-09T07:52:14Z</time>
      </trkpt>
      <trkpt lat="47.06528" lon="-0.93667">
        <ele>141</ele>
        <time>2014-11-09T07:52:16Z</time>
      </trkpt>
      <trkpt lat="47.06528" lon="-0.93667">
        <ele>141</ele>
        <time>2014-11-09T07:52:18Z</time>
      </trkpt>
      <trkpt lat="47.06528" lon="-0.93667">
        <ele>141</ele>
        <time>2014-11-09T07:52:26Z</time>
      </trkpt>
      <trkpt lat="47.06541" lon="-0.93667">
        <ele>144</ele>
        <time>2014-11-09T07:52:28Z</time>
      </trkpt>
      <trkpt lat="47.06541" lon="-0.93667">
        <ele>144</ele>
        <time>2014-11-09T07:52:30Z</time>
      </trkpt>
      <trkpt lat="47.06541" lon="-0.93667">
        <ele>144</ele>
        <time>2014-11-09T07:52:38Z</time>
      </trkpt>
      <trkpt lat="47.06553" lon="-0.93665">
        <ele>147</ele>
        <time>2014-11-09T07:52:40Z</time>
      </trkpt>
      <trkpt lat="47.06553" lon="-0.93665">
        <ele>147</ele>
        <time>2014-11-09T07:52:42Z</time>
      </trkpt>
      <trkpt lat="47.06553" lon="-0.93665">
        <ele>147</ele>
        <time>2014-11-09T07:52:50Z</time>
      </trkpt>
      <trkpt lat="47.06553" lon="-0.93665">
        <ele>147</ele>
        <time>2014-11-09T07:52:54Z</time>
      </trkpt>
      <trkpt lat="47.06569" lon="-0.93657">
        <ele>150</ele>
        <time>2014-11-09T07:52:55Z</time>
      </trkpt>
      <trkpt lat="47.06569" lon="-0.93657">
        <ele>150</ele>
        <time>2014-11-09T07:53:06Z</time>
      </trkpt>
      <trkpt lat="47.06569" lon="-0.93657">
        <ele>150</ele>
        <time>2014-11-09T07:53:10Z</time>
      </trkpt>
      <trkpt lat="47.06586" lon="-0.93658">
        <ele>150</ele>
        <time>2014-11-09T07:53:13Z</time>
      </trkpt>
      <trkpt lat="47.06586" lon="-0.93658">
        <ele>150</ele>
        <time>2014-11-09T07:53:14Z</time>
      </trkpt>
      <trkpt lat="47.06598" lon="-0.93659">
        <ele>150</ele>
        <time>2014-11-09T07:53:22Z</time>
      </trkpt>
      <trkpt lat="47.06598" lon="-0.93659">
        <ele>150</ele>
        <time>2014-11-09T07:53:31Z</time>
      </trkpt>
      <trkpt lat="47.06609" lon="-0.93661">
        <ele>150</ele>
        <time>2014-11-09T07:53:33Z</time>
      </trkpt>
      <trkpt lat="47.06609" lon="-0.93661">
        <ele>150</ele>
        <time>2014-11-09T07:53:34Z</time>
      </trkpt>
      <trkpt lat="47.06609" lon="-0.93661">
        <ele>150</ele>
        <time>2014-11-09T07:53:43Z</time>
      </trkpt>
      <trkpt lat="47.06623" lon="-0.93676">
        <ele>151</ele>
        <time>2014-11-09T07:53:46Z</time>
      </trkpt>
      <trkpt lat="47.06623" lon="-0.93676">
        <ele>151</ele>
        <time>2014-11-09T07:53:55Z</time>
      </trkpt>
      <trkpt lat="47.06623" lon="-0.93676">
        <ele>151</ele>
        <time>2014-11-09T07:53:59Z</time>
      </trkpt>
      <trkpt lat="47.06639" lon="-0.93684">
        <ele>149</ele>
        <time>2014-11-09T07:54:11Z</time>
      </trkpt>
      <trkpt lat="47.0665" lon="-0.93689">
        <ele>147</ele>
        <time>2014-11-09T07:54:13Z</time>
      </trkpt>
      <trkpt lat="47.0665" lon="-0.93689">
        <ele>147</ele>
        <time>2014-11-09T07:54:15Z</time>
      </trkpt>
      <trkpt lat="47.0665" lon="-0.93689">
        <ele>147</ele>
        <time>2014-11-09T07:54:23Z</time>
      </trkpt>
      <trkpt lat="47.06662" lon="-0.93691">
        <ele>150</ele>
        <time>2014-11-09T07:54:24Z</time>
      </trkpt>
      <trkpt lat="47.06662" lon="-0.93691">
        <ele>150</ele>
        <time>2014-11-09T07:54:27Z</time>
      </trkpt>
      <trkpt lat="47.06662" lon="-0.93691">
        <ele>150</ele>
        <time>2014-11-09T07:54:35Z</time>
      </trkpt>
      <trkpt lat="47.06677" lon="-0.93699">
        <ele>148</ele>
        <time>2014-11-09T07:54:36Z</time>
      </trkpt>
      <trkpt lat="47.06677" lon="-0.93699">
        <ele>148</ele>
        <time>2014-11-09T07:54:39Z</time>
      </trkpt>
      <trkpt lat="47.06677" lon="-0.93699">
        <ele>148</ele>
        <time>2014-11-09T07:54:47Z</time>
      </trkpt>
      <trkpt lat="47.06692" lon="-0.93706">
        <ele>150</ele>
        <time>2014-11-09T07:54:49Z</time>
      </trkpt>
      <trkpt lat="47.06692" lon="-0.93706">
        <ele>150</ele>
        <time>2014-11-09T07:54:51Z</time>
      </trkpt>
      <trkpt lat="47.06692" lon="-0.93706">
        <ele>150</ele>
        <time>2014-11-09T07:54:59Z</time>
      </trkpt>
      <trkpt lat="47.06692" lon="-0.93706">
        <ele>150</ele>
        <time>2014-11-09T07:55:03Z</time>
      </trkpt>
      <trkpt lat="47.06692" lon="-0.93706">
        <ele>150</ele>
        <time>2014-11-09T07:55:07Z</time>
      </trkpt>
      <trkpt lat="47.06692" lon="-0.93706">
        <ele>110</ele>
        <time>2014-11-09T07:55:09Z</time>
      </trkpt>
      <trkpt lat="47.06692" lon="-0.93706">
        <ele>110</ele>
        <time>2014-11-09T07:57:05Z</time>
      </trkpt>
      <trkpt lat="47.06692" lon="-0.93706">
        <ele>110</ele>
        <time>2014-11-09T07:57:06Z</time>
      </trkpt>
      <trkpt lat="47.06692" lon="-0.93706">
        <ele>110</ele>
        <time>2014-11-09T07:57:10Z</time>
      </trkpt>
      <trkpt lat="47.06692" lon="-0.93706">
        <ele>110</ele>
        <time>2014-11-09T07:57:14Z</time>
      </trkpt>
      <trkpt lat="47.06692" lon="-0.93706">
        <ele>110</ele>
        <time>2014-11-09T07:57:18Z</time>
      </trkpt>
      <trkpt lat="47.06692" lon="-0.93706">
        <ele>110</ele>
        <time>2014-11-09T07:57:22Z</time>
      </trkpt>
      <trkpt lat="47.06692" lon="-0.93706">
        <ele>110</ele>
        <time>2014-11-09T07:57:26Z</time>
      </trkpt>
      <trkpt lat="47.06692" lon="-0.93706">
        <ele>110</ele>
        <time>2014-11-09T07:57:30Z</time>
      </trkpt>
      <trkpt lat="47.06692" lon="-0.93706">
        <ele>110</ele>
        <time>2014-11-09T07:57:34Z</time>
      </trkpt>
      <trkpt lat="47.06692" lon="-0.93706">
        <ele>110</ele>
        <time>2014-11-09T07:59:07Z</time>
      </trkpt>
      <trkpt lat="47.06692" lon="-0.93706">
        <ele>110</ele>
        <time>2014-11-09T07:59:08Z</time>
      </trkpt>
      <trkpt lat="47.06692" lon="-0.93706">
        <ele>110</ele>
        <time>2014-11-09T07:59:12Z</time>
      </trkpt>
      <trkpt lat="47.06692" lon="-0.93706">
        <ele>110</ele>
        <time>2014-11-09T07:59:16Z</time>
      </trkpt>
      <trkpt lat="47.06692" lon="-0.93706">
        <ele>110</ele>
        <time>2014-11-09T07:59:20Z</time>
      </trkpt>
      <trkpt lat="47.06692" lon="-0.93706">
        <ele>110</ele>
        <time>2014-11-09T07:59:24Z</time>
      </trkpt>
      <trkpt lat="47.06692" lon="-0.93706">
        <ele>110</ele>
        <time>2014-11-09T07:59:25Z</time>
      </trkpt>
      <trkpt lat="47.06692" lon="-0.93706">
        <ele>110</ele>
        <time>2014-11-09T07:59:51Z</time>
      </trkpt>
      <trkpt lat="47.06692" lon="-0.93706">
        <ele>110</ele>
        <time>2014-11-09T07:59:55Z</time>
      </trkpt>
      <trkpt lat="47.06692" lon="-0.93706">
        <ele>110</ele>
        <time>2014-11-09T07:59:59Z</time>
      </trkpt>
      <trkpt lat="47.06692" lon="-0.93706">
        <ele>110</ele>
        <time>2014-11-09T08:00:03Z</time>
      </trkpt>
      <trkpt lat="47.06692" lon="-0.93706">
        <ele>110</ele>
        <time>2014-11-09T08:00:07Z</time>
      </trkpt>
      <trkpt lat="47.06692" lon="-0.93706">
        <ele>110</ele>
        <time>2014-11-09T08:00:07Z</time>
      </trkpt>
      <trkpt lat="47.06692" lon="-0.93706">
        <ele>110</ele>
        <time>2014-11-09T08:01:52Z</time>
      </trkpt>
      <trkpt lat="47.06692" lon="-0.93706">
        <ele>110</ele>
        <time>2014-11-09T08:01:52Z</time>
      </trkpt>
      <trkpt lat="47.06692" lon="-0.93706">
        <ele>110</ele>
        <time>2014-11-09T08:01:56Z</time>
      </trkpt>
      <trkpt lat="47.06692" lon="-0.93706">
        <ele>110</ele>
        <time>2014-11-09T08:02:00Z</time>
      </trkpt>
      <trkpt lat="47.06692" lon="-0.93706">
        <ele>110</ele>
        <time>2014-11-09T08:02:04Z</time>
      </trkpt>
      <trkpt lat="47.06692" lon="-0.93706">
        <ele>110</ele>
        <time>2014-11-09T08:02:08Z</time>
      </trkpt>
      <trkpt lat="47.06692" lon="-0.93706">
        <ele>110</ele>
        <time>2014-11-09T08:02:12Z</time>
      </trkpt>
      <trkpt lat="47.06698" lon="-0.93695">
        <ele>152</ele>
        <time>2014-11-09T08:02:15Z</time>
      </trkpt>
      <trkpt lat="47.06698" lon="-0.93695">
        <ele>152</ele>
        <time>2014-11-09T08:02:16Z</time>
      </trkpt>
      <trkpt lat="47.06698" lon="-0.93695">
        <ele>152</ele>
        <time>2014-11-09T08:02:24Z</time>
      </trkpt>
      <trkpt lat="47.06705" lon="-0.93676">
        <ele>154</ele>
        <time>2014-11-09T08:02:28Z</time>
      </trkpt>
      <trkpt lat="47.06705" lon="-0.93676">
        <ele>154</ele>
        <time>2014-11-09T08:02:36Z</time>
      </trkpt>
      <trkpt lat="47.06705" lon="-0.93676">
        <ele>154</ele>
        <time>2014-11-09T08:02:40Z</time>
      </trkpt>
      <trkpt lat="47.06705" lon="-0.93676">
        <ele>154</ele>
        <time>2014-11-09T08:02:44Z</time>
      </trkpt>
      <trkpt lat="47.0671" lon="-0.93656">
        <ele>158</ele>
        <time>2014-11-09T08:02:45Z</time>
      </trkpt>
      <trkpt lat="47.0671" lon="-0.93639">
        <ele>157</ele>
        <time>2014-11-09T08:02:55Z</time>
      </trkpt>
      <trkpt lat="47.0671" lon="-0.93639">
        <ele>157</ele>
        <time>2014-11-09T08:02:56Z</time>
      </trkpt>
      <trkpt lat="47.0671" lon="-0.93639">
        <ele>157</ele>
        <time>2014-11-09T08:03:04Z</time>
      </trkpt>
      <trkpt lat="47.0671" lon="-0.93639">
        <ele>157</ele>
        <time>2014-11-09T08:03:08Z</time>
      </trkpt>
      <trkpt lat="47.06711" lon="-0.93609">
        <ele>157</ele>
        <time>2014-11-09T08:03:11Z</time>
      </trkpt>
      <trkpt lat="47.06711" lon="-0.93609">
        <ele>157</ele>
        <time>2014-11-09T08:03:12Z</time>
      </trkpt>
      <trkpt lat="47.06711" lon="-0.93609">
        <ele>157</ele>
        <time>2014-11-09T08:03:20Z</time>
      </trkpt>
      <trkpt lat="47.06711" lon="-0.93609">
        <ele>157</ele>
        <time>2014-11-09T08:03:24Z</time>
      </trkpt>
      <trkpt lat="47.06711" lon="-0.93609">
        <ele>157</ele>
        <time>2014-11-09T08:03:28Z</time>
      </trkpt>
      <trkpt lat="47.06722" lon="-0.93598">
        <ele>157</ele>
        <time>2014-11-09T08:03:29Z</time>
      </trkpt>
      <trkpt lat="47.06722" lon="-0.93598">
        <ele>157</ele>
        <time>2014-11-09T08:03:40Z</time>
      </trkpt>
      <trkpt lat="47.06722" lon="-0.93598">
        <ele>157</ele>
        <time>2014-11-09T08:03:44Z</time>
      </trkpt>
      <trkpt lat="47.06742" lon="-0.936">
        <ele>153</ele>
        <time>2014-11-09T08:03:46Z</time>
      </trkpt>
      <trkpt lat="47.06742" lon="-0.936">
        <ele>153</ele>
        <time>2014-11-09T08:03:48Z</time>
      </trkpt>
      <trkpt lat="47.06742" lon="-0.936">
        <ele>153</ele>
        <time>2014-11-09T08:03:56Z</time>
      </trkpt>
      <trkpt lat="47.06742" lon="-0.936">
        <ele>153</ele>
        <time>2014-11-09T08:04:00Z</time>
      </trkpt>
      <trkpt lat="47.0676" lon="-0.93603">
        <ele>153</ele>
        <time>2014-11-09T08:04:01Z</time>
      </trkpt>
      <trkpt lat="47.06771" lon="-0.93604">
        <ele>153</ele>
        <time>2014-11-09T08:04:09Z</time>
      </trkpt>
      <trkpt lat="47.06771" lon="-0.93604">
        <ele>153</ele>
        <time>2014-11-09T08:04:20Z</time>
      </trkpt>
      <trkpt lat="47.0679" lon="-0.93607">
        <ele>156</ele>
        <time>2014-11-09T08:04:23Z</time>
      </trkpt>
      <trkpt lat="47.0679" lon="-0.93607">
        <ele>156</ele>
        <time>2014-11-09T08:04:24Z</time>
      </trkpt>
      <trkpt lat="47.0679" lon="-0.93607">
        <ele>156</ele>
        <time>2014-11-09T08:04:32Z</time>
      </trkpt>
      <trkpt lat="47.06805" lon="-0.93617">
        <ele>157</ele>
        <time>2014-11-09T08:04:35Z</time>
      </trkpt>
      <trkpt lat="47.06805" lon="-0.93617">
        <ele>157</ele>
        <time>2014-11-09T08:04:36Z</time>
      </trkpt>
      <trkpt lat="47.06805" lon="-0.93617">
        <ele>157</ele>
        <time>2014-11-09T08:04:44Z</time>
      </trkpt>
      <trkpt lat="47.06805" lon="-0.93617">
        <ele>157</ele>
        <time>2014-11-09T08:04:48Z</time>
      </trkpt>
      <trkpt lat="47.06823" lon="-0.93625">
        <ele>157</ele>
        <time>2014-11-09T08:04:51Z</time>
      </trkpt>
      <trkpt lat="47.06823" lon="-0.93625">
        <ele>157</ele>
        <time>2014-11-09T08:04:52Z</time>
      </trkpt>
      <trkpt lat="47.06823" lon="-0.93625">
        <ele>157</ele>
        <time>2014-11-09T08:05:01Z</time>
      </trkpt>
      <trkpt lat="47.06823" lon="-0.93625">
        <ele>157</ele>
        <time>2014-11-09T08:05:05Z</time>
      </trkpt>
      <trkpt lat="47.06823" lon="-0.93625">
        <ele>157</ele>
        <time>2014-11-09T08:05:09Z</time>
      </trkpt>
      <trkpt lat="47.06846" lon="-0.93633">
        <ele>156</ele>
        <time>2014-11-09T08:05:10Z</time>
      </trkpt>
      <trkpt lat="47.06846" lon="-0.93633">
        <ele>156</ele>
        <time>2014-11-09T08:05:13Z</time>
      </trkpt>
      <trkpt lat="47.06846" lon="-0.93633">
        <ele>156</ele>
        <time>2014-11-09T08:05:21Z</time>
      </trkpt>
      <trkpt lat="47.06846" lon="-0.93633">
        <ele>156</ele>
        <time>2014-11-09T08:05:25Z</time>
      </trkpt>
      <trkpt lat="47.06862" lon="-0.93643">
        <ele>160</ele>
        <time>2014-11-09T08:05:37Z</time>
      </trkpt>
      <trkpt lat="47.06878" lon="-0.93646">
        <ele>160</ele>
        <time>2014-11-09T08:05:49Z</time>
      </trkpt>
      <trkpt lat="47.06897" lon="-0.93637">
        <ele>164</ele>
        <time>2014-11-09T08:05:52Z</time>
      </trkpt>
      <trkpt lat="47.06897" lon="-0.93637">
        <ele>164</ele>
        <time>2014-11-09T08:05:53Z</time>
      </trkpt>
      <trkpt lat="47.06897" lon="-0.93637">
        <ele>164</ele>
        <time>2014-11-09T08:06:01Z</time>
      </trkpt>
      <trkpt lat="47.06909" lon="-0.93623">
        <ele>164</ele>
        <time>2014-11-09T08:06:04Z</time>
      </trkpt>
      <trkpt lat="47.06909" lon="-0.93623">
        <ele>164</ele>
        <time>2014-11-09T08:06:05Z</time>
      </trkpt>
      <trkpt lat="47.06909" lon="-0.93623">
        <ele>164</ele>
        <time>2014-11-09T08:06:13Z</time>
      </trkpt>
      <trkpt lat="47.06909" lon="-0.93623">
        <ele>164</ele>
        <time>2014-11-09T08:06:17Z</time>
      </trkpt>
      <trkpt lat="47.06922" lon="-0.93622">
        <ele>159</ele>
        <time>2014-11-09T08:06:20Z</time>
      </trkpt>
      <trkpt lat="47.06922" lon="-0.93622">
        <ele>159</ele>
        <time>2014-11-09T08:06:21Z</time>
      </trkpt>
      <trkpt lat="47.06922" lon="-0.93622">
        <ele>159</ele>
        <time>2014-11-09T08:06:29Z</time>
      </trkpt>
      <trkpt lat="47.06932" lon="-0.9364">
        <ele>160</ele>
        <time>2014-11-09T08:06:32Z</time>
      </trkpt>
      <trkpt lat="47.06932" lon="-0.9364">
        <ele>160</ele>
        <time>2014-11-09T08:06:33Z</time>
      </trkpt>
      <trkpt lat="47.06932" lon="-0.9364">
        <ele>160</ele>
        <time>2014-11-09T08:06:41Z</time>
      </trkpt>
      <trkpt lat="47.06932" lon="-0.9364">
        <ele>160</ele>
        <time>2014-11-09T08:06:45Z</time>
      </trkpt>
      <trkpt lat="47.06932" lon="-0.9364">
        <ele>160</ele>
        <time>2014-11-09T08:06:49Z</time>
      </trkpt>
      <trkpt lat="47.06945" lon="-0.93662">
        <ele>160</ele>
        <time>2014-11-09T08:06:51Z</time>
      </trkpt>
      <trkpt lat="47.06945" lon="-0.93662">
        <ele>160</ele>
        <time>2014-11-09T08:06:53Z</time>
      </trkpt>
      <trkpt lat="47.06945" lon="-0.93662">
        <ele>160</ele>
        <time>2014-11-09T08:07:01Z</time>
      </trkpt>
      <trkpt lat="47.06945" lon="-0.93662">
        <ele>160</ele>
        <time>2014-11-09T08:07:05Z</time>
      </trkpt>
      <trkpt lat="47.06945" lon="-0.93662">
        <ele>160</ele>
        <time>2014-11-09T08:07:09Z</time>
      </trkpt>
      <trkpt lat="47.0695" lon="-0.9369">
        <ele>160</ele>
        <time>2014-11-09T08:07:21Z</time>
      </trkpt>
      <trkpt lat="47.06964" lon="-0.93709">
        <ele>165</ele>
        <time>2014-11-09T08:07:22Z</time>
      </trkpt>
      <trkpt lat="47.06964" lon="-0.93709">
        <ele>165</ele>
        <time>2014-11-09T08:07:25Z</time>
      </trkpt>
      <trkpt lat="47.06964" lon="-0.93709">
        <ele>165</ele>
        <time>2014-11-09T08:07:33Z</time>
      </trkpt>
      <trkpt lat="47.06974" lon="-0.93724">
        <ele>166</ele>
        <time>2014-11-09T08:07:45Z</time>
      </trkpt>
      <trkpt lat="47.06981" lon="-0.93748">
        <ele>162</ele>
        <time>2014-11-09T08:07:47Z</time>
      </trkpt>
      <trkpt lat="47.06981" lon="-0.93748">
        <ele>162</ele>
        <time>2014-11-09T08:07:49Z</time>
      </trkpt>
      <trkpt lat="47.06992" lon="-0.93759">
        <ele>161</ele>
        <time>2014-11-09T08:07:56Z</time>
      </trkpt>
      <trkpt lat="47.06992" lon="-0.93759">
        <ele>161</ele>
        <time>2014-11-09T08:07:57Z</time>
      </trkpt>
      <trkpt lat="47.06992" lon="-0.93759">
        <ele>161</ele>
        <time>2014-11-09T08:08:05Z</time>
      </trkpt>
      <trkpt lat="47.06992" lon="-0.93759">
        <ele>161</ele>
        <time>2014-11-09T08:08:09Z</time>
      </trkpt>
      <trkpt lat="47.0701" lon="-0.9377">
        <ele>166</ele>
        <time>2014-11-09T08:08:10Z</time>
      </trkpt>
      <trkpt lat="47.0701" lon="-0.9377">
        <ele>166</ele>
        <time>2014-11-09T08:08:13Z</time>
      </trkpt>
      <trkpt lat="47.0701" lon="-0.9377">
        <ele>166</ele>
        <time>2014-11-09T08:08:21Z</time>
      </trkpt>
      <trkpt lat="47.0701" lon="-0.9377">
        <ele>166</ele>
        <time>2014-11-09T08:08:25Z</time>
      </trkpt>
      <trkpt lat="47.0702" lon="-0.93797">
        <ele>167</ele>
        <time>2014-11-09T08:08:26Z</time>
      </trkpt>
      <trkpt lat="47.0702" lon="-0.93797">
        <ele>167</ele>
        <time>2014-11-09T08:08:29Z</time>
      </trkpt>
      <trkpt lat="47.0702" lon="-0.93797">
        <ele>167</ele>
        <time>2014-11-09T08:08:37Z</time>
      </trkpt>
      <trkpt lat="47.07026" lon="-0.93822">
        <ele>170</ele>
        <time>2014-11-09T08:08:40Z</time>
      </trkpt>
      <trkpt lat="47.07026" lon="-0.93822">
        <ele>170</ele>
        <time>2014-11-09T08:08:41Z</time>
      </trkpt>
      <trkpt lat="47.07026" lon="-0.93822">
        <ele>170</ele>
        <time>2014-11-09T08:08:49Z</time>
      </trkpt>
      <trkpt lat="47.07026" lon="-0.93822">
        <ele>170</ele>
        <time>2014-11-09T08:08:53Z</time>
      </trkpt>
      <trkpt lat="47.0703" lon="-0.93848">
        <ele>169</ele>
        <time>2014-11-09T08:08:55Z</time>
      </trkpt>
      <trkpt lat="47.0703" lon="-0.93848">
        <ele>169</ele>
        <time>2014-11-09T08:08:57Z</time>
      </trkpt>
      <trkpt lat="47.0703" lon="-0.93848">
        <ele>169</ele>
        <time>2014-11-09T08:09:05Z</time>
      </trkpt>
      <trkpt lat="47.0703" lon="-0.93848">
        <ele>169</ele>
        <time>2014-11-09T08:09:09Z</time>
      </trkpt>
      <trkpt lat="47.07015" lon="-0.93854">
        <ele>167</ele>
        <time>2014-11-09T08:09:12Z</time>
      </trkpt>
      <trkpt lat="47.07015" lon="-0.93854">
        <ele>167</ele>
        <time>2014-11-09T08:09:13Z</time>
      </trkpt>
      <trkpt lat="47.07015" lon="-0.93854">
        <ele>167</ele>
        <time>2014-11-09T08:09:21Z</time>
      </trkpt>
      <trkpt lat="47.07003" lon="-0.93859">
        <ele>166</ele>
        <time>2014-11-09T08:09:23Z</time>
      </trkpt>
      <trkpt lat="47.07003" lon="-0.93859">
        <ele>166</ele>
        <time>2014-11-09T08:09:25Z</time>
      </trkpt>
      <trkpt lat="47.07003" lon="-0.93859">
        <ele>166</ele>
        <time>2014-11-09T08:09:33Z</time>
      </trkpt>
      <trkpt lat="47.07003" lon="-0.93859">
        <ele>166</ele>
        <time>2014-11-09T08:09:37Z</time>
      </trkpt>
      <trkpt lat="47.07003" lon="-0.93859">
        <ele>166</ele>
        <time>2014-11-09T08:09:41Z</time>
      </trkpt>
      <trkpt lat="47.06972" lon="-0.93873">
        <ele>162</ele>
        <time>2014-11-09T08:09:49Z</time>
      </trkpt>
      <trkpt lat="47.06972" lon="-0.93873">
        <ele>162</ele>
        <time>2014-11-09T08:10:01Z</time>
      </trkpt>
      <trkpt lat="47.06972" lon="-0.93873">
        <ele>162</ele>
        <time>2014-11-09T08:10:05Z</time>
      </trkpt>
      <trkpt lat="47.06972" lon="-0.93873">
        <ele>162</ele>
        <time>2014-11-09T08:10:09Z</time>
      </trkpt>
      <trkpt lat="47.06953" lon="-0.93878">
        <ele>164</ele>
        <time>2014-11-09T08:10:11Z</time>
      </trkpt>
      <trkpt lat="47.06953" lon="-0.93878">
        <ele>164</ele>
        <time>2014-11-09T08:10:13Z</time>
      </trkpt>
      <trkpt lat="47.06945" lon="-0.93882">
        <ele>166</ele>
        <time>2014-11-09T08:10:17Z</time>
      </trkpt>
      <trkpt lat="47.06935" lon="-0.93889">
        <ele>163</ele>
        <time>2014-11-09T08:10:24Z</time>
      </trkpt>
      <trkpt lat="47.06935" lon="-0.93889">
        <ele>163</ele>
        <time>2014-11-09T08:10:33Z</time>
      </trkpt>
      <trkpt lat="47.06935" lon="-0.93889">
        <ele>118.7</ele>
        <time>2014-11-09T08:10:35Z</time>
      </trkpt>
      <trkpt lat="47.06935" lon="-0.93889">
        <ele>118.7</ele>
        <time>2014-11-09T08:10:40Z</time>
      </trkpt>
      <trkpt lat="47.06939" lon="-0.93909">
        <ele>160</ele>
        <time>2014-11-09T08:10:40Z</time>
      </trkpt>
      <trkpt lat="47.06939" lon="-0.93909">
        <ele>160</ele>
        <time>2014-11-09T08:10:41Z</time>
      </trkpt>
      <trkpt lat="47.06939" lon="-0.93909">
        <ele>160</ele>
        <time>2014-11-09T08:10:49Z</time>
      </trkpt>
      <trkpt lat="47.06936" lon="-0.93926">
        <ele>163</ele>
        <time>2014-11-09T08:10:53Z</time>
      </trkpt>
      <trkpt lat="47.06936" lon="-0.93926">
        <ele>163</ele>
        <time>2014-11-09T08:11:01Z</time>
      </trkpt>
      <trkpt lat="47.06934" lon="-0.93945">
        <ele>164</ele>
        <time>2014-11-09T08:11:03Z</time>
      </trkpt>
      <trkpt lat="47.06934" lon="-0.93945">
        <ele>164</ele>
        <time>2014-11-09T08:11:05Z</time>
      </trkpt>
      <trkpt lat="47.06932" lon="-0.93962">
        <ele>168</ele>
        <time>2014-11-09T08:11:13Z</time>
      </trkpt>
      <trkpt lat="47.06932" lon="-0.93962">
        <ele>168</ele>
        <time>2014-11-09T08:11:21Z</time>
      </trkpt>
      <trkpt lat="47.06932" lon="-0.93962">
        <ele>119.5</ele>
        <time>2014-11-09T08:11:22Z</time>
      </trkpt>
      <trkpt lat="47.06932" lon="-0.93962">
        <ele>119.5</ele>
        <time>2014-11-09T08:11:29Z</time>
      </trkpt>
      <trkpt lat="47.06924" lon="-0.93981">
        <ele>166</ele>
        <time>2014-11-09T08:11:29Z</time>
      </trkpt>
      <trkpt lat="47.06924" lon="-0.93981">
        <ele>166</ele>
        <time>2014-11-09T08:11:41Z</time>
      </trkpt>
      <trkpt lat="47.06924" lon="-0.93981">
        <ele>166</ele>
        <time>2014-11-09T08:11:45Z</time>
      </trkpt>
      <trkpt lat="47.06924" lon="-0.94011">
        <ele>164</ele>
        <time>2014-11-09T08:11:46Z</time>
      </trkpt>
      <trkpt lat="47.06924" lon="-0.94011">
        <ele>164</ele>
        <time>2014-11-09T08:11:49Z</time>
      </trkpt>
      <trkpt lat="47.06924" lon="-0.94011">
        <ele>164</ele>
        <time>2014-11-09T08:11:57Z</time>
      </trkpt>
      <trkpt lat="47.0692" lon="-0.94025">
        <ele>164</ele>
        <time>2014-11-09T08:12:09Z</time>
      </trkpt>
      <trkpt lat="47.06916" lon="-0.9405">
        <ele>165</ele>
        <time>2014-11-09T08:12:11Z</time>
      </trkpt>
      <trkpt lat="47.06916" lon="-0.9405">
        <ele>165</ele>
        <time>2014-11-09T08:12:13Z</time>
      </trkpt>
      <trkpt lat="47.06916" lon="-0.9405">
        <ele>165</ele>
        <time>2014-11-09T08:12:21Z</time>
      </trkpt>
      <trkpt lat="47.06916" lon="-0.9405">
        <ele>165</ele>
        <time>2014-11-09T08:12:25Z</time>
      </trkpt>
      <trkpt lat="47.06916" lon="-0.94077">
        <ele>166</ele>
        <time>2014-11-09T08:12:37Z</time>
      </trkpt>
      <trkpt lat="47.06916" lon="-0.94077">
        <ele>166</ele>
        <time>2014-11-09T08:12:41Z</time>
      </trkpt>
      <trkpt lat="47.06931" lon="-0.94102">
        <ele>165</ele>
        <time>2014-11-09T08:12:43Z</time>
      </trkpt>
      <trkpt lat="47.06931" lon="-0.94102">
        <ele>165</ele>
        <time>2014-11-09T08:12:45Z</time>
      </trkpt>
      <trkpt lat="47.06931" lon="-0.94102">
        <ele>165</ele>
        <time>2014-11-09T08:12:53Z</time>
      </trkpt>
      <trkpt lat="47.06931" lon="-0.94102">
        <ele>165</ele>
        <time>2014-11-09T08:12:57Z</time>
      </trkpt>
      <trkpt lat="47.06931" lon="-0.94102">
        <ele>165</ele>
        <time>2014-11-09T08:13:01Z</time>
      </trkpt>
      <trkpt lat="47.06938" lon="-0.94127">
        <ele>163</ele>
        <time>2014-11-09T08:13:13Z</time>
      </trkpt>
      <trkpt lat="47.06938" lon="-0.94127">
        <ele>163</ele>
        <time>2014-11-09T08:13:17Z</time>
      </trkpt>
      <trkpt lat="47.06925" lon="-0.94155">
        <ele>167</ele>
        <time>2014-11-09T08:13:19Z</time>
      </trkpt>
      <trkpt lat="47.06925" lon="-0.94155">
        <ele>167</ele>
        <time>2014-11-09T08:13:21Z</time>
      </trkpt>
      <trkpt lat="47.06925" lon="-0.94155">
        <ele>167</ele>
        <time>2014-11-09T08:13:29Z</time>
      </trkpt>
      <trkpt lat="47.06922" lon="-0.94177">
        <ele>168</ele>
        <time>2014-11-09T08:13:31Z</time>
      </trkpt>
      <trkpt lat="47.06922" lon="-0.94177">
        <ele>168</ele>
        <time>2014-11-09T08:13:33Z</time>
      </trkpt>
      <trkpt lat="47.06921" lon="-0.94193">
        <ele>169</ele>
        <time>2014-11-09T08:13:40Z</time>
      </trkpt>
      <trkpt lat="47.06921" lon="-0.94193">
        <ele>169</ele>
        <time>2014-11-09T08:13:41Z</time>
      </trkpt>
      <trkpt lat="47.06921" lon="-0.94193">
        <ele>169</ele>
        <time>2014-11-09T08:13:49Z</time>
      </trkpt>
      <trkpt lat="47.06921" lon="-0.94193">
        <ele>169</ele>
        <time>2014-11-09T08:13:53Z</time>
      </trkpt>
      <trkpt lat="47.06915" lon="-0.94216">
        <ele>169</ele>
        <time>2014-11-09T08:13:54Z</time>
      </trkpt>
      <trkpt lat="47.06915" lon="-0.94216">
        <ele>169</ele>
        <time>2014-11-09T08:13:57Z</time>
      </trkpt>
      <trkpt lat="47.06915" lon="-0.94216">
        <ele>169</ele>
        <time>2014-11-09T08:14:05Z</time>
      </trkpt>
      <trkpt lat="47.06915" lon="-0.94216">
        <ele>169</ele>
        <time>2014-11-09T08:14:09Z</time>
      </trkpt>
      <trkpt lat="47.06915" lon="-0.94216">
        <ele>169</ele>
        <time>2014-11-09T08:14:13Z</time>
      </trkpt>
      <trkpt lat="47.06916" lon="-0.94247">
        <ele>165</ele>
        <time>2014-11-09T08:14:25Z</time>
      </trkpt>
      <trkpt lat="47.06926" lon="-0.94263">
        <ele>165</ele>
        <time>2014-11-09T08:14:28Z</time>
      </trkpt>
      <trkpt lat="47.06926" lon="-0.94263">
        <ele>165</ele>
        <time>2014-11-09T08:14:29Z</time>
      </trkpt>
      <trkpt lat="47.06926" lon="-0.94263">
        <ele>165</ele>
        <time>2014-11-09T08:14:37Z</time>
      </trkpt>
      <trkpt lat="47.06926" lon="-0.94263">
        <ele>165</ele>
        <time>2014-11-09T08:14:41Z</time>
      </trkpt>
      <trkpt lat="47.06941" lon="-0.94277">
        <ele>161</ele>
        <time>2014-11-09T08:14:53Z</time>
      </trkpt>
      <trkpt lat="47.06956" lon="-0.94292">
        <ele>163</ele>
        <time>2014-11-09T08:14:55Z</time>
      </trkpt>
      <trkpt lat="47.06956" lon="-0.94292">
        <ele>163</ele>
        <time>2014-11-09T08:14:57Z</time>
      </trkpt>
      <trkpt lat="47.06965" lon="-0.943">
        <ele>166</ele>
        <time>2014-11-09T08:15:03Z</time>
      </trkpt>
      <trkpt lat="47.06965" lon="-0.943">
        <ele>166</ele>
        <time>2014-11-09T08:15:13Z</time>
      </trkpt>
      <trkpt lat="47.06965" lon="-0.943">
        <ele>166</ele>
        <time>2014-11-09T08:15:17Z</time>
      </trkpt>
      <trkpt lat="47.0698" lon="-0.94317">
        <ele>166</ele>
        <time>2014-11-09T08:15:18Z</time>
      </trkpt>
      <trkpt lat="47.0698" lon="-0.94317">
        <ele>166</ele>
        <time>2014-11-09T08:15:21Z</time>
      </trkpt>
      <trkpt lat="47.06988" lon="-0.94327">
        <ele>166</ele>
        <time>2014-11-09T08:15:26Z</time>
      </trkpt>
      <trkpt lat="47.06988" lon="-0.94327">
        <ele>166</ele>
        <time>2014-11-09T08:15:37Z</time>
      </trkpt>
      <trkpt lat="47.06988" lon="-0.94327">
        <ele>166</ele>
        <time>2014-11-09T08:15:41Z</time>
      </trkpt>
      <trkpt lat="47.07006" lon="-0.94343">
        <ele>164</ele>
        <time>2014-11-09T08:15:42Z</time>
      </trkpt>
      <trkpt lat="47.07006" lon="-0.94343">
        <ele>164</ele>
        <time>2014-11-09T08:15:45Z</time>
      </trkpt>
      <trkpt lat="47.07006" lon="-0.94343">
        <ele>164</ele>
        <time>2014-11-09T08:15:53Z</time>
      </trkpt>
      <trkpt lat="47.07021" lon="-0.94356">
        <ele>162</ele>
        <time>2014-11-09T08:15:57Z</time>
      </trkpt>
      <trkpt lat="47.07021" lon="-0.94356">
        <ele>162</ele>
        <time>2014-11-09T08:16:05Z</time>
      </trkpt>
      <trkpt lat="47.07021" lon="-0.94356">
        <ele>162</ele>
        <time>2014-11-09T08:16:09Z</time>
      </trkpt>
      <trkpt lat="47.07037" lon="-0.94374">
        <ele>163</ele>
        <time>2014-11-09T08:16:11Z</time>
      </trkpt>
      <trkpt lat="47.07037" lon="-0.94374">
        <ele>163</ele>
        <time>2014-11-09T08:16:13Z</time>
      </trkpt>
      <trkpt lat="47.07037" lon="-0.94374">
        <ele>163</ele>
        <time>2014-11-09T08:16:21Z</time>
      </trkpt>
      <trkpt lat="47.07037" lon="-0.94374">
        <ele>163</ele>
        <time>2014-11-09T08:16:25Z</time>
      </trkpt>
      <trkpt lat="47.0705" lon="-0.94389">
        <ele>164</ele>
        <time>2014-11-09T08:16:37Z</time>
      </trkpt>
      <trkpt lat="47.0705" lon="-0.94389">
        <ele>164</ele>
        <time>2014-11-09T08:16:41Z</time>
      </trkpt>
      <trkpt lat="47.07065" lon="-0.94412">
        <ele>162</ele>
        <time>2014-11-09T08:16:42Z</time>
      </trkpt>
      <trkpt lat="47.07065" lon="-0.94412">
        <ele>162</ele>
        <time>2014-11-09T08:16:45Z</time>
      </trkpt>
      <trkpt lat="47.07065" lon="-0.94412">
        <ele>162</ele>
        <time>2014-11-09T08:16:53Z</time>
      </trkpt>
      <trkpt lat="47.07065" lon="-0.94412">
        <ele>162</ele>
        <time>2014-11-09T08:16:57Z</time>
      </trkpt>
      <trkpt lat="47.07079" lon="-0.94432">
        <ele>161</ele>
        <time>2014-11-09T08:17:09Z</time>
      </trkpt>
      <trkpt lat="47.0709" lon="-0.94454">
        <ele>162</ele>
        <time>2014-11-09T08:17:12Z</time>
      </trkpt>
      <trkpt lat="47.0709" lon="-0.94454">
        <ele>162</ele>
        <time>2014-11-09T08:17:13Z</time>
      </trkpt>
      <trkpt lat="47.0709" lon="-0.94454">
        <ele>162</ele>
        <time>2014-11-09T08:17:21Z</time>
      </trkpt>
      <trkpt lat="47.07102" lon="-0.94468">
        <ele>160</ele>
        <time>2014-11-09T08:17:23Z</time>
      </trkpt>
      <trkpt lat="47.07102" lon="-0.94468">
        <ele>160</ele>
        <time>2014-11-09T08:17:25Z</time>
      </trkpt>
      <trkpt lat="47.07102" lon="-0.94468">
        <ele>160</ele>
        <time>2014-11-09T08:17:33Z</time>
      </trkpt>
      <trkpt lat="47.07112" lon="-0.94482">
        <ele>159</ele>
        <time>2014-11-09T08:17:45Z</time>
      </trkpt>
      <trkpt lat="47.07124" lon="-0.94501">
        <ele>159</ele>
        <time>2014-11-09T08:17:47Z</time>
      </trkpt>
      <trkpt lat="47.07124" lon="-0.94501">
        <ele>159</ele>
        <time>2014-11-09T08:17:49Z</time>
      </trkpt>
      <trkpt lat="47.07124" lon="-0.94501">
        <ele>159</ele>
        <time>2014-11-09T08:17:57Z</time>
      </trkpt>
      <trkpt lat="47.07124" lon="-0.94501">
        <ele>159</ele>
        <time>2014-11-09T08:18:01Z</time>
      </trkpt>
      <trkpt lat="47.07139" lon="-0.94521">
        <ele>158</ele>
        <time>2014-11-09T08:18:03Z</time>
      </trkpt>
      <trkpt lat="47.07139" lon="-0.94521">
        <ele>158</ele>
        <time>2014-11-09T08:18:05Z</time>
      </trkpt>
      <trkpt lat="47.07139" lon="-0.94521">
        <ele>158</ele>
        <time>2014-11-09T08:18:13Z</time>
      </trkpt>
      <trkpt lat="47.07152" lon="-0.94538">
        <ele>155</ele>
        <time>2014-11-09T08:18:16Z</time>
      </trkpt>
      <trkpt lat="47.07152" lon="-0.94538">
        <ele>155</ele>
        <time>2014-11-09T08:18:17Z</time>
      </trkpt>
      <trkpt lat="47.07152" lon="-0.94538">
        <ele>155</ele>
        <time>2014-11-09T08:18:25Z</time>
      </trkpt>
      <trkpt lat="47.07163" lon="-0.94556">
        <ele>157</ele>
        <time>2014-11-09T08:18:28Z</time>
      </trkpt>
      <trkpt lat="47.07163" lon="-0.94556">
        <ele>157</ele>
        <time>2014-11-09T08:18:29Z</time>
      </trkpt>
      <trkpt lat="47.07163" lon="-0.94556">
        <ele>157</ele>
        <time>2014-11-09T08:18:37Z</time>
      </trkpt>
      <trkpt lat="47.07163" lon="-0.94556">
        <ele>157</ele>
        <time>2014-11-09T08:18:41Z</time>
      </trkpt>
      <trkpt lat="47.07175" lon="-0.94576">
        <ele>159</ele>
        <time>2014-11-09T08:18:42Z</time>
      </trkpt>
      <trkpt lat="47.07175" lon="-0.94576">
        <ele>159</ele>
        <time>2014-11-09T08:18:45Z</time>
      </trkpt>
      <trkpt lat="47.07175" lon="-0.94576">
        <ele>159</ele>
        <time>2014-11-09T08:18:53Z</time>
      </trkpt>
      <trkpt lat="47.07175" lon="-0.94576">
        <ele>159</ele>
        <time>2014-11-09T08:18:57Z</time>
      </trkpt>
      <trkpt lat="47.07175" lon="-0.94576">
        <ele>109.2</ele>
        <time>2014-11-09T08:19:00Z</time>
      </trkpt>
      <trkpt lat="47.07175" lon="-0.94576">
        <ele>109.2</ele>
        <time>2014-11-09T08:19:34Z</time>
      </trkpt>
      <trkpt lat="47.07175" lon="-0.94576">
        <ele>109.2</ele>
        <time>2014-11-09T08:19:34Z</time>
      </trkpt>
      <trkpt lat="47.0718" lon="-0.94593">
        <ele>159</ele>
        <time>2014-11-09T08:19:38Z</time>
      </trkpt>
      <trkpt lat="47.0718" lon="-0.94593">
        <ele>159</ele>
        <time>2014-11-09T08:19:42Z</time>
      </trkpt>
      <trkpt lat="47.0718" lon="-0.94593">
        <ele>159</ele>
        <time>2014-11-09T08:19:46Z</time>
      </trkpt>
      <trkpt lat="47.0718" lon="-0.94593">
        <ele>159</ele>
        <time>2014-11-09T08:19:50Z</time>
      </trkpt>
      <trkpt lat="47.0718" lon="-0.94593">
        <ele>159</ele>
        <time>2014-11-09T08:19:54Z</time>
      </trkpt>
      <trkpt lat="47.07168" lon="-0.94581">
        <ele>158</ele>
        <time>2014-11-09T08:19:56Z</time>
      </trkpt>
      <trkpt lat="47.07168" lon="-0.94581">
        <ele>158</ele>
        <time>2014-11-09T08:19:58Z</time>
      </trkpt>
      <trkpt lat="47.07168" lon="-0.94581">
        <ele>158</ele>
        <time>2014-11-09T08:20:05Z</time>
      </trkpt>
      <trkpt lat="47.07168" lon="-0.94581">
        <ele>109.1</ele>
        <time>2014-11-09T08:20:05Z</time>
      </trkpt>
      <trkpt lat="47.07168" lon="-0.94581">
        <ele>109.1</ele>
        <time>2014-11-09T08:20:36Z</time>
      </trkpt>
      <trkpt lat="47.07139" lon="-0.94587">
        <ele>154</ele>
        <time>2014-11-09T08:20:36Z</time>
      </trkpt>
      <trkpt lat="47.07139" lon="-0.94587">
        <ele>154</ele>
        <time>2014-11-09T08:20:38Z</time>
      </trkpt>
      <trkpt lat="47.07139" lon="-0.94587">
        <ele>154</ele>
        <time>2014-11-09T08:20:46Z</time>
      </trkpt>
      <trkpt lat="47.0712" lon="-0.94593">
        <ele>156</ele>
        <time>2014-11-09T08:20:49Z</time>
      </trkpt>
      <trkpt lat="47.0712" lon="-0.94593">
        <ele>156</ele>
        <time>2014-11-09T08:20:50Z</time>
      </trkpt>
      <trkpt lat="47.0712" lon="-0.94593">
        <ele>156</ele>
        <time>2014-11-09T08:20:58Z</time>
      </trkpt>
      <trkpt lat="47.0712" lon="-0.94593">
        <ele>156</ele>
        <time>2014-11-09T08:21:02Z</time>
      </trkpt>
      <trkpt lat="47.0712" lon="-0.94593">
        <ele>156</ele>
        <time>2014-11-09T08:21:06Z</time>
      </trkpt>
      <trkpt lat="47.0712" lon="-0.94593">
        <ele>108.2</ele>
        <time>2014-11-09T08:21:08Z</time>
      </trkpt>
      <trkpt lat="47.0712" lon="-0.94593">
        <ele>108.2</ele>
        <time>2014-11-09T08:21:12Z</time>
      </trkpt>
      <trkpt lat="47.07103" lon="-0.94595">
        <ele>152</ele>
        <time>2014-11-09T08:21:12Z</time>
      </trkpt>
      <trkpt lat="47.07103" lon="-0.94595">
        <ele>152</ele>
        <time>2014-11-09T08:21:13Z</time>
      </trkpt>
      <trkpt lat="47.0709" lon="-0.94599">
        <ele>153</ele>
        <time>2014-11-09T08:21:20Z</time>
      </trkpt>
      <trkpt lat="47.0709" lon="-0.94599">
        <ele>153</ele>
        <time>2014-11-09T08:21:21Z</time>
      </trkpt>
      <trkpt lat="47.0709" lon="-0.94599">
        <ele>153</ele>
        <time>2014-11-09T08:21:29Z</time>
      </trkpt>
      <trkpt lat="47.07071" lon="-0.94608">
        <ele>151</ele>
        <time>2014-11-09T08:21:32Z</time>
      </trkpt>
      <trkpt lat="47.07071" lon="-0.94608">
        <ele>151</ele>
        <time>2014-11-09T08:21:33Z</time>
      </trkpt>
      <trkpt lat="47.07071" lon="-0.94608">
        <ele>151</ele>
        <time>2014-11-09T08:21:41Z</time>
      </trkpt>
      <trkpt lat="47.07057" lon="-0.94611">
        <ele>150</ele>
        <time>2014-11-09T08:21:43Z</time>
      </trkpt>
      <trkpt lat="47.07057" lon="-0.94611">
        <ele>150</ele>
        <time>2014-11-09T08:21:45Z</time>
      </trkpt>
      <trkpt lat="47.07057" lon="-0.94611">
        <ele>150</ele>
        <time>2014-11-09T08:21:53Z</time>
      </trkpt>
      <trkpt lat="47.07057" lon="-0.94611">
        <ele>150</ele>
        <time>2014-11-09T08:21:57Z</time>
      </trkpt>
      <trkpt lat="47.07042" lon="-0.94611">
        <ele>154</ele>
        <time>2014-11-09T08:22:00Z</time>
      </trkpt>
      <trkpt lat="47.07042" lon="-0.94611">
        <ele>154</ele>
        <time>2014-11-09T08:22:01Z</time>
      </trkpt>
      <trkpt lat="47.07042" lon="-0.94611">
        <ele>154</ele>
        <time>2014-11-09T08:22:09Z</time>
      </trkpt>
      <trkpt lat="47.07027" lon="-0.94616">
        <ele>155</ele>
        <time>2014-11-09T08:22:11Z</time>
      </trkpt>
      <trkpt lat="47.07027" lon="-0.94616">
        <ele>155</ele>
        <time>2014-11-09T08:22:13Z</time>
      </trkpt>
      <trkpt lat="47.07027" lon="-0.94616">
        <ele>155</ele>
        <time>2014-11-09T08:22:21Z</time>
      </trkpt>
      <trkpt lat="47.07027" lon="-0.94616">
        <ele>155</ele>
        <time>2014-11-09T08:22:25Z</time>
      </trkpt>
      <trkpt lat="47.07006" lon="-0.94618">
        <ele>157</ele>
        <time>2014-11-09T08:22:26Z</time>
      </trkpt>
      <trkpt lat="47.06995" lon="-0.94617">
        <ele>157</ele>
        <time>2014-11-09T08:22:37Z</time>
      </trkpt>
      <trkpt lat="47.06995" lon="-0.94617">
        <ele>157</ele>
        <time>2014-11-09T08:22:45Z</time>
      </trkpt>
      <trkpt lat="47.06995" lon="-0.94617">
        <ele>157</ele>
        <time>2014-11-09T08:22:49Z</time>
      </trkpt>
      <trkpt lat="47.0698" lon="-0.94615">
        <ele>151</ele>
        <time>2014-11-09T08:22:51Z</time>
      </trkpt>
      <trkpt lat="47.0698" lon="-0.94615">
        <ele>151</ele>
        <time>2014-11-09T08:22:53Z</time>
      </trkpt>
      <trkpt lat="47.0698" lon="-0.94615">
        <ele>151</ele>
        <time>2014-11-09T08:23:01Z</time>
      </trkpt>
      <trkpt lat="47.06963" lon="-0.94608">
        <ele>148</ele>
        <time>2014-11-09T08:23:05Z</time>
      </trkpt>
      <trkpt lat="47.06963" lon="-0.94608">
        <ele>148</ele>
        <time>2014-11-09T08:23:13Z</time>
      </trkpt>
      <trkpt lat="47.06963" lon="-0.94608">
        <ele>148</ele>
        <time>2014-11-09T08:23:17Z</time>
      </trkpt>
      <trkpt lat="47.06949" lon="-0.94605">
        <ele>143</ele>
        <time>2014-11-09T08:23:21Z</time>
      </trkpt>
      <trkpt lat="47.06949" lon="-0.94605">
        <ele>143</ele>
        <time>2014-11-09T08:23:30Z</time>
      </trkpt>
      <trkpt lat="47.06949" lon="-0.94605">
        <ele>143</ele>
        <time>2014-11-09T08:23:34Z</time>
      </trkpt>
      <trkpt lat="47.06949" lon="-0.94605">
        <ele>143</ele>
        <time>2014-11-09T08:23:38Z</time>
      </trkpt>
      <trkpt lat="47.06927" lon="-0.94593">
        <ele>149</ele>
        <time>2014-11-09T08:23:39Z</time>
      </trkpt>
      <trkpt lat="47.06927" lon="-0.94593">
        <ele>149</ele>
        <time>2014-11-09T08:23:42Z</time>
      </trkpt>
      <trkpt lat="47.06927" lon="-0.94593">
        <ele>149</ele>
        <time>2014-11-09T08:23:50Z</time>
      </trkpt>
      <trkpt lat="47.0691" lon="-0.94581">
        <ele>155</ele>
        <time>2014-11-09T08:23:51Z</time>
      </trkpt>
      <trkpt lat="47.0691" lon="-0.94581">
        <ele>155</ele>
        <time>2014-11-09T08:23:54Z</time>
      </trkpt>
      <trkpt lat="47.0691" lon="-0.94581">
        <ele>155</ele>
        <time>2014-11-09T08:24:02Z</time>
      </trkpt>
      <trkpt lat="47.06893" lon="-0.9458">
        <ele>162</ele>
        <time>2014-11-09T08:24:05Z</time>
      </trkpt>
      <trkpt lat="47.06893" lon="-0.9458">
        <ele>162</ele>
        <time>2014-11-09T08:24:06Z</time>
      </trkpt>
      <trkpt lat="47.06893" lon="-0.9458">
        <ele>162</ele>
        <time>2014-11-09T08:24:14Z</time>
      </trkpt>
      <trkpt lat="47.06893" lon="-0.9458">
        <ele>162</ele>
        <time>2014-11-09T08:24:18Z</time>
      </trkpt>
      <trkpt lat="47.06873" lon="-0.94567">
        <ele>165</ele>
        <time>2014-11-09T08:24:19Z</time>
      </trkpt>
      <trkpt lat="47.06873" lon="-0.94567">
        <ele>165</ele>
        <time>2014-11-09T08:24:22Z</time>
      </trkpt>
      <trkpt lat="47.06873" lon="-0.94567">
        <ele>165</ele>
        <time>2014-11-09T08:24:30Z</time>
      </trkpt>
      <trkpt lat="47.06873" lon="-0.94567">
        <ele>165</ele>
        <time>2014-11-09T08:24:34Z</time>
      </trkpt>
      <trkpt lat="47.06861" lon="-0.94564">
        <ele>154</ele>
        <time>2014-11-09T08:24:37Z</time>
      </trkpt>
      <trkpt lat="47.06861" lon="-0.94564">
        <ele>154</ele>
        <time>2014-11-09T08:24:38Z</time>
      </trkpt>
      <trkpt lat="47.06855" lon="-0.94555">
        <ele>149</ele>
        <time>2014-11-09T08:24:42Z</time>
      </trkpt>
      <trkpt lat="47.06855" lon="-0.94555">
        <ele>149</ele>
        <time>2014-11-09T08:24:54Z</time>
      </trkpt>
      <trkpt lat="47.06838" lon="-0.94543">
        <ele>151</ele>
        <time>2014-11-09T08:25:06Z</time>
      </trkpt>
      <trkpt lat="47.0682" lon="-0.94545">
        <ele>154</ele>
        <time>2014-11-09T08:25:09Z</time>
      </trkpt>
      <trkpt lat="47.0682" lon="-0.94545">
        <ele>154</ele>
        <time>2014-11-09T08:25:10Z</time>
      </trkpt>
      <trkpt lat="47.0682" lon="-0.94545">
        <ele>154</ele>
        <time>2014-11-09T08:25:18Z</time>
      </trkpt>
      <trkpt lat="47.0682" lon="-0.94545">
        <ele>154</ele>
        <time>2014-11-09T08:25:22Z</time>
      </trkpt>
      <trkpt lat="47.0682" lon="-0.94545">
        <ele>154</ele>
        <time>2014-11-09T08:25:26Z</time>
      </trkpt>
      <trkpt lat="47.0682" lon="-0.94545">
        <ele>113</ele>
        <time>2014-11-09T08:25:26Z</time>
      </trkpt>
      <trkpt lat="47.0682" lon="-0.94545">
        <ele>113</ele>
        <time>2014-11-09T08:25:32Z</time>
      </trkpt>
      <trkpt lat="47.068" lon="-0.94567">
        <ele>160</ele>
        <time>2014-11-09T08:25:32Z</time>
      </trkpt>
      <trkpt lat="47.068" lon="-0.94567">
        <ele>160</ele>
        <time>2014-11-09T08:25:44Z</time>
      </trkpt>
      <trkpt lat="47.06793" lon="-0.9459">
        <ele>156</ele>
        <time>2014-11-09T08:25:45Z</time>
      </trkpt>
      <trkpt lat="47.06793" lon="-0.9459">
        <ele>156</ele>
        <time>2014-11-09T08:25:48Z</time>
      </trkpt>
      <trkpt lat="47.06791" lon="-0.94606">
        <ele>158</ele>
        <time>2014-11-09T08:25:54Z</time>
      </trkpt>
      <trkpt lat="47.06791" lon="-0.94606">
        <ele>158</ele>
        <time>2014-11-09T08:25:56Z</time>
      </trkpt>
      <trkpt lat="47.06791" lon="-0.94606">
        <ele>158</ele>
        <time>2014-11-09T08:26:04Z</time>
      </trkpt>
      <trkpt lat="47.0679" lon="-0.94627">
        <ele>159</ele>
        <time>2014-11-09T08:26:05Z</time>
      </trkpt>
      <trkpt lat="47.0679" lon="-0.94627">
        <ele>159</ele>
        <time>2014-11-09T08:26:08Z</time>
      </trkpt>
      <trkpt lat="47.0679" lon="-0.94627">
        <ele>159</ele>
        <time>2014-11-09T08:26:16Z</time>
      </trkpt>
      <trkpt lat="47.0679" lon="-0.94627">
        <ele>159</ele>
        <time>2014-11-09T08:26:20Z</time>
      </trkpt>
      <trkpt lat="47.06785" lon="-0.94647">
        <ele>159</ele>
        <time>2014-11-09T08:26:22Z</time>
      </trkpt>
      <trkpt lat="47.06785" lon="-0.94647">
        <ele>159</ele>
        <time>2014-11-09T08:26:24Z</time>
      </trkpt>
      <trkpt lat="47.06785" lon="-0.94647">
        <ele>159</ele>
        <time>2014-11-09T08:26:32Z</time>
      </trkpt>
      <trkpt lat="47.06785" lon="-0.94647">
        <ele>159</ele>
        <time>2014-11-09T08:26:36Z</time>
      </trkpt>
      <trkpt lat="47.06786" lon="-0.94682">
        <ele>163</ele>
        <time>2014-11-09T08:26:48Z</time>
      </trkpt>
      <trkpt lat="47.06783" lon="-0.947">
        <ele>159</ele>
        <time>2014-11-09T08:26:49Z</time>
      </trkpt>
      <trkpt lat="47.06783" lon="-0.947">
        <ele>159</ele>
        <time>2014-11-09T08:26:52Z</time>
      </trkpt>
      <trkpt lat="47.06783" lon="-0.947">
        <ele>159</ele>
        <time>2014-11-09T08:27:00Z</time>
      </trkpt>
      <trkpt lat="47.0677" lon="-0.94716">
        <ele>161</ele>
        <time>2014-11-09T08:27:03Z</time>
      </trkpt>
      <trkpt lat="47.0677" lon="-0.94716">
        <ele>161</ele>
        <time>2014-11-09T08:27:04Z</time>
      </trkpt>
      <trkpt lat="47.0677" lon="-0.94716">
        <ele>161</ele>
        <time>2014-11-09T08:27:10Z</time>
      </trkpt>
      <trkpt lat="47.0677" lon="-0.94716">
        <ele>110.5</ele>
        <time>2014-11-09T08:27:10Z</time>
      </trkpt>
      <trkpt lat="47.0677" lon="-0.94716">
        <ele>110.5</ele>
        <time>2014-11-09T08:27:15Z</time>
      </trkpt>
      <trkpt lat="47.06765" lon="-0.94729">
        <ele>158</ele>
        <time>2014-11-09T08:27:15Z</time>
      </trkpt>
      <trkpt lat="47.06765" lon="-0.94729">
        <ele>158</ele>
        <time>2014-11-09T08:27:20Z</time>
      </trkpt>
      <trkpt lat="47.06765" lon="-0.94729">
        <ele>110.3</ele>
        <time>2014-11-09T08:27:20Z</time>
      </trkpt>
      <trkpt lat="47.06765" lon="-0.94729">
        <ele>110.3</ele>
        <time>2014-11-09T08:27:57Z</time>
      </trkpt>
      <trkpt lat="47.06755" lon="-0.94751">
        <ele>160</ele>
        <time>2014-11-09T08:27:57Z</time>
      </trkpt>
      <trkpt lat="47.06755" lon="-0.94751">
        <ele>160</ele>
        <time>2014-11-09T08:28:05Z</time>
      </trkpt>
      <trkpt lat="47.06742" lon="-0.94754">
        <ele>158</ele>
        <time>2014-11-09T08:28:07Z</time>
      </trkpt>
      <trkpt lat="47.06742" lon="-0.94754">
        <ele>158</ele>
        <time>2014-11-09T08:28:09Z</time>
      </trkpt>
      <trkpt lat="47.06742" lon="-0.94754">
        <ele>158</ele>
        <time>2014-11-09T08:28:17Z</time>
      </trkpt>
      <trkpt lat="47.06742" lon="-0.94754">
        <ele>158</ele>
        <time>2014-11-09T08:28:21Z</time>
      </trkpt>
      <trkpt lat="47.06722" lon="-0.94761">
        <ele>156</ele>
        <time>2014-11-09T08:28:24Z</time>
      </trkpt>
      <trkpt lat="47.06722" lon="-0.94761">
        <ele>156</ele>
        <time>2014-11-09T08:28:25Z</time>
      </trkpt>
      <trkpt lat="47.06722" lon="-0.94761">
        <ele>156</ele>
        <time>2014-11-09T08:28:33Z</time>
      </trkpt>
      <trkpt lat="47.06722" lon="-0.94761">
        <ele>156</ele>
        <time>2014-11-09T08:28:37Z</time>
      </trkpt>
      <trkpt lat="47.06698" lon="-0.94772">
        <ele>156</ele>
        <time>2014-11-09T08:28:47Z</time>
      </trkpt>
      <trkpt lat="47.06698" lon="-0.94772">
        <ele>156</ele>
        <time>2014-11-09T08:28:49Z</time>
      </trkpt>
      <trkpt lat="47.06696" lon="-0.94789">
        <ele>157</ele>
        <time>2014-11-09T08:28:56Z</time>
      </trkpt>
      <trkpt lat="47.06696" lon="-0.94789">
        <ele>157</ele>
        <time>2014-11-09T08:28:57Z</time>
      </trkpt>
      <trkpt lat="47.06696" lon="-0.94789">
        <ele>157</ele>
        <time>2014-11-09T08:29:05Z</time>
      </trkpt>
      <trkpt lat="47.06696" lon="-0.94789">
        <ele>157</ele>
        <time>2014-11-09T08:29:09Z</time>
      </trkpt>
      <trkpt lat="47.06694" lon="-0.94814">
        <ele>151</ele>
        <time>2014-11-09T08:29:12Z</time>
      </trkpt>
      <trkpt lat="47.06694" lon="-0.94814">
        <ele>151</ele>
        <time>2014-11-09T08:29:13Z</time>
      </trkpt>
      <trkpt lat="47.06694" lon="-0.94814">
        <ele>151</ele>
        <time>2014-11-09T08:29:21Z</time>
      </trkpt>
      <trkpt lat="47.06694" lon="-0.94814">
        <ele>151</ele>
        <time>2014-11-09T08:29:25Z</time>
      </trkpt>
      <trkpt lat="47.06694" lon="-0.94814">
        <ele>151</ele>
        <time>2014-11-09T08:29:29Z</time>
      </trkpt>
      <trkpt lat="47.06693" lon="-0.94846">
        <ele>153</ele>
        <time>2014-11-09T08:29:30Z</time>
      </trkpt>
      <trkpt lat="47.06693" lon="-0.94846">
        <ele>153</ele>
        <time>2014-11-09T08:29:41Z</time>
      </trkpt>
      <trkpt lat="47.06691" lon="-0.94868">
        <ele>156</ele>
        <time>2014-11-09T08:29:43Z</time>
      </trkpt>
      <trkpt lat="47.06691" lon="-0.94868">
        <ele>156</ele>
        <time>2014-11-09T08:29:45Z</time>
      </trkpt>
      <trkpt lat="47.06691" lon="-0.94868">
        <ele>156</ele>
        <time>2014-11-09T08:29:53Z</time>
      </trkpt>
      <trkpt lat="47.06691" lon="-0.94868">
        <ele>156</ele>
        <time>2014-11-09T08:29:57Z</time>
      </trkpt>
      <trkpt lat="47.06688" lon="-0.94897">
        <ele>159</ele>
        <time>2014-11-09T08:30:01Z</time>
      </trkpt>
      <trkpt lat="47.06688" lon="-0.94897">
        <ele>159</ele>
        <time>2014-11-09T08:30:09Z</time>
      </trkpt>
      <trkpt lat="47.06688" lon="-0.94897">
        <ele>159</ele>
        <time>2014-11-09T08:30:13Z</time>
      </trkpt>
      <trkpt lat="47.06688" lon="-0.94897">
        <ele>107.8</ele>
        <time>2014-11-09T08:30:14Z</time>
      </trkpt>
      <trkpt lat="47.06688" lon="-0.94897">
        <ele>107.8</ele>
        <time>2014-11-09T08:30:20Z</time>
      </trkpt>
      <trkpt lat="47.06689" lon="-0.94922">
        <ele>157</ele>
        <time>2014-11-09T08:30:20Z</time>
      </trkpt>
      <trkpt lat="47.06689" lon="-0.94922">
        <ele>157</ele>
        <time>2014-11-09T08:30:31Z</time>
      </trkpt>
      <trkpt lat="47.06701" lon="-0.9492">
        <ele>158</ele>
        <time>2014-11-09T08:30:34Z</time>
      </trkpt>
      <trkpt lat="47.06701" lon="-0.9492">
        <ele>158</ele>
        <time>2014-11-09T08:30:35Z</time>
      </trkpt>
      <trkpt lat="47.06701" lon="-0.9492">
        <ele>158</ele>
        <time>2014-11-09T08:30:43Z</time>
      </trkpt>
      <trkpt lat="47.06707" lon="-0.9493">
        <ele>159</ele>
        <time>2014-11-09T08:30:51Z</time>
      </trkpt>
      <trkpt lat="47.06707" lon="-0.9493">
        <ele>159</ele>
        <time>2014-11-09T08:30:55Z</time>
      </trkpt>
      <trkpt lat="47.06724" lon="-0.94947">
        <ele>160</ele>
        <time>2014-11-09T08:30:59Z</time>
      </trkpt>
      <trkpt lat="47.06724" lon="-0.94947">
        <ele>160</ele>
        <time>2014-11-09T08:31:07Z</time>
      </trkpt>
      <trkpt lat="47.06724" lon="-0.94947">
        <ele>160</ele>
        <time>2014-11-09T08:31:11Z</time>
      </trkpt>
      <trkpt lat="47.06738" lon="-0.94958">
        <ele>161</ele>
        <time>2014-11-09T08:31:12Z</time>
      </trkpt>
      <trkpt lat="47.06738" lon="-0.94958">
        <ele>161</ele>
        <time>2014-11-09T08:31:23Z</time>
      </trkpt>
      <trkpt lat="47.06738" lon="-0.94958">
        <ele>161</ele>
        <time>2014-11-09T08:31:27Z</time>
      </trkpt>
      <trkpt lat="47.06757" lon="-0.94972">
        <ele>161</ele>
        <time>2014-11-09T08:31:28Z</time>
      </trkpt>
      <trkpt lat="47.06765" lon="-0.94978">
        <ele>159</ele>
        <time>2014-11-09T08:31:37Z</time>
      </trkpt>
      <trkpt lat="47.06765" lon="-0.94978">
        <ele>159</ele>
        <time>2014-11-09T08:31:39Z</time>
      </trkpt>
      <trkpt lat="47.06778" lon="-0.94984">
        <ele>158</ele>
        <time>2014-11-09T08:31:47Z</time>
      </trkpt>
      <trkpt lat="47.06778" lon="-0.94984">
        <ele>158</ele>
        <time>2014-11-09T08:31:55Z</time>
      </trkpt>
      <trkpt lat="47.06787" lon="-0.94993">
        <ele>156</ele>
        <time>2014-11-09T08:31:56Z</time>
      </trkpt>
      <trkpt lat="47.06787" lon="-0.94993">
        <ele>156</ele>
        <time>2014-11-09T08:32:07Z</time>
      </trkpt>
      <trkpt lat="47.06787" lon="-0.94993">
        <ele>156</ele>
        <time>2014-11-09T08:32:11Z</time>
      </trkpt>
      <trkpt lat="47.06807" lon="-0.95008">
        <ele>155</ele>
        <time>2014-11-09T08:32:13Z</time>
      </trkpt>
      <trkpt lat="47.06807" lon="-0.95008">
        <ele>155</ele>
        <time>2014-11-09T08:32:15Z</time>
      </trkpt>
      <trkpt lat="47.06807" lon="-0.95008">
        <ele>155</ele>
        <time>2014-11-09T08:32:23Z</time>
      </trkpt>
      <trkpt lat="47.06807" lon="-0.95008">
        <ele>155</ele>
        <time>2014-11-09T08:32:27Z</time>
      </trkpt>
      <trkpt lat="47.06823" lon="-0.95025">
        <ele>155</ele>
        <time>2014-11-09T08:32:28Z</time>
      </trkpt>
      <trkpt lat="47.06823" lon="-0.95025">
        <ele>155</ele>
        <time>2014-11-09T08:32:39Z</time>
      </trkpt>
      <trkpt lat="47.06842" lon="-0.95023">
        <ele>156</ele>
        <time>2014-11-09T08:32:43Z</time>
      </trkpt>
      <trkpt lat="47.06842" lon="-0.95023">
        <ele>156</ele>
        <time>2014-11-09T08:32:51Z</time>
      </trkpt>
      <trkpt lat="47.06842" lon="-0.95023">
        <ele>156</ele>
        <time>2014-11-09T08:32:55Z</time>
      </trkpt>
      <trkpt lat="47.06848" lon="-0.95047">
        <ele>154</ele>
        <time>2014-11-09T08:32:57Z</time>
      </trkpt>
      <trkpt lat="47.06848" lon="-0.95047">
        <ele>154</ele>
        <time>2014-11-09T08:32:59Z</time>
      </trkpt>
      <trkpt lat="47.06848" lon="-0.95047">
        <ele>154</ele>
        <time>2014-11-09T08:33:08Z</time>
      </trkpt>
      <trkpt lat="47.06858" lon="-0.95059">
        <ele>155</ele>
        <time>2014-11-09T08:33:20Z</time>
      </trkpt>
      <trkpt lat="47.06874" lon="-0.95072">
        <ele>153</ele>
        <time>2014-11-09T08:33:22Z</time>
      </trkpt>
      <trkpt lat="47.06874" lon="-0.95072">
        <ele>153</ele>
        <time>2014-11-09T08:33:24Z</time>
      </trkpt>
      <trkpt lat="47.06883" lon="-0.9508">
        <ele>153</ele>
        <time>2014-11-09T08:33:30Z</time>
      </trkpt>
      <trkpt lat="47.06883" lon="-0.9508">
        <ele>153</ele>
        <time>2014-11-09T08:33:40Z</time>
      </trkpt>
      <trkpt lat="47.06883" lon="-0.9508">
        <ele>153</ele>
        <time>2014-11-09T08:33:44Z</time>
      </trkpt>
      <trkpt lat="47.069" lon="-0.95091">
        <ele>149</ele>
        <time>2014-11-09T08:33:45Z</time>
      </trkpt>
      <trkpt lat="47.069" lon="-0.95091">
        <ele>149</ele>
        <time>2014-11-09T08:33:48Z</time>
      </trkpt>
      <trkpt lat="47.069" lon="-0.95091">
        <ele>149</ele>
        <time>2014-11-09T08:33:56Z</time>
      </trkpt>
      <trkpt lat="47.06916" lon="-0.95102">
        <ele>151</ele>
        <time>2014-11-09T08:33:59Z</time>
      </trkpt>
      <trkpt lat="47.06916" lon="-0.95102">
        <ele>151</ele>
        <time>2014-11-09T08:34:00Z</time>
      </trkpt>
      <trkpt lat="47.06916" lon="-0.95102">
        <ele>151</ele>
        <time>2014-11-09T08:34:08Z</time>
      </trkpt>
      <trkpt lat="47.0693" lon="-0.95107">
        <ele>154</ele>
        <time>2014-11-09T08:34:11Z</time>
      </trkpt>
      <trkpt lat="47.0693" lon="-0.95107">
        <ele>154</ele>
        <time>2014-11-09T08:34:12Z</time>
      </trkpt>
      <trkpt lat="47.0693" lon="-0.95107">
        <ele>154</ele>
        <time>2014-11-09T08:34:20Z</time>
      </trkpt>
      <trkpt lat="47.0693" lon="-0.95107">
        <ele>154</ele>
        <time>2014-11-09T08:34:24Z</time>
      </trkpt>
      <trkpt lat="47.0694" lon="-0.95118">
        <ele>147</ele>
        <time>2014-11-09T08:34:25Z</time>
      </trkpt>
      <trkpt lat="47.0694" lon="-0.95118">
        <ele>147</ele>
        <time>2014-11-09T08:34:28Z</time>
      </trkpt>
      <trkpt lat="47.0694" lon="-0.95118">
        <ele>147</ele>
        <time>2014-11-09T08:34:36Z</time>
      </trkpt>
      <trkpt lat="47.0694" lon="-0.95118">
        <ele>147</ele>
        <time>2014-11-09T08:34:40Z</time>
      </trkpt>
      <trkpt lat="47.06956" lon="-0.95137">
        <ele>146</ele>
        <time>2014-11-09T08:34:41Z</time>
      </trkpt>
      <trkpt lat="47.06956" lon="-0.95137">
        <ele>146</ele>
        <time>2014-11-09T08:34:44Z</time>
      </trkpt>
      <trkpt lat="47.06956" lon="-0.95137">
        <ele>146</ele>
        <time>2014-11-09T08:34:52Z</time>
      </trkpt>
      <trkpt lat="47.06953" lon="-0.95165">
        <ele>149</ele>
        <time>2014-11-09T08:34:55Z</time>
      </trkpt>
      <trkpt lat="47.06953" lon="-0.95165">
        <ele>149</ele>
        <time>2014-11-09T08:34:56Z</time>
      </trkpt>
      <trkpt lat="47.06953" lon="-0.95165">
        <ele>149</ele>
        <time>2014-11-09T08:35:04Z</time>
      </trkpt>
      <trkpt lat="47.06953" lon="-0.95165">
        <ele>149</ele>
        <time>2014-11-09T08:35:08Z</time>
      </trkpt>
      <trkpt lat="47.06953" lon="-0.95165">
        <ele>149</ele>
        <time>2014-11-09T08:35:12Z</time>
      </trkpt>
      <trkpt lat="47.06944" lon="-0.95198">
        <ele>149</ele>
        <time>2014-11-09T08:35:24Z</time>
      </trkpt>
      <trkpt lat="47.06935" lon="-0.95226">
        <ele>147</ele>
        <time>2014-11-09T08:35:26Z</time>
      </trkpt>
      <trkpt lat="47.06935" lon="-0.95226">
        <ele>147</ele>
        <time>2014-11-09T08:35:28Z</time>
      </trkpt>
      <trkpt lat="47.06935" lon="-0.95226">
        <ele>147</ele>
        <time>2014-11-09T08:35:36Z</time>
      </trkpt>
      <trkpt lat="47.06935" lon="-0.95226">
        <ele>147</ele>
        <time>2014-11-09T08:35:40Z</time>
      </trkpt>
      <trkpt lat="47.06927" lon="-0.95248">
        <ele>146</ele>
        <time>2014-11-09T08:35:41Z</time>
      </trkpt>
      <trkpt lat="47.06927" lon="-0.95248">
        <ele>146</ele>
        <time>2014-11-09T08:35:44Z</time>
      </trkpt>
      <trkpt lat="47.06927" lon="-0.95248">
        <ele>146</ele>
        <time>2014-11-09T08:35:52Z</time>
      </trkpt>
      <trkpt lat="47.06927" lon="-0.95248">
        <ele>146</ele>
        <time>2014-11-09T08:35:56Z</time>
      </trkpt>
      <trkpt lat="47.06922" lon="-0.95276">
        <ele>145</ele>
        <time>2014-11-09T08:35:59Z</time>
      </trkpt>
      <trkpt lat="47.06922" lon="-0.95276">
        <ele>145</ele>
        <time>2014-11-09T08:36:00Z</time>
      </trkpt>
      <trkpt lat="47.06922" lon="-0.95276">
        <ele>145</ele>
        <time>2014-11-09T08:36:08Z</time>
      </trkpt>
      <trkpt lat="47.06916" lon="-0.953">
        <ele>142</ele>
        <time>2014-11-09T08:36:11Z</time>
      </trkpt>
      <trkpt lat="47.06916" lon="-0.953">
        <ele>142</ele>
        <time>2014-11-09T08:36:12Z</time>
      </trkpt>
      <trkpt lat="47.06916" lon="-0.953">
        <ele>142</ele>
        <time>2014-11-09T08:36:20Z</time>
      </trkpt>
      <trkpt lat="47.06916" lon="-0.953">
        <ele>142</ele>
        <time>2014-11-09T08:36:24Z</time>
      </trkpt>
      <trkpt lat="47.06912" lon="-0.95311">
        <ele>143</ele>
        <time>2014-11-09T08:36:27Z</time>
      </trkpt>
      <trkpt lat="47.06912" lon="-0.95311">
        <ele>143</ele>
        <time>2014-11-09T08:36:28Z</time>
      </trkpt>
      <trkpt lat="47.06906" lon="-0.95323">
        <ele>144</ele>
        <time>2014-11-09T08:36:32Z</time>
      </trkpt>
      <trkpt lat="47.06904" lon="-0.95332">
        <ele>144</ele>
        <time>2014-11-09T08:36:36Z</time>
      </trkpt>
      <trkpt lat="47.06904" lon="-0.95332">
        <ele>144</ele>
        <time>2014-11-09T08:36:48Z</time>
      </trkpt>
      <trkpt lat="47.06904" lon="-0.95332">
        <ele>144</ele>
        <time>2014-11-09T08:36:52Z</time>
      </trkpt>
      <trkpt lat="47.06896" lon="-0.95366">
        <ele>145</ele>
        <time>2014-11-09T08:36:53Z</time>
      </trkpt>
      <trkpt lat="47.06896" lon="-0.95366">
        <ele>145</ele>
        <time>2014-11-09T08:36:56Z</time>
      </trkpt>
      <trkpt lat="47.06895" lon="-0.95382">
        <ele>146</ele>
        <time>2014-11-09T08:37:02Z</time>
      </trkpt>
      <trkpt lat="47.06895" lon="-0.95382">
        <ele>146</ele>
        <time>2014-11-09T08:37:04Z</time>
      </trkpt>
      <trkpt lat="47.06895" lon="-0.95382">
        <ele>146</ele>
        <time>2014-11-09T08:37:12Z</time>
      </trkpt>
      <trkpt lat="47.06895" lon="-0.95382">
        <ele>146</ele>
        <time>2014-11-09T08:37:16Z</time>
      </trkpt>
      <trkpt lat="47.06895" lon="-0.95382">
        <ele>146</ele>
        <time>2014-11-09T08:37:20Z</time>
      </trkpt>
      <trkpt lat="47.06898" lon="-0.95411">
        <ele>142</ele>
        <time>2014-11-09T08:37:32Z</time>
      </trkpt>
      <trkpt lat="47.06902" lon="-0.95434">
        <ele>140</ele>
        <time>2014-11-09T08:37:33Z</time>
      </trkpt>
      <trkpt lat="47.06902" lon="-0.95434">
        <ele>140</ele>
        <time>2014-11-09T08:37:36Z</time>
      </trkpt>
      <trkpt lat="47.06902" lon="-0.95434">
        <ele>140</ele>
        <time>2014-11-09T08:37:44Z</time>
      </trkpt>
      <trkpt lat="47.06906" lon="-0.95453">
        <ele>139</ele>
        <time>2014-11-09T08:37:45Z</time>
      </trkpt>
      <trkpt lat="47.06906" lon="-0.95453">
        <ele>139</ele>
        <time>2014-11-09T08:37:48Z</time>
      </trkpt>
      <trkpt lat="47.06906" lon="-0.95453">
        <ele>139</ele>
        <time>2014-11-09T08:37:56Z</time>
      </trkpt>
      <trkpt lat="47.06911" lon="-0.95473">
        <ele>137</ele>
        <time>2014-11-09T08:37:57Z</time>
      </trkpt>
      <trkpt lat="47.06911" lon="-0.95473">
        <ele>137</ele>
        <time>2014-11-09T08:38:00Z</time>
      </trkpt>
      <trkpt lat="47.06913" lon="-0.95489">
        <ele>136</ele>
        <time>2014-11-09T08:38:06Z</time>
      </trkpt>
      <trkpt lat="47.06913" lon="-0.95489">
        <ele>136</ele>
        <time>2014-11-09T08:38:08Z</time>
      </trkpt>
      <trkpt lat="47.06913" lon="-0.95489">
        <ele>136</ele>
        <time>2014-11-09T08:38:16Z</time>
      </trkpt>
      <trkpt lat="47.06913" lon="-0.95507">
        <ele>135</ele>
        <time>2014-11-09T08:38:28Z</time>
      </trkpt>
      <trkpt lat="47.06916" lon="-0.95531">
        <ele>131</ele>
        <time>2014-11-09T08:38:40Z</time>
      </trkpt>
      <trkpt lat="47.06916" lon="-0.95531">
        <ele>131</ele>
        <time>2014-11-09T08:38:44Z</time>
      </trkpt>
      <trkpt lat="47.06918" lon="-0.95558">
        <ele>130</ele>
        <time>2014-11-09T08:38:56Z</time>
      </trkpt>
      <trkpt lat="47.06918" lon="-0.95558">
        <ele>130</ele>
        <time>2014-11-09T08:39:00Z</time>
      </trkpt>
      <trkpt lat="47.06924" lon="-0.95585">
        <ele>127</ele>
        <time>2014-11-09T08:39:03Z</time>
      </trkpt>
      <trkpt lat="47.06924" lon="-0.95585">
        <ele>127</ele>
        <time>2014-11-09T08:39:04Z</time>
      </trkpt>
      <trkpt lat="47.06924" lon="-0.95585">
        <ele>127</ele>
        <time>2014-11-09T08:39:12Z</time>
      </trkpt>
      <trkpt lat="47.06924" lon="-0.95585">
        <ele>127</ele>
        <time>2014-11-09T08:39:16Z</time>
      </trkpt>
      <trkpt lat="47.06924" lon="-0.95585">
        <ele>127</ele>
        <time>2014-11-09T08:39:20Z</time>
      </trkpt>
      <trkpt lat="47.0692" lon="-0.95607">
        <ele>130</ele>
        <time>2014-11-09T08:39:22Z</time>
      </trkpt>
      <trkpt lat="47.0692" lon="-0.95607">
        <ele>130</ele>
        <time>2014-11-09T08:39:24Z</time>
      </trkpt>
      <trkpt lat="47.0692" lon="-0.95607">
        <ele>130</ele>
        <time>2014-11-09T08:39:32Z</time>
      </trkpt>
      <trkpt lat="47.0692" lon="-0.95607">
        <ele>130</ele>
        <time>2014-11-09T08:39:36Z</time>
      </trkpt>
      <trkpt lat="47.0692" lon="-0.95607">
        <ele>130</ele>
        <time>2014-11-09T08:39:40Z</time>
      </trkpt>
      <trkpt lat="47.0692" lon="-0.95607">
        <ele>130</ele>
        <time>2014-11-09T08:39:44Z</time>
      </trkpt>
      <trkpt lat="47.0692" lon="-0.95607">
        <ele>130</ele>
        <time>2014-11-09T08:39:48Z</time>
      </trkpt>
      <trkpt lat="47.0692" lon="-0.95607">
        <ele>130</ele>
        <time>2014-11-09T08:39:52Z</time>
      </trkpt>
      <trkpt lat="47.06906" lon="-0.95641">
        <ele>130</ele>
        <time>2014-11-09T08:39:55Z</time>
      </trkpt>
      <trkpt lat="47.06906" lon="-0.95641">
        <ele>130</ele>
        <time>2014-11-09T08:39:56Z</time>
      </trkpt>
      <trkpt lat="47.06906" lon="-0.95641">
        <ele>130</ele>
        <time>2014-11-09T08:40:04Z</time>
      </trkpt>
      <trkpt lat="47.06906" lon="-0.95641">
        <ele>130</ele>
        <time>2014-11-09T08:40:08Z</time>
      </trkpt>
      <trkpt lat="47.06906" lon="-0.95641">
        <ele>130</ele>
        <time>2014-11-09T08:40:12Z</time>
      </trkpt>
      <trkpt lat="47.06906" lon="-0.95641">
        <ele>87.5</ele>
        <time>2014-11-09T08:40:15Z</time>
      </trkpt>
      <trkpt lat="47.06906" lon="-0.95641">
        <ele>87.5</ele>
        <time>2014-11-09T08:40:49Z</time>
      </trkpt>
      <trkpt lat="47.06899" lon="-0.95705">
        <ele>134</ele>
        <time>2014-11-09T08:40:49Z</time>
      </trkpt>
      <trkpt lat="47.06899" lon="-0.95705">
        <ele>134</ele>
        <time>2014-11-09T08:40:50Z</time>
      </trkpt>
      <trkpt lat="47.06899" lon="-0.95705">
        <ele>134</ele>
        <time>2014-11-09T08:40:58Z</time>
      </trkpt>
      <trkpt lat="47.06899" lon="-0.95705">
        <ele>134</ele>
        <time>2014-11-09T08:41:02Z</time>
      </trkpt>
      <trkpt lat="47.069" lon="-0.9573">
        <ele>136</ele>
        <time>2014-11-09T08:41:04Z</time>
      </trkpt>
      <trkpt lat="47.069" lon="-0.9573">
        <ele>136</ele>
        <time>2014-11-09T08:41:06Z</time>
      </trkpt>
      <trkpt lat="47.069" lon="-0.9573">
        <ele>136</ele>
        <time>2014-11-09T08:41:14Z</time>
      </trkpt>
      <trkpt lat="47.069" lon="-0.9573">
        <ele>136</ele>
        <time>2014-11-09T08:41:18Z</time>
      </trkpt>
      <trkpt lat="47.069" lon="-0.9573">
        <ele>136</ele>
        <time>2014-11-09T08:41:22Z</time>
      </trkpt>
      <trkpt lat="47.06906" lon="-0.95757">
        <ele>127</ele>
        <time>2014-11-09T08:41:25Z</time>
      </trkpt>
      <trkpt lat="47.06906" lon="-0.95757">
        <ele>127</ele>
        <time>2014-11-09T08:41:26Z</time>
      </trkpt>
      <trkpt lat="47.06906" lon="-0.95757">
        <ele>127</ele>
        <time>2014-11-09T08:41:34Z</time>
      </trkpt>
      <trkpt lat="47.06906" lon="-0.95757">
        <ele>127</ele>
        <time>2014-11-09T08:41:38Z</time>
      </trkpt>
      <trkpt lat="47.06917" lon="-0.95778">
        <ele>128</ele>
        <time>2014-11-09T08:41:39Z</time>
      </trkpt>
      <trkpt lat="47.06917" lon="-0.95778">
        <ele>128</ele>
        <time>2014-11-09T08:41:42Z</time>
      </trkpt>
      <trkpt lat="47.06917" lon="-0.95778">
        <ele>128</ele>
        <time>2014-11-09T08:41:50Z</time>
      </trkpt>
      <trkpt lat="47.06931" lon="-0.95796">
        <ele>133</ele>
        <time>2014-11-09T08:41:51Z</time>
      </trkpt>
      <trkpt lat="47.06931" lon="-0.95796">
        <ele>133</ele>
        <time>2014-11-09T08:41:54Z</time>
      </trkpt>
      <trkpt lat="47.06931" lon="-0.95796">
        <ele>133</ele>
        <time>2014-11-09T08:42:02Z</time>
      </trkpt>
      <trkpt lat="47.06931" lon="-0.95796">
        <ele>133</ele>
        <time>2014-11-09T08:42:06Z</time>
      </trkpt>
      <trkpt lat="47.06931" lon="-0.95796">
        <ele>133</ele>
        <time>2014-11-09T08:42:10Z</time>
      </trkpt>
      <trkpt lat="47.06931" lon="-0.95796">
        <ele>76</ele>
        <time>2014-11-09T08:42:10Z</time>
      </trkpt>
      <trkpt lat="47.06931" lon="-0.95796">
        <ele>76</ele>
        <time>2014-11-09T08:42:15Z</time>
      </trkpt>
      <trkpt lat="47.0694" lon="-0.95827">
        <ele>123</ele>
        <time>2014-11-09T08:42:15Z</time>
      </trkpt>
      <trkpt lat="47.06933" lon="-0.95847">
        <ele>120</ele>
        <time>2014-11-09T08:42:25Z</time>
      </trkpt>
      <trkpt lat="47.06933" lon="-0.95847">
        <ele>120</ele>
        <time>2014-11-09T08:42:26Z</time>
      </trkpt>
      <trkpt lat="47.06933" lon="-0.95847">
        <ele>120</ele>
        <time>2014-11-09T08:42:34Z</time>
      </trkpt>
      <trkpt lat="47.06933" lon="-0.95847">
        <ele>120</ele>
        <time>2014-11-09T08:42:38Z</time>
      </trkpt>
      <trkpt lat="47.06933" lon="-0.95847">
        <ele>74.1</ele>
        <time>2014-11-09T08:42:41Z</time>
      </trkpt>
      <trkpt lat="47.06933" lon="-0.95847">
        <ele>74.1</ele>
        <time>2014-11-09T08:42:49Z</time>
      </trkpt>
      <trkpt lat="47.06924" lon="-0.95873">
        <ele>118</ele>
        <time>2014-11-09T08:42:49Z</time>
      </trkpt>
      <trkpt lat="47.06924" lon="-0.95873">
        <ele>118</ele>
        <time>2014-11-09T08:42:51Z</time>
      </trkpt>
      <trkpt lat="47.06924" lon="-0.95873">
        <ele>118</ele>
        <time>2014-11-09T08:42:59Z</time>
      </trkpt>
      <trkpt lat="47.06913" lon="-0.95888">
        <ele>118</ele>
        <time>2014-11-09T08:43:02Z</time>
      </trkpt>
      <trkpt lat="47.06913" lon="-0.95888">
        <ele>118</ele>
        <time>2014-11-09T08:43:03Z</time>
      </trkpt>
      <trkpt lat="47.06913" lon="-0.95888">
        <ele>118</ele>
        <time>2014-11-09T08:43:11Z</time>
      </trkpt>
      <trkpt lat="47.06913" lon="-0.95888">
        <ele>118</ele>
        <time>2014-11-09T08:43:15Z</time>
      </trkpt>
      <trkpt lat="47.06895" lon="-0.959">
        <ele>116</ele>
        <time>2014-11-09T08:43:17Z</time>
      </trkpt>
      <trkpt lat="47.06895" lon="-0.959">
        <ele>116</ele>
        <time>2014-11-09T08:43:19Z</time>
      </trkpt>
      <trkpt lat="47.06884" lon="-0.95906">
        <ele>114</ele>
        <time>2014-11-09T08:43:25Z</time>
      </trkpt>
      <trkpt lat="47.06884" lon="-0.95906">
        <ele>114</ele>
        <time>2014-11-09T08:43:35Z</time>
      </trkpt>
      <trkpt lat="47.06884" lon="-0.95906">
        <ele>114</ele>
        <time>2014-11-09T08:43:39Z</time>
      </trkpt>
      <trkpt lat="47.06864" lon="-0.95926">
        <ele>117</ele>
        <time>2014-11-09T08:43:40Z</time>
      </trkpt>
      <trkpt lat="47.06864" lon="-0.95926">
        <ele>117</ele>
        <time>2014-11-09T08:43:43Z</time>
      </trkpt>
      <trkpt lat="47.06864" lon="-0.95926">
        <ele>117</ele>
        <time>2014-11-09T08:43:51Z</time>
      </trkpt>
      <trkpt lat="47.06864" lon="-0.95926">
        <ele>117</ele>
        <time>2014-11-09T08:43:55Z</time>
      </trkpt>
      <trkpt lat="47.06849" lon="-0.95937">
        <ele>117</ele>
        <time>2014-11-09T08:43:56Z</time>
      </trkpt>
      <trkpt lat="47.06849" lon="-0.95937">
        <ele>117</ele>
        <time>2014-11-09T08:43:59Z</time>
      </trkpt>
      <trkpt lat="47.06839" lon="-0.95948">
        <ele>118</ele>
        <time>2014-11-09T08:44:04Z</time>
      </trkpt>
      <trkpt lat="47.06831" lon="-0.95956">
        <ele>119</ele>
        <time>2014-11-09T08:44:12Z</time>
      </trkpt>
      <trkpt lat="47.06826" lon="-0.9596">
        <ele>120</ele>
        <time>2014-11-09T08:44:16Z</time>
      </trkpt>
      <trkpt lat="47.06826" lon="-0.9596">
        <ele>69.9</ele>
        <time>2014-11-09T08:44:22Z</time>
      </trkpt>
      <trkpt lat="47.06826" lon="-0.9596">
        <ele>69.9</ele>
        <time>2014-11-09T08:44:27Z</time>
      </trkpt>
      <trkpt lat="47.06818" lon="-0.95971">
        <ele>119</ele>
        <time>2014-11-09T08:44:27Z</time>
      </trkpt>
      <trkpt lat="47.06818" lon="-0.95971">
        <ele>119</ele>
        <time>2014-11-09T08:44:28Z</time>
      </trkpt>
      <trkpt lat="47.06818" lon="-0.95971">
        <ele>119</ele>
        <time>2014-11-09T08:44:34Z</time>
      </trkpt>
      <trkpt lat="47.06818" lon="-0.95971">
        <ele>70.2</ele>
        <time>2014-11-09T08:44:34Z</time>
      </trkpt>
      <trkpt lat="47.06818" lon="-0.95971">
        <ele>70.2</ele>
        <time>2014-11-09T08:45:35Z</time>
      </trkpt>
      <trkpt lat="47.06801" lon="-0.96003">
        <ele>112</ele>
        <time>2014-11-09T08:45:35Z</time>
      </trkpt>
      <trkpt lat="47.06801" lon="-0.96003">
        <ele>112</ele>
        <time>2014-11-09T08:45:45Z</time>
      </trkpt>
      <trkpt lat="47.06801" lon="-0.96003">
        <ele>112</ele>
        <time>2014-11-09T08:45:49Z</time>
      </trkpt>
      <trkpt lat="47.06783" lon="-0.96011">
        <ele>114</ele>
        <time>2014-11-09T08:45:52Z</time>
      </trkpt>
      <trkpt lat="47.06783" lon="-0.96011">
        <ele>114</ele>
        <time>2014-11-09T08:45:53Z</time>
      </trkpt>
      <trkpt lat="47.06783" lon="-0.96011">
        <ele>114</ele>
        <time>2014-11-09T08:46:01Z</time>
      </trkpt>
      <trkpt lat="47.06783" lon="-0.96011">
        <ele>68.8</ele>
        <time>2014-11-09T08:46:02Z</time>
      </trkpt>
      <trkpt lat="47.06783" lon="-0.96011">
        <ele>68.8</ele>
        <time>2014-11-09T08:46:11Z</time>
      </trkpt>
      <trkpt lat="47.0677" lon="-0.96024">
        <ele>107</ele>
        <time>2014-11-09T08:46:11Z</time>
      </trkpt>
      <trkpt lat="47.06756" lon="-0.96036">
        <ele>111</ele>
        <time>2014-11-09T08:46:22Z</time>
      </trkpt>
      <trkpt lat="47.06756" lon="-0.96036">
        <ele>111</ele>
        <time>2014-11-09T08:46:30Z</time>
      </trkpt>
      <trkpt lat="47.06745" lon="-0.96046">
        <ele>107</ele>
        <time>2014-11-09T08:46:31Z</time>
      </trkpt>
      <trkpt lat="47.06745" lon="-0.96046">
        <ele>107</ele>
        <time>2014-11-09T08:46:42Z</time>
      </trkpt>
      <trkpt lat="47.06745" lon="-0.96046">
        <ele>107</ele>
        <time>2014-11-09T08:46:46Z</time>
      </trkpt>
      <trkpt lat="47.06737" lon="-0.96063">
        <ele>111</ele>
        <time>2014-11-09T08:46:47Z</time>
      </trkpt>
      <trkpt lat="47.06737" lon="-0.96063">
        <ele>111</ele>
        <time>2014-11-09T08:46:58Z</time>
      </trkpt>
      <trkpt lat="47.06726" lon="-0.96077">
        <ele>113</ele>
        <time>2014-11-09T08:46:59Z</time>
      </trkpt>
      <trkpt lat="47.06726" lon="-0.96077">
        <ele>113</ele>
        <time>2014-11-09T08:47:10Z</time>
      </trkpt>
      <trkpt lat="47.0671" lon="-0.96093">
        <ele>113</ele>
        <time>2014-11-09T08:47:12Z</time>
      </trkpt>
      <trkpt lat="47.0671" lon="-0.96093">
        <ele>113</ele>
        <time>2014-11-09T08:47:14Z</time>
      </trkpt>
      <trkpt lat="47.0671" lon="-0.96093">
        <ele>113</ele>
        <time>2014-11-09T08:47:22Z</time>
      </trkpt>
      <trkpt lat="47.0671" lon="-0.96093">
        <ele>113</ele>
        <time>2014-11-09T08:47:26Z</time>
      </trkpt>
      <trkpt lat="47.06697" lon="-0.96105">
        <ele>106</ele>
        <time>2014-11-09T08:47:27Z</time>
      </trkpt>
      <trkpt lat="47.06697" lon="-0.96105">
        <ele>106</ele>
        <time>2014-11-09T08:47:39Z</time>
      </trkpt>
      <trkpt lat="47.06683" lon="-0.96114">
        <ele>105</ele>
        <time>2014-11-09T08:47:42Z</time>
      </trkpt>
      <trkpt lat="47.06683" lon="-0.96114">
        <ele>105</ele>
        <time>2014-11-09T08:47:50Z</time>
      </trkpt>
      <trkpt lat="47.06683" lon="-0.96114">
        <ele>105</ele>
        <time>2014-11-09T08:47:54Z</time>
      </trkpt>
      <trkpt lat="47.06683" lon="-0.96114">
        <ele>105</ele>
        <time>2014-11-09T08:47:58Z</time>
      </trkpt>
      <trkpt lat="47.06664" lon="-0.96124">
        <ele>102</ele>
        <time>2014-11-09T08:48:00Z</time>
      </trkpt>
      <trkpt lat="47.06664" lon="-0.96124">
        <ele>102</ele>
        <time>2014-11-09T08:48:02Z</time>
      </trkpt>
      <trkpt lat="47.06664" lon="-0.96124">
        <ele>102</ele>
        <time>2014-11-09T08:48:10Z</time>
      </trkpt>
      <trkpt lat="47.06658" lon="-0.96132">
        <ele>107</ele>
        <time>2014-11-09T08:48:13Z</time>
      </trkpt>
      <trkpt lat="47.06658" lon="-0.96132">
        <ele>107</ele>
        <time>2014-11-09T08:48:14Z</time>
      </trkpt>
      <trkpt lat="47.0665" lon="-0.96141">
        <ele>109</ele>
        <time>2014-11-09T08:48:21Z</time>
      </trkpt>
      <trkpt lat="47.0665" lon="-0.96141">
        <ele>109</ele>
        <time>2014-11-09T08:48:30Z</time>
      </trkpt>
      <trkpt lat="47.0665" lon="-0.96141">
        <ele>109</ele>
        <time>2014-11-09T08:48:34Z</time>
      </trkpt>
      <trkpt lat="47.06641" lon="-0.96156">
        <ele>107</ele>
        <time>2014-11-09T08:48:36Z</time>
      </trkpt>
      <trkpt lat="47.06641" lon="-0.96156">
        <ele>107</ele>
        <time>2014-11-09T08:48:38Z</time>
      </trkpt>
      <trkpt lat="47.0663" lon="-0.96161">
        <ele>111</ele>
        <time>2014-11-09T08:48:46Z</time>
      </trkpt>
      <trkpt lat="47.06621" lon="-0.96169">
        <ele>107</ele>
        <time>2014-11-09T08:48:54Z</time>
      </trkpt>
      <trkpt lat="47.06621" lon="-0.96169">
        <ele>107</ele>
        <time>2014-11-09T08:49:02Z</time>
      </trkpt>
      <trkpt lat="47.06621" lon="-0.96169">
        <ele>107</ele>
        <time>2014-11-09T08:49:06Z</time>
      </trkpt>
      <trkpt lat="47.06607" lon="-0.9617">
        <ele>106</ele>
        <time>2014-11-09T08:49:07Z</time>
      </trkpt>
      <trkpt lat="47.06607" lon="-0.9617">
        <ele>106</ele>
        <time>2014-11-09T08:49:19Z</time>
      </trkpt>
      <trkpt lat="47.06607" lon="-0.9617">
        <ele>106</ele>
        <time>2014-11-09T08:49:23Z</time>
      </trkpt>
      <trkpt lat="47.06587" lon="-0.96174">
        <ele>105</ele>
        <time>2014-11-09T08:49:25Z</time>
      </trkpt>
      <trkpt lat="47.06587" lon="-0.96174">
        <ele>105</ele>
        <time>2014-11-09T08:49:27Z</time>
      </trkpt>
      <trkpt lat="47.06587" lon="-0.96174">
        <ele>105</ele>
        <time>2014-11-09T08:49:32Z</time>
      </trkpt>
      <trkpt lat="47.06587" lon="-0.96174">
        <ele>64.7</ele>
        <time>2014-11-09T08:49:32Z</time>
      </trkpt>
      <trkpt lat="47.06587" lon="-0.96174">
        <ele>64.7</ele>
        <time>2014-11-09T08:49:44Z</time>
      </trkpt>
      <trkpt lat="47.06572" lon="-0.96173">
        <ele>108</ele>
        <time>2014-11-09T08:49:44Z</time>
      </trkpt>
      <trkpt lat="47.06572" lon="-0.96173">
        <ele>108</ele>
        <time>2014-11-09T08:49:54Z</time>
      </trkpt>
      <trkpt lat="47.06572" lon="-0.96173">
        <ele>108</ele>
        <time>2014-11-09T08:49:58Z</time>
      </trkpt>
      <trkpt lat="47.06572" lon="-0.96173">
        <ele>108</ele>
        <time>2014-11-09T08:50:02Z</time>
      </trkpt>
      <trkpt lat="47.06572" lon="-0.96173">
        <ele>108</ele>
        <time>2014-11-09T08:50:06Z</time>
      </trkpt>
      <trkpt lat="47.06572" lon="-0.96173">
        <ele>108</ele>
        <time>2014-11-09T08:50:10Z</time>
      </trkpt>
      <trkpt lat="47.06572" lon="-0.96173">
        <ele>108</ele>
        <time>2014-11-09T08:50:14Z</time>
      </trkpt>
      <trkpt lat="47.06572" lon="-0.96173">
        <ele>108</ele>
        <time>2014-11-09T08:50:18Z</time>
      </trkpt>
      <trkpt lat="47.06572" lon="-0.96173">
        <ele>108</ele>
        <time>2014-11-09T08:50:22Z</time>
      </trkpt>
      <trkpt lat="47.06572" lon="-0.96173">
        <ele>108</ele>
        <time>2014-11-09T08:50:26Z</time>
      </trkpt>
      <trkpt lat="47.06572" lon="-0.96173">
        <ele>108</ele>
        <time>2014-11-09T08:50:30Z</time>
      </trkpt>
      <trkpt lat="47.06572" lon="-0.96173">
        <ele>108</ele>
        <time>2014-11-09T08:50:34Z</time>
      </trkpt>
      <trkpt lat="47.06572" lon="-0.96173">
        <ele>108</ele>
        <time>2014-11-09T08:50:38Z</time>
      </trkpt>
      <trkpt lat="47.06544" lon="-0.9618">
        <ele>119</ele>
        <time>2014-11-09T08:50:40Z</time>
      </trkpt>
      <trkpt lat="47.06544" lon="-0.9618">
        <ele>119</ele>
        <time>2014-11-09T08:50:42Z</time>
      </trkpt>
      <trkpt lat="47.06544" lon="-0.9618">
        <ele>119</ele>
        <time>2014-11-09T08:50:50Z</time>
      </trkpt>
      <trkpt lat="47.06544" lon="-0.9618">
        <ele>119</ele>
        <time>2014-11-09T08:50:54Z</time>
      </trkpt>
      <trkpt lat="47.06544" lon="-0.9618">
        <ele>119</ele>
        <time>2014-11-09T08:50:58Z</time>
      </trkpt>
      <trkpt lat="47.06544" lon="-0.9618">
        <ele>119</ele>
        <time>2014-11-09T08:51:02Z</time>
      </trkpt>
      <trkpt lat="47.06544" lon="-0.9618">
        <ele>119</ele>
        <time>2014-11-09T08:51:06Z</time>
      </trkpt>
      <trkpt lat="47.06521" lon="-0.96196">
        <ele>115</ele>
        <time>2014-11-09T08:51:08Z</time>
      </trkpt>
      <trkpt lat="47.06521" lon="-0.96196">
        <ele>115</ele>
        <time>2014-11-09T08:51:10Z</time>
      </trkpt>
      <trkpt lat="47.0651" lon="-0.9621">
        <ele>113</ele>
        <time>2014-11-09T08:51:18Z</time>
      </trkpt>
      <trkpt lat="47.0651" lon="-0.9621">
        <ele>113</ele>
        <time>2014-11-09T08:51:26Z</time>
      </trkpt>
      <trkpt lat="47.0651" lon="-0.9621">
        <ele>113</ele>
        <time>2014-11-09T08:51:30Z</time>
      </trkpt>
      <trkpt lat="47.0651" lon="-0.9621">
        <ele>113</ele>
        <time>2014-11-09T08:51:34Z</time>
      </trkpt>
      <trkpt lat="47.065" lon="-0.96228">
        <ele>114</ele>
        <time>2014-11-09T08:51:35Z</time>
      </trkpt>
      <trkpt lat="47.065" lon="-0.96228">
        <ele>114</ele>
        <time>2014-11-09T08:51:47Z</time>
      </trkpt>
      <trkpt lat="47.065" lon="-0.96228">
        <ele>114</ele>
        <time>2014-11-09T08:51:51Z</time>
      </trkpt>
      <trkpt lat="47.06477" lon="-0.96248">
        <ele>119</ele>
        <time>2014-11-09T08:51:56Z</time>
      </trkpt>
      <trkpt lat="47.06477" lon="-0.96248">
        <ele>62.1</ele>
        <time>2014-11-09T08:52:01Z</time>
      </trkpt>
      <trkpt lat="47.06477" lon="-0.96248">
        <ele>62.1</ele>
        <time>2014-11-09T08:52:07Z</time>
      </trkpt>
      <trkpt lat="47.06474" lon="-0.96257">
        <ele>122</ele>
        <time>2014-11-09T08:52:07Z</time>
      </trkpt>
      <trkpt lat="47.06474" lon="-0.96257">
        <ele>122</ele>
        <time>2014-11-09T08:52:09Z</time>
      </trkpt>
      <trkpt lat="47.06474" lon="-0.96257">
        <ele>122</ele>
        <time>2014-11-09T08:52:17Z</time>
      </trkpt>
      <trkpt lat="47.06474" lon="-0.96257">
        <ele>122</ele>
        <time>2014-11-09T08:52:21Z</time>
      </trkpt>
      <trkpt lat="47.06464" lon="-0.96279">
        <ele>123</ele>
        <time>2014-11-09T08:52:24Z</time>
      </trkpt>
      <trkpt lat="47.06464" lon="-0.96279">
        <ele>123</ele>
        <time>2014-11-09T08:52:25Z</time>
      </trkpt>
      <trkpt lat="47.06464" lon="-0.96279">
        <ele>123</ele>
        <time>2014-11-09T08:52:33Z</time>
      </trkpt>
      <trkpt lat="47.06457" lon="-0.96288">
        <ele>123</ele>
        <time>2014-11-09T08:52:35Z</time>
      </trkpt>
      <trkpt lat="47.06457" lon="-0.96288">
        <ele>123</ele>
        <time>2014-11-09T08:52:37Z</time>
      </trkpt>
      <trkpt lat="47.06457" lon="-0.96288">
        <ele>123</ele>
        <time>2014-11-09T08:52:45Z</time>
      </trkpt>
      <trkpt lat="47.06457" lon="-0.96288">
        <ele>62.8</ele>
        <time>2014-11-09T08:52:48Z</time>
      </trkpt>
      <trkpt lat="47.06457" lon="-0.96288">
        <ele>62.8</ele>
        <time>2014-11-09T08:52:53Z</time>
      </trkpt>
      <trkpt lat="47.06446" lon="-0.963">
        <ele>127</ele>
        <time>2014-11-09T08:52:53Z</time>
      </trkpt>
      <trkpt lat="47.06446" lon="-0.963">
        <ele>127</ele>
        <time>2014-11-09T08:52:54Z</time>
      </trkpt>
      <trkpt lat="47.06433" lon="-0.96312">
        <ele>123</ele>
        <time>2014-11-09T08:53:01Z</time>
      </trkpt>
      <trkpt lat="47.06433" lon="-0.96312">
        <ele>123</ele>
        <time>2014-11-09T08:53:09Z</time>
      </trkpt>
      <trkpt lat="47.06433" lon="-0.96312">
        <ele>123</ele>
        <time>2014-11-09T08:53:13Z</time>
      </trkpt>
      <trkpt lat="47.06416" lon="-0.96314">
        <ele>112</ele>
        <time>2014-11-09T08:53:15Z</time>
      </trkpt>
      <trkpt lat="47.06416" lon="-0.96314">
        <ele>112</ele>
        <time>2014-11-09T08:53:17Z</time>
      </trkpt>
      <trkpt lat="47.06416" lon="-0.96314">
        <ele>112</ele>
        <time>2014-11-09T08:53:23Z</time>
      </trkpt>
      <trkpt lat="47.06416" lon="-0.96314">
        <ele>60</ele>
        <time>2014-11-09T08:53:23Z</time>
      </trkpt>
      <trkpt lat="47.06416" lon="-0.96314">
        <ele>60</ele>
        <time>2014-11-09T08:53:35Z</time>
      </trkpt>
      <trkpt lat="47.06408" lon="-0.96301">
        <ele>103</ele>
        <time>2014-11-09T08:53:35Z</time>
      </trkpt>
      <trkpt lat="47.06408" lon="-0.96301">
        <ele>103</ele>
        <time>2014-11-09T08:53:46Z</time>
      </trkpt>
      <trkpt lat="47.06408" lon="-0.96301">
        <ele>103</ele>
        <time>2014-11-09T08:53:50Z</time>
      </trkpt>
      <trkpt lat="47.06408" lon="-0.96301">
        <ele>103</ele>
        <time>2014-11-09T08:53:54Z</time>
      </trkpt>
      <trkpt lat="47.06383" lon="-0.96288">
        <ele>107</ele>
        <time>2014-11-09T08:53:57Z</time>
      </trkpt>
      <trkpt lat="47.06383" lon="-0.96288">
        <ele>107</ele>
        <time>2014-11-09T08:53:58Z</time>
      </trkpt>
      <trkpt lat="47.06383" lon="-0.96288">
        <ele>107</ele>
        <time>2014-11-09T08:54:06Z</time>
      </trkpt>
      <trkpt lat="47.06383" lon="-0.96288">
        <ele>107</ele>
        <time>2014-11-09T08:54:10Z</time>
      </trkpt>
      <trkpt lat="47.06383" lon="-0.96288">
        <ele>107</ele>
        <time>2014-11-09T08:54:14Z</time>
      </trkpt>
      <trkpt lat="47.06383" lon="-0.96288">
        <ele>107</ele>
        <time>2014-11-09T08:54:18Z</time>
      </trkpt>
      <trkpt lat="47.06383" lon="-0.96288">
        <ele>107</ele>
        <time>2014-11-09T08:54:22Z</time>
      </trkpt>
      <trkpt lat="47.06383" lon="-0.96288">
        <ele>107</ele>
        <time>2014-11-09T08:54:26Z</time>
      </trkpt>
      <trkpt lat="47.06383" lon="-0.96288">
        <ele>107</ele>
        <time>2014-11-09T08:54:30Z</time>
      </trkpt>
      <trkpt lat="47.06383" lon="-0.96288">
        <ele>107</ele>
        <time>2014-11-09T08:54:34Z</time>
      </trkpt>
      <trkpt lat="47.06383" lon="-0.96288">
        <ele>107</ele>
        <time>2014-11-09T08:54:38Z</time>
      </trkpt>
      <trkpt lat="47.06383" lon="-0.96288">
        <ele>107</ele>
        <time>2014-11-09T08:54:42Z</time>
      </trkpt>
      <trkpt lat="47.06383" lon="-0.96288">
        <ele>107</ele>
        <time>2014-11-09T08:54:46Z</time>
      </trkpt>
      <trkpt lat="47.06383" lon="-0.96288">
        <ele>107</ele>
        <time>2014-11-09T08:54:50Z</time>
      </trkpt>
      <trkpt lat="47.06383" lon="-0.96288">
        <ele>107</ele>
        <time>2014-11-09T08:54:54Z</time>
      </trkpt>
      <trkpt lat="47.06383" lon="-0.96288">
        <ele>107</ele>
        <time>2014-11-09T08:54:58Z</time>
      </trkpt>
      <trkpt lat="47.06383" lon="-0.96288">
        <ele>107</ele>
        <time>2014-11-09T08:55:02Z</time>
      </trkpt>
      <trkpt lat="47.06383" lon="-0.96288">
        <ele>107</ele>
        <time>2014-11-09T08:55:06Z</time>
      </trkpt>
      <trkpt lat="47.06383" lon="-0.96288">
        <ele>107</ele>
        <time>2014-11-09T08:55:10Z</time>
      </trkpt>
      <trkpt lat="47.06383" lon="-0.96288">
        <ele>107</ele>
        <time>2014-11-09T08:55:14Z</time>
      </trkpt>
      <trkpt lat="47.06383" lon="-0.96288">
        <ele>107</ele>
        <time>2014-11-09T08:55:18Z</time>
      </trkpt>
      <trkpt lat="47.06383" lon="-0.96288">
        <ele>107</ele>
        <time>2014-11-09T08:55:22Z</time>
      </trkpt>
      <trkpt lat="47.06383" lon="-0.96288">
        <ele>107</ele>
        <time>2014-11-09T08:55:26Z</time>
      </trkpt>
      <trkpt lat="47.0637" lon="-0.96248">
        <ele>103</ele>
        <time>2014-11-09T08:55:29Z</time>
      </trkpt>
      <trkpt lat="47.0637" lon="-0.96248">
        <ele>103</ele>
        <time>2014-11-09T08:55:30Z</time>
      </trkpt>
      <trkpt lat="47.0637" lon="-0.96248">
        <ele>103</ele>
        <time>2014-11-09T08:55:38Z</time>
      </trkpt>
      <trkpt lat="47.0637" lon="-0.96248">
        <ele>103</ele>
        <time>2014-11-09T08:55:42Z</time>
      </trkpt>
      <trkpt lat="47.06358" lon="-0.9624">
        <ele>105</ele>
        <time>2014-11-09T08:55:43Z</time>
      </trkpt>
      <trkpt lat="47.06358" lon="-0.9624">
        <ele>105</ele>
        <time>2014-11-09T08:55:46Z</time>
      </trkpt>
      <trkpt lat="47.06358" lon="-0.9624">
        <ele>105</ele>
        <time>2014-11-09T08:55:54Z</time>
      </trkpt>
      <trkpt lat="47.06358" lon="-0.9624">
        <ele>105</ele>
        <time>2014-11-09T08:55:58Z</time>
      </trkpt>
      <trkpt lat="47.06358" lon="-0.9624">
        <ele>105</ele>
        <time>2014-11-09T08:56:02Z</time>
      </trkpt>
      <trkpt lat="47.06358" lon="-0.9624">
        <ele>105</ele>
        <time>2014-11-09T08:56:06Z</time>
      </trkpt>
      <trkpt lat="47.06358" lon="-0.9624">
        <ele>105</ele>
        <time>2014-11-09T08:56:10Z</time>
      </trkpt>
      <trkpt lat="47.06358" lon="-0.9624">
        <ele>105</ele>
        <time>2014-11-09T08:56:14Z</time>
      </trkpt>
      <trkpt lat="47.06358" lon="-0.9624">
        <ele>105</ele>
        <time>2014-11-09T08:56:18Z</time>
      </trkpt>
      <trkpt lat="47.06358" lon="-0.9624">
        <ele>105</ele>
        <time>2014-11-09T08:56:22Z</time>
      </trkpt>
      <trkpt lat="47.06358" lon="-0.9624">
        <ele>105</ele>
        <time>2014-11-09T08:56:26Z</time>
      </trkpt>
      <trkpt lat="47.06358" lon="-0.9624">
        <ele>105</ele>
        <time>2014-11-09T08:56:30Z</time>
      </trkpt>
      <trkpt lat="47.06358" lon="-0.9624">
        <ele>105</ele>
        <time>2014-11-09T08:56:34Z</time>
      </trkpt>
      <trkpt lat="47.06358" lon="-0.9624">
        <ele>105</ele>
        <time>2014-11-09T08:56:38Z</time>
      </trkpt>
      <trkpt lat="47.06332" lon="-0.96222">
        <ele>107</ele>
        <time>2014-11-09T08:56:39Z</time>
      </trkpt>
      <trkpt lat="47.06332" lon="-0.96222">
        <ele>107</ele>
        <time>2014-11-09T08:56:42Z</time>
      </trkpt>
      <trkpt lat="47.06332" lon="-0.96222">
        <ele>107</ele>
        <time>2014-11-09T08:56:50Z</time>
      </trkpt>
      <trkpt lat="47.06332" lon="-0.96222">
        <ele>107</ele>
        <time>2014-11-09T08:56:54Z</time>
      </trkpt>
      <trkpt lat="47.06302" lon="-0.962">
        <ele>106</ele>
        <time>2014-11-09T08:57:05Z</time>
      </trkpt>
      <trkpt lat="47.06302" lon="-0.962">
        <ele>106</ele>
        <time>2014-11-09T08:57:06Z</time>
      </trkpt>
      <trkpt lat="47.06302" lon="-0.962">
        <ele>106</ele>
        <time>2014-11-09T08:57:14Z</time>
      </trkpt>
      <trkpt lat="47.06302" lon="-0.962">
        <ele>106</ele>
        <time>2014-11-09T08:57:18Z</time>
      </trkpt>
      <trkpt lat="47.06302" lon="-0.962">
        <ele>106</ele>
        <time>2014-11-09T08:57:22Z</time>
      </trkpt>
      <trkpt lat="47.06302" lon="-0.962">
        <ele>106</ele>
        <time>2014-11-09T08:57:26Z</time>
      </trkpt>
      <trkpt lat="47.06302" lon="-0.962">
        <ele>59.1</ele>
        <time>2014-11-09T08:57:26Z</time>
      </trkpt>
      <trkpt lat="47.06302" lon="-0.962">
        <ele>59.1</ele>
        <time>2014-11-09T08:58:06Z</time>
      </trkpt>
      <trkpt lat="47.06274" lon="-0.96177">
        <ele>110</ele>
        <time>2014-11-09T08:58:06Z</time>
      </trkpt>
      <trkpt lat="47.06274" lon="-0.96177">
        <ele>110</ele>
        <time>2014-11-09T08:58:17Z</time>
      </trkpt>
      <trkpt lat="47.06255" lon="-0.9618">
        <ele>111</ele>
        <time>2014-11-09T08:58:21Z</time>
      </trkpt>
      <trkpt lat="47.06255" lon="-0.9618">
        <ele>111</ele>
        <time>2014-11-09T08:58:29Z</time>
      </trkpt>
      <trkpt lat="47.06255" lon="-0.9618">
        <ele>111</ele>
        <time>2014-11-09T08:58:33Z</time>
      </trkpt>
      <trkpt lat="47.0624" lon="-0.96171">
        <ele>111</ele>
        <time>2014-11-09T08:58:37Z</time>
      </trkpt>
      <trkpt lat="47.0624" lon="-0.96171">
        <ele>111</ele>
        <time>2014-11-09T08:58:45Z</time>
      </trkpt>
      <trkpt lat="47.0624" lon="-0.96171">
        <ele>111</ele>
        <time>2014-11-09T08:58:49Z</time>
      </trkpt>
      <trkpt lat="47.0622" lon="-0.9616">
        <ele>108</ele>
        <time>2014-11-09T08:58:53Z</time>
      </trkpt>
      <trkpt lat="47.0622" lon="-0.9616">
        <ele>108</ele>
        <time>2014-11-09T08:59:01Z</time>
      </trkpt>
      <trkpt lat="47.06208" lon="-0.96152">
        <ele>106</ele>
        <time>2014-11-09T08:59:05Z</time>
      </trkpt>
      <trkpt lat="47.06208" lon="-0.96152">
        <ele>106</ele>
        <time>2014-11-09T08:59:13Z</time>
      </trkpt>
      <trkpt lat="47.06208" lon="-0.96152">
        <ele>106</ele>
        <time>2014-11-09T08:59:18Z</time>
      </trkpt>
      <trkpt lat="47.06208" lon="-0.96152">
        <ele>106</ele>
        <time>2014-11-09T08:59:22Z</time>
      </trkpt>
      <trkpt lat="47.06189" lon="-0.96134">
        <ele>104</ele>
        <time>2014-11-09T08:59:23Z</time>
      </trkpt>
      <trkpt lat="47.06189" lon="-0.96134">
        <ele>104</ele>
        <time>2014-11-09T08:59:26Z</time>
      </trkpt>
      <trkpt lat="47.06189" lon="-0.96134">
        <ele>104</ele>
        <time>2014-11-09T08:59:34Z</time>
      </trkpt>
      <trkpt lat="47.06189" lon="-0.96134">
        <ele>104</ele>
        <time>2014-11-09T08:59:38Z</time>
      </trkpt>
      <trkpt lat="47.06189" lon="-0.96134">
        <ele>62.3</ele>
        <time>2014-11-09T08:59:40Z</time>
      </trkpt>
      <trkpt lat="47.06189" lon="-0.96134">
        <ele>62.3</ele>
        <time>2014-11-09T09:00:30Z</time>
      </trkpt>
      <trkpt lat="47.06154" lon="-0.96103">
        <ele>104</ele>
        <time>2014-11-09T09:00:30Z</time>
      </trkpt>
      <trkpt lat="47.06154" lon="-0.96103">
        <ele>104</ele>
        <time>2014-11-09T09:00:31Z</time>
      </trkpt>
      <trkpt lat="47.06154" lon="-0.96103">
        <ele>104</ele>
        <time>2014-11-09T09:00:39Z</time>
      </trkpt>
      <trkpt lat="47.06154" lon="-0.96103">
        <ele>104</ele>
        <time>2014-11-09T09:00:43Z</time>
      </trkpt>
      <trkpt lat="47.06154" lon="-0.96103">
        <ele>104</ele>
        <time>2014-11-09T09:00:47Z</time>
      </trkpt>
      <trkpt lat="47.06131" lon="-0.96089">
        <ele>102</ele>
        <time>2014-11-09T09:00:50Z</time>
      </trkpt>
      <trkpt lat="47.06131" lon="-0.96089">
        <ele>102</ele>
        <time>2014-11-09T09:00:51Z</time>
      </trkpt>
      <trkpt lat="47.06131" lon="-0.96089">
        <ele>102</ele>
        <time>2014-11-09T09:00:59Z</time>
      </trkpt>
      <trkpt lat="47.06131" lon="-0.96089">
        <ele>102</ele>
        <time>2014-11-09T09:01:03Z</time>
      </trkpt>
      <trkpt lat="47.06118" lon="-0.96081">
        <ele>106</ele>
        <time>2014-11-09T09:01:05Z</time>
      </trkpt>
      <trkpt lat="47.06118" lon="-0.96081">
        <ele>106</ele>
        <time>2014-11-09T09:01:07Z</time>
      </trkpt>
      <trkpt lat="47.06118" lon="-0.96081">
        <ele>106</ele>
        <time>2014-11-09T09:01:14Z</time>
      </trkpt>
      <trkpt lat="47.06118" lon="-0.96081">
        <ele>61.6</ele>
        <time>2014-11-09T09:01:14Z</time>
      </trkpt>
      <trkpt lat="47.06118" lon="-0.96081">
        <ele>61.6</ele>
        <time>2014-11-09T09:02:41Z</time>
      </trkpt>
      <trkpt lat="47.06117" lon="-0.96032">
        <ele>105</ele>
        <time>2014-11-09T09:02:41Z</time>
      </trkpt>
      <trkpt lat="47.06117" lon="-0.96032">
        <ele>105</ele>
        <time>2014-11-09T09:02:44Z</time>
      </trkpt>
      <trkpt lat="47.06117" lon="-0.96032">
        <ele>105</ele>
        <time>2014-11-09T09:02:52Z</time>
      </trkpt>
      <trkpt lat="47.06117" lon="-0.96032">
        <ele>105</ele>
        <time>2014-11-09T09:02:56Z</time>
      </trkpt>
      <trkpt lat="47.06117" lon="-0.96032">
        <ele>105</ele>
        <time>2014-11-09T09:03:00Z</time>
      </trkpt>
      <trkpt lat="47.06117" lon="-0.96032">
        <ele>65.8</ele>
        <time>2014-11-09T09:03:03Z</time>
      </trkpt>
      <trkpt lat="47.06117" lon="-0.96032">
        <ele>65.8</ele>
        <time>2014-11-09T09:03:28Z</time>
      </trkpt>
      <trkpt lat="47.06115" lon="-0.95992">
        <ele>108</ele>
        <time>2014-11-09T09:03:28Z</time>
      </trkpt>
      <trkpt lat="47.06115" lon="-0.95992">
        <ele>108</ele>
        <time>2014-11-09T09:03:29Z</time>
      </trkpt>
      <trkpt lat="47.06115" lon="-0.95992">
        <ele>108</ele>
        <time>2014-11-09T09:03:37Z</time>
      </trkpt>
      <trkpt lat="47.06115" lon="-0.95992">
        <ele>108</ele>
        <time>2014-11-09T09:03:41Z</time>
      </trkpt>
      <trkpt lat="47.06116" lon="-0.95973">
        <ele>108</ele>
        <time>2014-11-09T09:03:43Z</time>
      </trkpt>
      <trkpt lat="47.06116" lon="-0.95973">
        <ele>108</ele>
        <time>2014-11-09T09:03:45Z</time>
      </trkpt>
      <trkpt lat="47.06116" lon="-0.95973">
        <ele>108</ele>
        <time>2014-11-09T09:03:53Z</time>
      </trkpt>
      <trkpt lat="47.06116" lon="-0.95973">
        <ele>108</ele>
        <time>2014-11-09T09:03:57Z</time>
      </trkpt>
      <trkpt lat="47.06116" lon="-0.95973">
        <ele>108</ele>
        <time>2014-11-09T09:04:01Z</time>
      </trkpt>
      <trkpt lat="47.06116" lon="-0.95973">
        <ele>108</ele>
        <time>2014-11-09T09:04:05Z</time>
      </trkpt>
      <trkpt lat="47.06116" lon="-0.95973">
        <ele>108</ele>
        <time>2014-11-09T09:04:09Z</time>
      </trkpt>
      <trkpt lat="47.06116" lon="-0.95973">
        <ele>108</ele>
        <time>2014-11-09T09:04:13Z</time>
      </trkpt>
      <trkpt lat="47.06116" lon="-0.95973">
        <ele>108</ele>
        <time>2014-11-09T09:04:17Z</time>
      </trkpt>
      <trkpt lat="47.06116" lon="-0.95973">
        <ele>108</ele>
        <time>2014-11-09T09:04:21Z</time>
      </trkpt>
      <trkpt lat="47.06116" lon="-0.95973">
        <ele>108</ele>
        <time>2014-11-09T09:04:25Z</time>
      </trkpt>
      <trkpt lat="47.06116" lon="-0.95973">
        <ele>108</ele>
        <time>2014-11-09T09:04:29Z</time>
      </trkpt>
      <trkpt lat="47.06116" lon="-0.95973">
        <ele>108</ele>
        <time>2014-11-09T09:04:33Z</time>
      </trkpt>
      <trkpt lat="47.06116" lon="-0.95973">
        <ele>108</ele>
        <time>2014-11-09T09:04:37Z</time>
      </trkpt>
      <trkpt lat="47.06116" lon="-0.95973">
        <ele>108</ele>
        <time>2014-11-09T09:04:41Z</time>
      </trkpt>
      <trkpt lat="47.06116" lon="-0.95973">
        <ele>108</ele>
        <time>2014-11-09T09:04:45Z</time>
      </trkpt>
      <trkpt lat="47.06116" lon="-0.95973">
        <ele>108</ele>
        <time>2014-11-09T09:04:49Z</time>
      </trkpt>
      <trkpt lat="47.06116" lon="-0.95973">
        <ele>108</ele>
        <time>2014-11-09T09:04:53Z</time>
      </trkpt>
      <trkpt lat="47.06116" lon="-0.95973">
        <ele>108</ele>
        <time>2014-11-09T09:04:57Z</time>
      </trkpt>
      <trkpt lat="47.06116" lon="-0.95973">
        <ele>108</ele>
        <time>2014-11-09T09:05:01Z</time>
      </trkpt>
      <trkpt lat="47.06116" lon="-0.95973">
        <ele>108</ele>
        <time>2014-11-09T09:05:05Z</time>
      </trkpt>
      <trkpt lat="47.06116" lon="-0.95973">
        <ele>108</ele>
        <time>2014-11-09T09:05:09Z</time>
      </trkpt>
      <trkpt lat="47.06116" lon="-0.95973">
        <ele>108</ele>
        <time>2014-11-09T09:05:13Z</time>
      </trkpt>
      <trkpt lat="47.06116" lon="-0.95973">
        <ele>108</ele>
        <time>2014-11-09T09:05:17Z</time>
      </trkpt>
      <trkpt lat="47.06116" lon="-0.95973">
        <ele>108</ele>
        <time>2014-11-09T09:05:21Z</time>
      </trkpt>
      <trkpt lat="47.06116" lon="-0.95973">
        <ele>108</ele>
        <time>2014-11-09T09:05:26Z</time>
      </trkpt>
      <trkpt lat="47.06116" lon="-0.95973">
        <ele>108</ele>
        <time>2014-11-09T09:05:30Z</time>
      </trkpt>
      <trkpt lat="47.06116" lon="-0.95973">
        <ele>108</ele>
        <time>2014-11-09T09:05:34Z</time>
      </trkpt>
      <trkpt lat="47.06116" lon="-0.95973">
        <ele>108</ele>
        <time>2014-11-09T09:05:38Z</time>
      </trkpt>
      <trkpt lat="47.06116" lon="-0.95973">
        <ele>108</ele>
        <time>2014-11-09T09:05:42Z</time>
      </trkpt>
      <trkpt lat="47.06116" lon="-0.95973">
        <ele>72.6</ele>
        <time>2014-11-09T09:05:45Z</time>
      </trkpt>
      <trkpt lat="47.06116" lon="-0.95973">
        <ele>72.6</ele>
        <time>2014-11-09T09:12:24Z</time>
      </trkpt>
      <trkpt lat="47.06116" lon="-0.95973">
        <ele>72.6</ele>
        <time>2014-11-09T09:12:25Z</time>
      </trkpt>
      <trkpt lat="47.06116" lon="-0.95973">
        <ele>72.6</ele>
        <time>2014-11-09T09:12:29Z</time>
      </trkpt>
      <trkpt lat="47.06116" lon="-0.95973">
        <ele>72.6</ele>
        <time>2014-11-09T09:12:33Z</time>
      </trkpt>
      <trkpt lat="47.06116" lon="-0.95973">
        <ele>72.6</ele>
        <time>2014-11-09T09:12:37Z</time>
      </trkpt>
      <trkpt lat="47.06116" lon="-0.95973">
        <ele>72.6</ele>
        <time>2014-11-09T09:12:41Z</time>
      </trkpt>
      <trkpt lat="47.06116" lon="-0.95973">
        <ele>72.6</ele>
        <time>2014-11-09T09:12:45Z</time>
      </trkpt>
      <trkpt lat="47.06116" lon="-0.95973">
        <ele>72.6</ele>
        <time>2014-11-09T09:12:49Z</time>
      </trkpt>
      <trkpt lat="47.06116" lon="-0.95973">
        <ele>72.6</ele>
        <time>2014-11-09T09:12:52Z</time>
      </trkpt>
      <trkpt lat="47.06116" lon="-0.95973">
        <ele>72.6</ele>
        <time>2014-11-09T09:22:56Z</time>
      </trkpt>
      <trkpt lat="47.06116" lon="-0.95926">
        <ele>119</ele>
        <time>2014-11-09T09:22:58Z</time>
      </trkpt>
      <trkpt lat="47.06116" lon="-0.95926">
        <ele>119</ele>
        <time>2014-11-09T09:23:06Z</time>
      </trkpt>
      <trkpt lat="47.06116" lon="-0.95926">
        <ele>119</ele>
        <time>2014-11-09T09:23:07Z</time>
      </trkpt>
      <trkpt lat="47.06116" lon="-0.95926">
        <ele>119</ele>
        <time>2014-11-09T09:23:11Z</time>
      </trkpt>
      <trkpt lat="47.06116" lon="-0.95926">
        <ele>119</ele>
        <time>2014-11-09T09:23:15Z</time>
      </trkpt>
      <trkpt lat="47.06113" lon="-0.95901">
        <ele>121</ele>
        <time>2014-11-09T09:23:17Z</time>
      </trkpt>
      <trkpt lat="47.06113" lon="-0.95901">
        <ele>121</ele>
        <time>2014-11-09T09:23:19Z</time>
      </trkpt>
      <trkpt lat="47.06113" lon="-0.95901">
        <ele>121</ele>
        <time>2014-11-09T09:23:27Z</time>
      </trkpt>
      <trkpt lat="47.06113" lon="-0.95901">
        <ele>121</ele>
        <time>2014-11-09T09:23:31Z</time>
      </trkpt>
      <trkpt lat="47.06111" lon="-0.95882">
        <ele>120</ele>
        <time>2014-11-09T09:23:33Z</time>
      </trkpt>
      <trkpt lat="47.06111" lon="-0.95882">
        <ele>120</ele>
        <time>2014-11-09T09:23:35Z</time>
      </trkpt>
      <trkpt lat="47.06111" lon="-0.95882">
        <ele>120</ele>
        <time>2014-11-09T09:23:43Z</time>
      </trkpt>
      <trkpt lat="47.06108" lon="-0.95864">
        <ele>120</ele>
        <time>2014-11-09T09:23:44Z</time>
      </trkpt>
      <trkpt lat="47.06108" lon="-0.95864">
        <ele>120</ele>
        <time>2014-11-09T09:23:47Z</time>
      </trkpt>
      <trkpt lat="47.06108" lon="-0.95864">
        <ele>120</ele>
        <time>2014-11-09T09:23:55Z</time>
      </trkpt>
      <trkpt lat="47.06108" lon="-0.95864">
        <ele>120</ele>
        <time>2014-11-09T09:23:59Z</time>
      </trkpt>
      <trkpt lat="47.06096" lon="-0.95838">
        <ele>119</ele>
        <time>2014-11-09T09:24:00Z</time>
      </trkpt>
      <trkpt lat="47.06096" lon="-0.95838">
        <ele>119</ele>
        <time>2014-11-09T09:24:03Z</time>
      </trkpt>
      <trkpt lat="47.06096" lon="-0.95838">
        <ele>119</ele>
        <time>2014-11-09T09:24:11Z</time>
      </trkpt>
      <trkpt lat="47.06091" lon="-0.95817">
        <ele>117</ele>
        <time>2014-11-09T09:24:13Z</time>
      </trkpt>
      <trkpt lat="47.06091" lon="-0.95817">
        <ele>117</ele>
        <time>2014-11-09T09:24:15Z</time>
      </trkpt>
      <trkpt lat="47.06091" lon="-0.95817">
        <ele>117</ele>
        <time>2014-11-09T09:24:23Z</time>
      </trkpt>
      <trkpt lat="47.06091" lon="-0.95817">
        <ele>117</ele>
        <time>2014-11-09T09:24:27Z</time>
      </trkpt>
      <trkpt lat="47.0609" lon="-0.95795">
        <ele>117</ele>
        <time>2014-11-09T09:24:30Z</time>
      </trkpt>
      <trkpt lat="47.0609" lon="-0.95795">
        <ele>117</ele>
        <time>2014-11-09T09:24:31Z</time>
      </trkpt>
      <trkpt lat="47.0609" lon="-0.95795">
        <ele>117</ele>
        <time>2014-11-09T09:24:39Z</time>
      </trkpt>
      <trkpt lat="47.0609" lon="-0.95795">
        <ele>117</ele>
        <time>2014-11-09T09:24:43Z</time>
      </trkpt>
      <trkpt lat="47.06088" lon="-0.95773">
        <ele>117</ele>
        <time>2014-11-09T09:24:45Z</time>
      </trkpt>
      <trkpt lat="47.06088" lon="-0.95773">
        <ele>117</ele>
        <time>2014-11-09T09:24:47Z</time>
      </trkpt>
      <trkpt lat="47.06088" lon="-0.95773">
        <ele>117</ele>
        <time>2014-11-09T09:24:55Z</time>
      </trkpt>
      <trkpt lat="47.06086" lon="-0.95754">
        <ele>116</ele>
        <time>2014-11-09T09:24:58Z</time>
      </trkpt>
      <trkpt lat="47.06086" lon="-0.95754">
        <ele>116</ele>
        <time>2014-11-09T09:24:59Z</time>
      </trkpt>
      <trkpt lat="47.06086" lon="-0.95754">
        <ele>116</ele>
        <time>2014-11-09T09:25:07Z</time>
      </trkpt>
      <trkpt lat="47.06086" lon="-0.95754">
        <ele>116</ele>
        <time>2014-11-09T09:25:11Z</time>
      </trkpt>
      <trkpt lat="47.06086" lon="-0.95754">
        <ele>116</ele>
        <time>2014-11-09T09:25:15Z</time>
      </trkpt>
      <trkpt lat="47.06087" lon="-0.95709">
        <ele>117</ele>
        <time>2014-11-09T09:25:25Z</time>
      </trkpt>
      <trkpt lat="47.06087" lon="-0.95709">
        <ele>117</ele>
        <time>2014-11-09T09:25:27Z</time>
      </trkpt>
      <trkpt lat="47.06087" lon="-0.95709">
        <ele>117</ele>
        <time>2014-11-09T09:25:35Z</time>
      </trkpt>
      <trkpt lat="47.06087" lon="-0.95709">
        <ele>117</ele>
        <time>2014-11-09T09:25:39Z</time>
      </trkpt>
      <trkpt lat="47.06087" lon="-0.95709">
        <ele>117</ele>
        <time>2014-11-09T09:25:43Z</time>
      </trkpt>
      <trkpt lat="47.06089" lon="-0.95671">
        <ele>114</ele>
        <time>2014-11-09T09:25:45Z</time>
      </trkpt>
      <trkpt lat="47.06089" lon="-0.95671">
        <ele>114</ele>
        <time>2014-11-09T09:25:47Z</time>
      </trkpt>
      <trkpt lat="47.06089" lon="-0.95671">
        <ele>114</ele>
        <time>2014-11-09T09:25:55Z</time>
      </trkpt>
      <trkpt lat="47.06089" lon="-0.95671">
        <ele>114</ele>
        <time>2014-11-09T09:25:59Z</time>
      </trkpt>
      <trkpt lat="47.06095" lon="-0.95646">
        <ele>117</ele>
        <time>2014-11-09T09:26:00Z</time>
      </trkpt>
      <trkpt lat="47.06095" lon="-0.95646">
        <ele>117</ele>
        <time>2014-11-09T09:26:03Z</time>
      </trkpt>
      <trkpt lat="47.06095" lon="-0.95646">
        <ele>117</ele>
        <time>2014-11-09T09:26:11Z</time>
      </trkpt>
      <trkpt lat="47.06101" lon="-0.95623">
        <ele>116</ele>
        <time>2014-11-09T09:26:12Z</time>
      </trkpt>
      <trkpt lat="47.06101" lon="-0.95623">
        <ele>116</ele>
        <time>2014-11-09T09:26:15Z</time>
      </trkpt>
      <trkpt lat="47.06101" lon="-0.95623">
        <ele>116</ele>
        <time>2014-11-09T09:26:23Z</time>
      </trkpt>
      <trkpt lat="47.06101" lon="-0.95623">
        <ele>116</ele>
        <time>2014-11-09T09:26:27Z</time>
      </trkpt>
      <trkpt lat="47.06107" lon="-0.95603">
        <ele>114</ele>
        <time>2014-11-09T09:26:39Z</time>
      </trkpt>
      <trkpt lat="47.06107" lon="-0.95603">
        <ele>114</ele>
        <time>2014-11-09T09:26:43Z</time>
      </trkpt>
      <trkpt lat="47.06113" lon="-0.95576">
        <ele>116</ele>
        <time>2014-11-09T09:26:55Z</time>
      </trkpt>
      <trkpt lat="47.06113" lon="-0.95576">
        <ele>116</ele>
        <time>2014-11-09T09:26:59Z</time>
      </trkpt>
      <trkpt lat="47.06123" lon="-0.95548">
        <ele>114</ele>
        <time>2014-11-09T09:27:01Z</time>
      </trkpt>
      <trkpt lat="47.06123" lon="-0.95548">
        <ele>114</ele>
        <time>2014-11-09T09:27:03Z</time>
      </trkpt>
      <trkpt lat="47.06123" lon="-0.95548">
        <ele>114</ele>
        <time>2014-11-09T09:27:11Z</time>
      </trkpt>
      <trkpt lat="47.06123" lon="-0.95548">
        <ele>114</ele>
        <time>2014-11-09T09:27:15Z</time>
      </trkpt>
      <trkpt lat="47.06123" lon="-0.95548">
        <ele>114</ele>
        <time>2014-11-09T09:27:19Z</time>
      </trkpt>
      <trkpt lat="47.06131" lon="-0.95513">
        <ele>111</ele>
        <time>2014-11-09T09:27:21Z</time>
      </trkpt>
      <trkpt lat="47.06131" lon="-0.95513">
        <ele>111</ele>
        <time>2014-11-09T09:27:23Z</time>
      </trkpt>
      <trkpt lat="47.06131" lon="-0.95513">
        <ele>111</ele>
        <time>2014-11-09T09:27:31Z</time>
      </trkpt>
      <trkpt lat="47.06131" lon="-0.95513">
        <ele>111</ele>
        <time>2014-11-09T09:27:35Z</time>
      </trkpt>
      <trkpt lat="47.06132" lon="-0.95483">
        <ele>109</ele>
        <time>2014-11-09T09:27:38Z</time>
      </trkpt>
      <trkpt lat="47.06132" lon="-0.95483">
        <ele>109</ele>
        <time>2014-11-09T09:27:39Z</time>
      </trkpt>
      <trkpt lat="47.06132" lon="-0.95483">
        <ele>109</ele>
        <time>2014-11-09T09:27:47Z</time>
      </trkpt>
      <trkpt lat="47.06132" lon="-0.95483">
        <ele>109</ele>
        <time>2014-11-09T09:27:51Z</time>
      </trkpt>
      <trkpt lat="47.06132" lon="-0.95483">
        <ele>63.6</ele>
        <time>2014-11-09T09:27:52Z</time>
      </trkpt>
      <trkpt lat="47.06132" lon="-0.95483">
        <ele>63.6</ele>
        <time>2014-11-09T09:27:56Z</time>
      </trkpt>
      <trkpt lat="47.06136" lon="-0.95461">
        <ele>110</ele>
        <time>2014-11-09T09:27:56Z</time>
      </trkpt>
      <trkpt lat="47.06136" lon="-0.95461">
        <ele>110</ele>
        <time>2014-11-09T09:27:58Z</time>
      </trkpt>
      <trkpt lat="47.06136" lon="-0.95461">
        <ele>110</ele>
        <time>2014-11-09T09:28:06Z</time>
      </trkpt>
      <trkpt lat="47.0614" lon="-0.95439">
        <ele>109</ele>
        <time>2014-11-09T09:28:08Z</time>
      </trkpt>
      <trkpt lat="47.0614" lon="-0.95439">
        <ele>109</ele>
        <time>2014-11-09T09:28:10Z</time>
      </trkpt>
      <trkpt lat="47.0614" lon="-0.95439">
        <ele>109</ele>
        <time>2014-11-09T09:28:18Z</time>
      </trkpt>
      <trkpt lat="47.06145" lon="-0.95418">
        <ele>111</ele>
        <time>2014-11-09T09:28:21Z</time>
      </trkpt>
      <trkpt lat="47.06145" lon="-0.95418">
        <ele>111</ele>
        <time>2014-11-09T09:28:22Z</time>
      </trkpt>
      <trkpt lat="47.06145" lon="-0.95418">
        <ele>111</ele>
        <time>2014-11-09T09:28:30Z</time>
      </trkpt>
      <trkpt lat="47.06149" lon="-0.95395">
        <ele>111</ele>
        <time>2014-11-09T09:28:34Z</time>
      </trkpt>
      <trkpt lat="47.06149" lon="-0.95395">
        <ele>111</ele>
        <time>2014-11-09T09:28:42Z</time>
      </trkpt>
      <trkpt lat="47.06149" lon="-0.95395">
        <ele>111</ele>
        <time>2014-11-09T09:28:47Z</time>
      </trkpt>
      <trkpt lat="47.06157" lon="-0.9537">
        <ele>111</ele>
        <time>2014-11-09T09:28:48Z</time>
      </trkpt>
      <trkpt lat="47.06157" lon="-0.9537">
        <ele>111</ele>
        <time>2014-11-09T09:28:51Z</time>
      </trkpt>
      <trkpt lat="47.06157" lon="-0.9537">
        <ele>111</ele>
        <time>2014-11-09T09:28:59Z</time>
      </trkpt>
      <trkpt lat="47.06157" lon="-0.9537">
        <ele>111</ele>
        <time>2014-11-09T09:29:03Z</time>
      </trkpt>
      <trkpt lat="47.06165" lon="-0.95345">
        <ele>110</ele>
        <time>2014-11-09T09:29:06Z</time>
      </trkpt>
      <trkpt lat="47.06165" lon="-0.95345">
        <ele>110</ele>
        <time>2014-11-09T09:29:07Z</time>
      </trkpt>
      <trkpt lat="47.06165" lon="-0.95345">
        <ele>110</ele>
        <time>2014-11-09T09:29:15Z</time>
      </trkpt>
      <trkpt lat="47.06165" lon="-0.95345">
        <ele>110</ele>
        <time>2014-11-09T09:29:19Z</time>
      </trkpt>
      <trkpt lat="47.06172" lon="-0.95324">
        <ele>112</ele>
        <time>2014-11-09T09:29:21Z</time>
      </trkpt>
      <trkpt lat="47.06172" lon="-0.95324">
        <ele>112</ele>
        <time>2014-11-09T09:29:23Z</time>
      </trkpt>
      <trkpt lat="47.06172" lon="-0.95324">
        <ele>112</ele>
        <time>2014-11-09T09:29:31Z</time>
      </trkpt>
      <trkpt lat="47.06172" lon="-0.95324">
        <ele>112</ele>
        <time>2014-11-09T09:29:35Z</time>
      </trkpt>
      <trkpt lat="47.06181" lon="-0.953">
        <ele>114</ele>
        <time>2014-11-09T09:29:38Z</time>
      </trkpt>
      <trkpt lat="47.06181" lon="-0.953">
        <ele>114</ele>
        <time>2014-11-09T09:29:39Z</time>
      </trkpt>
      <trkpt lat="47.06181" lon="-0.953">
        <ele>114</ele>
        <time>2014-11-09T09:29:47Z</time>
      </trkpt>
      <trkpt lat="47.06181" lon="-0.953">
        <ele>114</ele>
        <time>2014-11-09T09:29:51Z</time>
      </trkpt>
      <trkpt lat="47.06181" lon="-0.953">
        <ele>114</ele>
        <time>2014-11-09T09:29:55Z</time>
      </trkpt>
      <trkpt lat="47.06186" lon="-0.95273">
        <ele>113</ele>
        <time>2014-11-09T09:29:57Z</time>
      </trkpt>
      <trkpt lat="47.06186" lon="-0.95273">
        <ele>113</ele>
        <time>2014-11-09T09:29:59Z</time>
      </trkpt>
      <trkpt lat="47.06186" lon="-0.95273">
        <ele>113</ele>
        <time>2014-11-09T09:30:07Z</time>
      </trkpt>
      <trkpt lat="47.06186" lon="-0.95273">
        <ele>113</ele>
        <time>2014-11-09T09:30:11Z</time>
      </trkpt>
      <trkpt lat="47.06179" lon="-0.95256">
        <ele>110</ele>
        <time>2014-11-09T09:30:14Z</time>
      </trkpt>
      <trkpt lat="47.06179" lon="-0.95256">
        <ele>110</ele>
        <time>2014-11-09T09:30:15Z</time>
      </trkpt>
      <trkpt lat="47.06179" lon="-0.95256">
        <ele>110</ele>
        <time>2014-11-09T09:30:21Z</time>
      </trkpt>
      <trkpt lat="47.06179" lon="-0.95256">
        <ele>62</ele>
        <time>2014-11-09T09:30:21Z</time>
      </trkpt>
      <trkpt lat="47.06179" lon="-0.95256">
        <ele>62</ele>
        <time>2014-11-09T09:30:28Z</time>
      </trkpt>
      <trkpt lat="47.06173" lon="-0.95244">
        <ele>105</ele>
        <time>2014-11-09T09:30:28Z</time>
      </trkpt>
      <trkpt lat="47.06173" lon="-0.95244">
        <ele>105</ele>
        <time>2014-11-09T09:30:38Z</time>
      </trkpt>
      <trkpt lat="47.06173" lon="-0.95244">
        <ele>105</ele>
        <time>2014-11-09T09:30:42Z</time>
      </trkpt>
      <trkpt lat="47.0616" lon="-0.95222">
        <ele>108</ele>
        <time>2014-11-09T09:30:44Z</time>
      </trkpt>
      <trkpt lat="47.0616" lon="-0.95222">
        <ele>108</ele>
        <time>2014-11-09T09:30:46Z</time>
      </trkpt>
      <trkpt lat="47.0616" lon="-0.95222">
        <ele>108</ele>
        <time>2014-11-09T09:30:54Z</time>
      </trkpt>
      <trkpt lat="47.0616" lon="-0.95222">
        <ele>108</ele>
        <time>2014-11-09T09:30:58Z</time>
      </trkpt>
      <trkpt lat="47.06142" lon="-0.95191">
        <ele>107</ele>
        <time>2014-11-09T09:31:08Z</time>
      </trkpt>
      <trkpt lat="47.06142" lon="-0.95191">
        <ele>107</ele>
        <time>2014-11-09T09:31:10Z</time>
      </trkpt>
      <trkpt lat="47.06142" lon="-0.95191">
        <ele>107</ele>
        <time>2014-11-09T09:31:18Z</time>
      </trkpt>
      <trkpt lat="47.06142" lon="-0.95191">
        <ele>107</ele>
        <time>2014-11-09T09:31:22Z</time>
      </trkpt>
      <trkpt lat="47.06142" lon="-0.95191">
        <ele>107</ele>
        <time>2014-11-09T09:31:26Z</time>
      </trkpt>
      <trkpt lat="47.06133" lon="-0.95169">
        <ele>111</ele>
        <time>2014-11-09T09:31:28Z</time>
      </trkpt>
      <trkpt lat="47.06133" lon="-0.95169">
        <ele>111</ele>
        <time>2014-11-09T09:31:30Z</time>
      </trkpt>
      <trkpt lat="47.06133" lon="-0.95169">
        <ele>111</ele>
        <time>2014-11-09T09:31:38Z</time>
      </trkpt>
      <trkpt lat="47.06137" lon="-0.9515">
        <ele>108</ele>
        <time>2014-11-09T09:31:40Z</time>
      </trkpt>
      <trkpt lat="47.06137" lon="-0.9515">
        <ele>108</ele>
        <time>2014-11-09T09:31:42Z</time>
      </trkpt>
      <trkpt lat="47.06141" lon="-0.95132">
        <ele>108</ele>
        <time>2014-11-09T09:31:49Z</time>
      </trkpt>
      <trkpt lat="47.06141" lon="-0.95132">
        <ele>108</ele>
        <time>2014-11-09T09:31:50Z</time>
      </trkpt>
      <trkpt lat="47.06141" lon="-0.95132">
        <ele>108</ele>
        <time>2014-11-09T09:31:58Z</time>
      </trkpt>
      <trkpt lat="47.06143" lon="-0.95108">
        <ele>106</ele>
        <time>2014-11-09T09:32:01Z</time>
      </trkpt>
      <trkpt lat="47.06143" lon="-0.95108">
        <ele>106</ele>
        <time>2014-11-09T09:32:02Z</time>
      </trkpt>
      <trkpt lat="47.06143" lon="-0.95108">
        <ele>106</ele>
        <time>2014-11-09T09:32:10Z</time>
      </trkpt>
      <trkpt lat="47.06143" lon="-0.95085">
        <ele>111</ele>
        <time>2014-11-09T09:32:13Z</time>
      </trkpt>
      <trkpt lat="47.06143" lon="-0.95085">
        <ele>111</ele>
        <time>2014-11-09T09:32:14Z</time>
      </trkpt>
      <trkpt lat="47.06143" lon="-0.95085">
        <ele>111</ele>
        <time>2014-11-09T09:32:22Z</time>
      </trkpt>
      <trkpt lat="47.06143" lon="-0.95085">
        <ele>111</ele>
        <time>2014-11-09T09:32:26Z</time>
      </trkpt>
      <trkpt lat="47.0615" lon="-0.95043">
        <ele>110</ele>
        <time>2014-11-09T09:32:36Z</time>
      </trkpt>
      <trkpt lat="47.0615" lon="-0.95043">
        <ele>110</ele>
        <time>2014-11-09T09:32:38Z</time>
      </trkpt>
      <trkpt lat="47.0615" lon="-0.95043">
        <ele>110</ele>
        <time>2014-11-09T09:32:46Z</time>
      </trkpt>
      <trkpt lat="47.06151" lon="-0.95021">
        <ele>110</ele>
        <time>2014-11-09T09:32:49Z</time>
      </trkpt>
      <trkpt lat="47.06151" lon="-0.95021">
        <ele>110</ele>
        <time>2014-11-09T09:32:50Z</time>
      </trkpt>
      <trkpt lat="47.06151" lon="-0.95021">
        <ele>110</ele>
        <time>2014-11-09T09:32:58Z</time>
      </trkpt>
      <trkpt lat="47.06151" lon="-0.95021">
        <ele>110</ele>
        <time>2014-11-09T09:33:02Z</time>
      </trkpt>
      <trkpt lat="47.06156" lon="-0.94996">
        <ele>112</ele>
        <time>2014-11-09T09:33:05Z</time>
      </trkpt>
      <trkpt lat="47.06156" lon="-0.94996">
        <ele>112</ele>
        <time>2014-11-09T09:33:06Z</time>
      </trkpt>
      <trkpt lat="47.06156" lon="-0.94996">
        <ele>112</ele>
        <time>2014-11-09T09:33:14Z</time>
      </trkpt>
      <trkpt lat="47.06159" lon="-0.94978">
        <ele>111</ele>
        <time>2014-11-09T09:33:15Z</time>
      </trkpt>
      <trkpt lat="47.06159" lon="-0.94978">
        <ele>111</ele>
        <time>2014-11-09T09:33:18Z</time>
      </trkpt>
      <trkpt lat="47.06159" lon="-0.94978">
        <ele>111</ele>
        <time>2014-11-09T09:33:26Z</time>
      </trkpt>
      <trkpt lat="47.06162" lon="-0.94962">
        <ele>105</ele>
        <time>2014-11-09T09:33:27Z</time>
      </trkpt>
      <trkpt lat="47.06162" lon="-0.94962">
        <ele>105</ele>
        <time>2014-11-09T09:33:30Z</time>
      </trkpt>
      <trkpt lat="47.06162" lon="-0.94962">
        <ele>105</ele>
        <time>2014-11-09T09:33:38Z</time>
      </trkpt>
      <trkpt lat="47.06162" lon="-0.94962">
        <ele>105</ele>
        <time>2014-11-09T09:33:42Z</time>
      </trkpt>
      <trkpt lat="47.06171" lon="-0.94932">
        <ele>110</ele>
        <time>2014-11-09T09:33:43Z</time>
      </trkpt>
      <trkpt lat="47.06171" lon="-0.94932">
        <ele>110</ele>
        <time>2014-11-09T09:33:46Z</time>
      </trkpt>
      <trkpt lat="47.06181" lon="-0.94917">
        <ele>115</ele>
        <time>2014-11-09T09:33:53Z</time>
      </trkpt>
      <trkpt lat="47.06181" lon="-0.94917">
        <ele>115</ele>
        <time>2014-11-09T09:33:54Z</time>
      </trkpt>
      <trkpt lat="47.06191" lon="-0.94909">
        <ele>117</ele>
        <time>2014-11-09T09:34:01Z</time>
      </trkpt>
      <trkpt lat="47.06202" lon="-0.94905">
        <ele>121</ele>
        <time>2014-11-09T09:34:09Z</time>
      </trkpt>
      <trkpt lat="47.06202" lon="-0.94905">
        <ele>121</ele>
        <time>2014-11-09T09:34:18Z</time>
      </trkpt>
      <trkpt lat="47.06216" lon="-0.94899">
        <ele>123</ele>
        <time>2014-11-09T09:34:21Z</time>
      </trkpt>
      <trkpt lat="47.06216" lon="-0.94899">
        <ele>123</ele>
        <time>2014-11-09T09:34:22Z</time>
      </trkpt>
      <trkpt lat="47.06216" lon="-0.94899">
        <ele>123</ele>
        <time>2014-11-09T09:34:30Z</time>
      </trkpt>
      <trkpt lat="47.06216" lon="-0.94899">
        <ele>123</ele>
        <time>2014-11-09T09:34:34Z</time>
      </trkpt>
      <trkpt lat="47.06216" lon="-0.94899">
        <ele>123</ele>
        <time>2014-11-09T09:34:38Z</time>
      </trkpt>
      <trkpt lat="47.06236" lon="-0.94888">
        <ele>120</ele>
        <time>2014-11-09T09:34:40Z</time>
      </trkpt>
      <trkpt lat="47.06236" lon="-0.94888">
        <ele>120</ele>
        <time>2014-11-09T09:34:42Z</time>
      </trkpt>
      <trkpt lat="47.06236" lon="-0.94888">
        <ele>120</ele>
        <time>2014-11-09T09:34:50Z</time>
      </trkpt>
      <trkpt lat="47.06248" lon="-0.94876">
        <ele>122</ele>
        <time>2014-11-09T09:34:52Z</time>
      </trkpt>
      <trkpt lat="47.06248" lon="-0.94876">
        <ele>122</ele>
        <time>2014-11-09T09:34:54Z</time>
      </trkpt>
      <trkpt lat="47.06248" lon="-0.94876">
        <ele>122</ele>
        <time>2014-11-09T09:35:02Z</time>
      </trkpt>
      <trkpt lat="47.06255" lon="-0.94862">
        <ele>123</ele>
        <time>2014-11-09T09:35:04Z</time>
      </trkpt>
      <trkpt lat="47.06255" lon="-0.94862">
        <ele>123</ele>
        <time>2014-11-09T09:35:06Z</time>
      </trkpt>
      <trkpt lat="47.06255" lon="-0.94862">
        <ele>123</ele>
        <time>2014-11-09T09:35:14Z</time>
      </trkpt>
      <trkpt lat="47.06255" lon="-0.94862">
        <ele>123</ele>
        <time>2014-11-09T09:35:18Z</time>
      </trkpt>
      <trkpt lat="47.06255" lon="-0.94862">
        <ele>123</ele>
        <time>2014-11-09T09:35:22Z</time>
      </trkpt>
      <trkpt lat="47.06264" lon="-0.94837">
        <ele>116</ele>
        <time>2014-11-09T09:35:23Z</time>
      </trkpt>
      <trkpt lat="47.06264" lon="-0.94837">
        <ele>116</ele>
        <time>2014-11-09T09:35:26Z</time>
      </trkpt>
      <trkpt lat="47.06264" lon="-0.94837">
        <ele>116</ele>
        <time>2014-11-09T09:35:34Z</time>
      </trkpt>
      <trkpt lat="47.06273" lon="-0.94818">
        <ele>113</ele>
        <time>2014-11-09T09:35:36Z</time>
      </trkpt>
      <trkpt lat="47.06273" lon="-0.94818">
        <ele>113</ele>
        <time>2014-11-09T09:35:38Z</time>
      </trkpt>
      <trkpt lat="47.06273" lon="-0.94818">
        <ele>113</ele>
        <time>2014-11-09T09:35:46Z</time>
      </trkpt>
      <trkpt lat="47.06273" lon="-0.94818">
        <ele>113</ele>
        <time>2014-11-09T09:35:50Z</time>
      </trkpt>
      <trkpt lat="47.06281" lon="-0.94791">
        <ele>113</ele>
        <time>2014-11-09T09:35:52Z</time>
      </trkpt>
      <trkpt lat="47.06281" lon="-0.94791">
        <ele>113</ele>
        <time>2014-11-09T09:35:54Z</time>
      </trkpt>
      <trkpt lat="47.06281" lon="-0.94791">
        <ele>113</ele>
        <time>2014-11-09T09:36:02Z</time>
      </trkpt>
      <trkpt lat="47.06283" lon="-0.94772">
        <ele>113</ele>
        <time>2014-11-09T09:36:03Z</time>
      </trkpt>
      <trkpt lat="47.06283" lon="-0.94772">
        <ele>113</ele>
        <time>2014-11-09T09:36:06Z</time>
      </trkpt>
      <trkpt lat="47.06283" lon="-0.94772">
        <ele>113</ele>
        <time>2014-11-09T09:36:14Z</time>
      </trkpt>
      <trkpt lat="47.06282" lon="-0.94752">
        <ele>110</ele>
        <time>2014-11-09T09:36:26Z</time>
      </trkpt>
      <trkpt lat="47.0628" lon="-0.94728">
        <ele>110</ele>
        <time>2014-11-09T09:36:28Z</time>
      </trkpt>
      <trkpt lat="47.0628" lon="-0.94728">
        <ele>110</ele>
        <time>2014-11-09T09:36:30Z</time>
      </trkpt>
      <trkpt lat="47.0628" lon="-0.94728">
        <ele>110</ele>
        <time>2014-11-09T09:36:38Z</time>
      </trkpt>
      <trkpt lat="47.0628" lon="-0.94728">
        <ele>110</ele>
        <time>2014-11-09T09:36:42Z</time>
      </trkpt>
      <trkpt lat="47.06276" lon="-0.94706">
        <ele>109</ele>
        <time>2014-11-09T09:36:44Z</time>
      </trkpt>
      <trkpt lat="47.06276" lon="-0.94706">
        <ele>109</ele>
        <time>2014-11-09T09:36:46Z</time>
      </trkpt>
      <trkpt lat="47.06276" lon="-0.94706">
        <ele>109</ele>
        <time>2014-11-09T09:36:54Z</time>
      </trkpt>
      <trkpt lat="47.06275" lon="-0.94687">
        <ele>111</ele>
        <time>2014-11-09T09:36:56Z</time>
      </trkpt>
      <trkpt lat="47.06275" lon="-0.94687">
        <ele>111</ele>
        <time>2014-11-09T09:36:58Z</time>
      </trkpt>
      <trkpt lat="47.06275" lon="-0.94687">
        <ele>111</ele>
        <time>2014-11-09T09:37:06Z</time>
      </trkpt>
      <trkpt lat="47.06275" lon="-0.94687">
        <ele>111</ele>
        <time>2014-11-09T09:37:10Z</time>
      </trkpt>
      <trkpt lat="47.06275" lon="-0.94687">
        <ele>111</ele>
        <time>2014-11-09T09:37:14Z</time>
      </trkpt>
      <trkpt lat="47.06271" lon="-0.94662">
        <ele>108</ele>
        <time>2014-11-09T09:37:15Z</time>
      </trkpt>
      <trkpt lat="47.06271" lon="-0.94662">
        <ele>108</ele>
        <time>2014-11-09T09:37:18Z</time>
      </trkpt>
      <trkpt lat="47.06271" lon="-0.94662">
        <ele>108</ele>
        <time>2014-11-09T09:37:26Z</time>
      </trkpt>
      <trkpt lat="47.06271" lon="-0.94662">
        <ele>108</ele>
        <time>2014-11-09T09:37:30Z</time>
      </trkpt>
      <trkpt lat="47.06269" lon="-0.94633">
        <ele>110</ele>
        <time>2014-11-09T09:37:42Z</time>
      </trkpt>
      <trkpt lat="47.06269" lon="-0.94633">
        <ele>110</ele>
        <time>2014-11-09T09:37:46Z</time>
      </trkpt>
      <trkpt lat="47.06262" lon="-0.94612">
        <ele>110</ele>
        <time>2014-11-09T09:37:47Z</time>
      </trkpt>
      <trkpt lat="47.06262" lon="-0.94612">
        <ele>110</ele>
        <time>2014-11-09T09:37:50Z</time>
      </trkpt>
      <trkpt lat="47.06262" lon="-0.94612">
        <ele>110</ele>
        <time>2014-11-09T09:37:58Z</time>
      </trkpt>
      <trkpt lat="47.06262" lon="-0.94612">
        <ele>110</ele>
        <time>2014-11-09T09:38:02Z</time>
      </trkpt>
      <trkpt lat="47.06249" lon="-0.946">
        <ele>113</ele>
        <time>2014-11-09T09:38:04Z</time>
      </trkpt>
      <trkpt lat="47.06249" lon="-0.946">
        <ele>113</ele>
        <time>2014-11-09T09:38:06Z</time>
      </trkpt>
      <trkpt lat="47.06249" lon="-0.946">
        <ele>113</ele>
        <time>2014-11-09T09:38:14Z</time>
      </trkpt>
      <trkpt lat="47.06249" lon="-0.946">
        <ele>113</ele>
        <time>2014-11-09T09:38:18Z</time>
      </trkpt>
      <trkpt lat="47.06249" lon="-0.946">
        <ele>113</ele>
        <time>2014-11-09T09:38:22Z</time>
      </trkpt>
      <trkpt lat="47.06234" lon="-0.94587">
        <ele>108</ele>
        <time>2014-11-09T09:38:34Z</time>
      </trkpt>
      <trkpt lat="47.06234" lon="-0.94587">
        <ele>108</ele>
        <time>2014-11-09T09:38:38Z</time>
      </trkpt>
      <trkpt lat="47.06217" lon="-0.94587">
        <ele>111</ele>
        <time>2014-11-09T09:38:50Z</time>
      </trkpt>
      <trkpt lat="47.06217" lon="-0.94587">
        <ele>111</ele>
        <time>2014-11-09T09:38:54Z</time>
      </trkpt>
      <trkpt lat="47.06198" lon="-0.94579">
        <ele>112</ele>
        <time>2014-11-09T09:38:56Z</time>
      </trkpt>
      <trkpt lat="47.06198" lon="-0.94579">
        <ele>112</ele>
        <time>2014-11-09T09:38:58Z</time>
      </trkpt>
      <trkpt lat="47.06198" lon="-0.94579">
        <ele>112</ele>
        <time>2014-11-09T09:39:06Z</time>
      </trkpt>
      <trkpt lat="47.06198" lon="-0.94579">
        <ele>112</ele>
        <time>2014-11-09T09:39:10Z</time>
      </trkpt>
      <trkpt lat="47.06198" lon="-0.94579">
        <ele>112</ele>
        <time>2014-11-09T09:39:14Z</time>
      </trkpt>
      <trkpt lat="47.06188" lon="-0.94552">
        <ele>110</ele>
        <time>2014-11-09T09:39:26Z</time>
      </trkpt>
      <trkpt lat="47.06188" lon="-0.94552">
        <ele>110</ele>
        <time>2014-11-09T09:39:30Z</time>
      </trkpt>
      <trkpt lat="47.06171" lon="-0.94549">
        <ele>110</ele>
        <time>2014-11-09T09:39:31Z</time>
      </trkpt>
      <trkpt lat="47.06171" lon="-0.94549">
        <ele>110</ele>
        <time>2014-11-09T09:39:34Z</time>
      </trkpt>
      <trkpt lat="47.06171" lon="-0.94549">
        <ele>110</ele>
        <time>2014-11-09T09:39:42Z</time>
      </trkpt>
      <trkpt lat="47.06171" lon="-0.94549">
        <ele>110</ele>
        <time>2014-11-09T09:39:46Z</time>
      </trkpt>
      <trkpt lat="47.06152" lon="-0.94539">
        <ele>112</ele>
        <time>2014-11-09T09:39:47Z</time>
      </trkpt>
      <trkpt lat="47.06152" lon="-0.94539">
        <ele>112</ele>
        <time>2014-11-09T09:39:50Z</time>
      </trkpt>
      <trkpt lat="47.06152" lon="-0.94539">
        <ele>112</ele>
        <time>2014-11-09T09:39:58Z</time>
      </trkpt>
      <trkpt lat="47.06142" lon="-0.94521">
        <ele>113</ele>
        <time>2014-11-09T09:40:01Z</time>
      </trkpt>
      <trkpt lat="47.06142" lon="-0.94521">
        <ele>113</ele>
        <time>2014-11-09T09:40:02Z</time>
      </trkpt>
      <trkpt lat="47.06142" lon="-0.94521">
        <ele>113</ele>
        <time>2014-11-09T09:40:10Z</time>
      </trkpt>
      <trkpt lat="47.06142" lon="-0.94521">
        <ele>113</ele>
        <time>2014-11-09T09:40:14Z</time>
      </trkpt>
      <trkpt lat="47.06131" lon="-0.94507">
        <ele>110</ele>
        <time>2014-11-09T09:40:16Z</time>
      </trkpt>
      <trkpt lat="47.06131" lon="-0.94507">
        <ele>110</ele>
        <time>2014-11-09T09:40:18Z</time>
      </trkpt>
      <trkpt lat="47.06126" lon="-0.94497">
        <ele>112</ele>
        <time>2014-11-09T09:40:25Z</time>
      </trkpt>
      <trkpt lat="47.06126" lon="-0.94497">
        <ele>112</ele>
        <time>2014-11-09T09:40:26Z</time>
      </trkpt>
      <trkpt lat="47.06126" lon="-0.94497">
        <ele>112</ele>
        <time>2014-11-09T09:40:34Z</time>
      </trkpt>
      <trkpt lat="47.06126" lon="-0.94497">
        <ele>112</ele>
        <time>2014-11-09T09:40:38Z</time>
      </trkpt>
      <trkpt lat="47.06126" lon="-0.94497">
        <ele>63.2</ele>
        <time>2014-11-09T09:40:39Z</time>
      </trkpt>
      <trkpt lat="47.06126" lon="-0.94497">
        <ele>63.2</ele>
        <time>2014-11-09T09:40:46Z</time>
      </trkpt>
      <trkpt lat="47.06119" lon="-0.94487">
        <ele>112</ele>
        <time>2014-11-09T09:40:46Z</time>
      </trkpt>
      <trkpt lat="47.06119" lon="-0.94487">
        <ele>112</ele>
        <time>2014-11-09T09:40:57Z</time>
      </trkpt>
      <trkpt lat="47.06119" lon="-0.94487">
        <ele>112</ele>
        <time>2014-11-09T09:41:01Z</time>
      </trkpt>
      <trkpt lat="47.06119" lon="-0.94487">
        <ele>112</ele>
        <time>2014-11-09T09:41:05Z</time>
      </trkpt>
      <trkpt lat="47.06119" lon="-0.94487">
        <ele>112</ele>
        <time>2014-11-09T09:41:09Z</time>
      </trkpt>
      <trkpt lat="47.06119" lon="-0.94487">
        <ele>112</ele>
        <time>2014-11-09T09:41:13Z</time>
      </trkpt>
      <trkpt lat="47.06119" lon="-0.94487">
        <ele>112</ele>
        <time>2014-11-09T09:41:17Z</time>
      </trkpt>
      <trkpt lat="47.06119" lon="-0.94487">
        <ele>112</ele>
        <time>2014-11-09T09:41:21Z</time>
      </trkpt>
      <trkpt lat="47.06119" lon="-0.94487">
        <ele>112</ele>
        <time>2014-11-09T09:41:25Z</time>
      </trkpt>
      <trkpt lat="47.06119" lon="-0.94487">
        <ele>112</ele>
        <time>2014-11-09T09:41:29Z</time>
      </trkpt>
      <trkpt lat="47.06119" lon="-0.94487">
        <ele>112</ele>
        <time>2014-11-09T09:41:33Z</time>
      </trkpt>
      <trkpt lat="47.06119" lon="-0.94487">
        <ele>112</ele>
        <time>2014-11-09T09:41:37Z</time>
      </trkpt>
      <trkpt lat="47.06119" lon="-0.94487">
        <ele>112</ele>
        <time>2014-11-09T09:41:41Z</time>
      </trkpt>
      <trkpt lat="47.06119" lon="-0.94487">
        <ele>112</ele>
        <time>2014-11-09T09:41:45Z</time>
      </trkpt>
      <trkpt lat="47.06119" lon="-0.94487">
        <ele>112</ele>
        <time>2014-11-09T09:41:49Z</time>
      </trkpt>
      <trkpt lat="47.06119" lon="-0.94487">
        <ele>112</ele>
        <time>2014-11-09T09:41:53Z</time>
      </trkpt>
      <trkpt lat="47.06119" lon="-0.94487">
        <ele>112</ele>
        <time>2014-11-09T09:41:57Z</time>
      </trkpt>
      <trkpt lat="47.06119" lon="-0.94487">
        <ele>112</ele>
        <time>2014-11-09T09:42:01Z</time>
      </trkpt>
      <trkpt lat="47.06119" lon="-0.94487">
        <ele>112</ele>
        <time>2014-11-09T09:42:05Z</time>
      </trkpt>
      <trkpt lat="47.06119" lon="-0.94487">
        <ele>112</ele>
        <time>2014-11-09T09:42:09Z</time>
      </trkpt>
      <trkpt lat="47.06119" lon="-0.94487">
        <ele>112</ele>
        <time>2014-11-09T09:42:13Z</time>
      </trkpt>
      <trkpt lat="47.06119" lon="-0.94487">
        <ele>112</ele>
        <time>2014-11-09T09:42:17Z</time>
      </trkpt>
      <trkpt lat="47.06119" lon="-0.94487">
        <ele>112</ele>
        <time>2014-11-09T09:42:22Z</time>
      </trkpt>
      <trkpt lat="47.06119" lon="-0.94487">
        <ele>112</ele>
        <time>2014-11-09T09:42:26Z</time>
      </trkpt>
      <trkpt lat="47.06119" lon="-0.94487">
        <ele>112</ele>
        <time>2014-11-09T09:42:30Z</time>
      </trkpt>
      <trkpt lat="47.06119" lon="-0.94487">
        <ele>112</ele>
        <time>2014-11-09T09:42:34Z</time>
      </trkpt>
      <trkpt lat="47.06119" lon="-0.94487">
        <ele>112</ele>
        <time>2014-11-09T09:42:38Z</time>
      </trkpt>
      <trkpt lat="47.06119" lon="-0.94487">
        <ele>112</ele>
        <time>2014-11-09T09:42:42Z</time>
      </trkpt>
      <trkpt lat="47.06119" lon="-0.94487">
        <ele>112</ele>
        <time>2014-11-09T09:42:46Z</time>
      </trkpt>
      <trkpt lat="47.06119" lon="-0.94487">
        <ele>63.4</ele>
        <time>2014-11-09T09:42:48Z</time>
      </trkpt>
      <trkpt lat="47.06119" lon="-0.94487">
        <ele>63.4</ele>
        <time>2014-11-09T09:44:20Z</time>
      </trkpt>
      <trkpt lat="47.06119" lon="-0.94487">
        <ele>63.4</ele>
        <time>2014-11-09T09:44:23Z</time>
      </trkpt>
      <trkpt lat="47.06119" lon="-0.94487">
        <ele>63.4</ele>
        <time>2014-11-09T09:44:27Z</time>
      </trkpt>
      <trkpt lat="47.06119" lon="-0.94487">
        <ele>112</ele>
        <time>2014-11-09T09:44:30Z</time>
      </trkpt>
      <trkpt lat="47.06119" lon="-0.94487">
        <ele>112</ele>
        <time>2014-11-09T09:44:31Z</time>
      </trkpt>
      <trkpt lat="47.06119" lon="-0.94487">
        <ele>112</ele>
        <time>2014-11-09T09:44:39Z</time>
      </trkpt>
      <trkpt lat="47.06119" lon="-0.94487">
        <ele>112</ele>
        <time>2014-11-09T09:44:43Z</time>
      </trkpt>
      <trkpt lat="47.06119" lon="-0.94487">
        <ele>112</ele>
        <time>2014-11-09T09:44:47Z</time>
      </trkpt>
      <trkpt lat="47.06119" lon="-0.94487">
        <ele>112</ele>
        <time>2014-11-09T09:44:51Z</time>
      </trkpt>
      <trkpt lat="47.06119" lon="-0.94487">
        <ele>112</ele>
        <time>2014-11-09T09:44:55Z</time>
      </trkpt>
      <trkpt lat="47.06119" lon="-0.94487">
        <ele>112</ele>
        <time>2014-11-09T09:44:59Z</time>
      </trkpt>
      <trkpt lat="47.06119" lon="-0.94487">
        <ele>112</ele>
        <time>2014-11-09T09:45:03Z</time>
      </trkpt>
      <trkpt lat="47.06119" lon="-0.94487">
        <ele>112</ele>
        <time>2014-11-09T09:45:07Z</time>
      </trkpt>
      <trkpt lat="47.06119" lon="-0.94487">
        <ele>112</ele>
        <time>2014-11-09T09:45:11Z</time>
      </trkpt>
      <trkpt lat="47.06119" lon="-0.94487">
        <ele>112</ele>
        <time>2014-11-09T09:45:15Z</time>
      </trkpt>
      <trkpt lat="47.06119" lon="-0.94487">
        <ele>112</ele>
        <time>2014-11-09T09:45:19Z</time>
      </trkpt>
      <trkpt lat="47.06119" lon="-0.94487">
        <ele>112</ele>
        <time>2014-11-09T09:45:23Z</time>
      </trkpt>
      <trkpt lat="47.06119" lon="-0.94487">
        <ele>112</ele>
        <time>2014-11-09T09:45:27Z</time>
      </trkpt>
      <trkpt lat="47.06119" lon="-0.94487">
        <ele>112</ele>
        <time>2014-11-09T09:45:31Z</time>
      </trkpt>
      <trkpt lat="47.06119" lon="-0.94487">
        <ele>112</ele>
        <time>2014-11-09T09:45:35Z</time>
      </trkpt>
      <trkpt lat="47.06119" lon="-0.94487">
        <ele>112</ele>
        <time>2014-11-09T09:45:39Z</time>
      </trkpt>
      <trkpt lat="47.06119" lon="-0.94487">
        <ele>112</ele>
        <time>2014-11-09T09:45:43Z</time>
      </trkpt>
      <trkpt lat="47.06119" lon="-0.94487">
        <ele>112</ele>
        <time>2014-11-09T09:45:47Z</time>
      </trkpt>
      <trkpt lat="47.06119" lon="-0.94487">
        <ele>112</ele>
        <time>2014-11-09T09:45:51Z</time>
      </trkpt>
      <trkpt lat="47.06095" lon="-0.94471">
        <ele>111</ele>
        <time>2014-11-09T09:45:52Z</time>
      </trkpt>
      <trkpt lat="47.06095" lon="-0.94471">
        <ele>111</ele>
        <time>2014-11-09T09:45:55Z</time>
      </trkpt>
      <trkpt lat="47.06095" lon="-0.94471">
        <ele>111</ele>
        <time>2014-11-09T09:46:03Z</time>
      </trkpt>
      <trkpt lat="47.06095" lon="-0.94471">
        <ele>111</ele>
        <time>2014-11-09T09:46:07Z</time>
      </trkpt>
      <trkpt lat="47.06095" lon="-0.94471">
        <ele>111</ele>
        <time>2014-11-09T09:46:11Z</time>
      </trkpt>
      <trkpt lat="47.06086" lon="-0.94443">
        <ele>115</ele>
        <time>2014-11-09T09:46:12Z</time>
      </trkpt>
      <trkpt lat="47.06086" lon="-0.94443">
        <ele>115</ele>
        <time>2014-11-09T09:46:15Z</time>
      </trkpt>
      <trkpt lat="47.06086" lon="-0.94443">
        <ele>115</ele>
        <time>2014-11-09T09:46:23Z</time>
      </trkpt>
      <trkpt lat="47.06086" lon="-0.94443">
        <ele>115</ele>
        <time>2014-11-09T09:46:27Z</time>
      </trkpt>
      <trkpt lat="47.06081" lon="-0.9442">
        <ele>114</ele>
        <time>2014-11-09T09:46:28Z</time>
      </trkpt>
      <trkpt lat="47.06081" lon="-0.9442">
        <ele>114</ele>
        <time>2014-11-09T09:46:31Z</time>
      </trkpt>
      <trkpt lat="47.06081" lon="-0.9442">
        <ele>114</ele>
        <time>2014-11-09T09:46:39Z</time>
      </trkpt>
      <trkpt lat="47.06081" lon="-0.9442">
        <ele>114</ele>
        <time>2014-11-09T09:46:43Z</time>
      </trkpt>
      <trkpt lat="47.06069" lon="-0.94396">
        <ele>114</ele>
        <time>2014-11-09T09:46:45Z</time>
      </trkpt>
      <trkpt lat="47.06069" lon="-0.94396">
        <ele>114</ele>
        <time>2014-11-09T09:46:47Z</time>
      </trkpt>
      <trkpt lat="47.06069" lon="-0.94396">
        <ele>114</ele>
        <time>2014-11-09T09:46:55Z</time>
      </trkpt>
      <trkpt lat="47.06069" lon="-0.94396">
        <ele>114</ele>
        <time>2014-11-09T09:46:59Z</time>
      </trkpt>
      <trkpt lat="47.0606" lon="-0.94373">
        <ele>110</ele>
        <time>2014-11-09T09:47:01Z</time>
      </trkpt>
      <trkpt lat="47.0606" lon="-0.94373">
        <ele>110</ele>
        <time>2014-11-09T09:47:03Z</time>
      </trkpt>
      <trkpt lat="47.0606" lon="-0.94373">
        <ele>110</ele>
        <time>2014-11-09T09:47:11Z</time>
      </trkpt>
      <trkpt lat="47.0606" lon="-0.94373">
        <ele>110</ele>
        <time>2014-11-09T09:47:15Z</time>
      </trkpt>
      <trkpt lat="47.06072" lon="-0.9436">
        <ele>114</ele>
        <time>2014-11-09T09:47:18Z</time>
      </trkpt>
      <trkpt lat="47.06072" lon="-0.9436">
        <ele>114</ele>
        <time>2014-11-09T09:47:19Z</time>
      </trkpt>
      <trkpt lat="47.06072" lon="-0.9436">
        <ele>114</ele>
        <time>2014-11-09T09:47:27Z</time>
      </trkpt>
      <trkpt lat="47.06072" lon="-0.9436">
        <ele>114</ele>
        <time>2014-11-09T09:47:31Z</time>
      </trkpt>
      <trkpt lat="47.06072" lon="-0.9436">
        <ele>114</ele>
        <time>2014-11-09T09:47:35Z</time>
      </trkpt>
      <trkpt lat="47.06082" lon="-0.94348">
        <ele>110</ele>
        <time>2014-11-09T09:47:47Z</time>
      </trkpt>
      <trkpt lat="47.06082" lon="-0.94348">
        <ele>110</ele>
        <time>2014-11-09T09:47:51Z</time>
      </trkpt>
      <trkpt lat="47.06096" lon="-0.94343">
        <ele>111</ele>
        <time>2014-11-09T09:47:52Z</time>
      </trkpt>
      <trkpt lat="47.06096" lon="-0.94343">
        <ele>111</ele>
        <time>2014-11-09T09:47:55Z</time>
      </trkpt>
      <trkpt lat="47.06096" lon="-0.94343">
        <ele>111</ele>
        <time>2014-11-09T09:48:03Z</time>
      </trkpt>
      <trkpt lat="47.06096" lon="-0.94343">
        <ele>111</ele>
        <time>2014-11-09T09:48:07Z</time>
      </trkpt>
      <trkpt lat="47.061" lon="-0.94324">
        <ele>110</ele>
        <time>2014-11-09T09:48:09Z</time>
      </trkpt>
      <trkpt lat="47.061" lon="-0.94324">
        <ele>110</ele>
        <time>2014-11-09T09:48:11Z</time>
      </trkpt>
      <trkpt lat="47.061" lon="-0.94324">
        <ele>110</ele>
        <time>2014-11-09T09:48:19Z</time>
      </trkpt>
      <trkpt lat="47.061" lon="-0.94324">
        <ele>110</ele>
        <time>2014-11-09T09:48:23Z</time>
      </trkpt>
      <trkpt lat="47.061" lon="-0.94324">
        <ele>110</ele>
        <time>2014-11-09T09:48:27Z</time>
      </trkpt>
      <trkpt lat="47.06104" lon="-0.943">
        <ele>113</ele>
        <time>2014-11-09T09:48:28Z</time>
      </trkpt>
      <trkpt lat="47.06104" lon="-0.943">
        <ele>113</ele>
        <time>2014-11-09T09:48:31Z</time>
      </trkpt>
      <trkpt lat="47.06104" lon="-0.943">
        <ele>113</ele>
        <time>2014-11-09T09:48:39Z</time>
      </trkpt>
      <trkpt lat="47.06104" lon="-0.943">
        <ele>113</ele>
        <time>2014-11-09T09:48:43Z</time>
      </trkpt>
      <trkpt lat="47.06104" lon="-0.94273">
        <ele>113</ele>
        <time>2014-11-09T09:48:44Z</time>
      </trkpt>
      <trkpt lat="47.06104" lon="-0.94273">
        <ele>113</ele>
        <time>2014-11-09T09:48:47Z</time>
      </trkpt>
      <trkpt lat="47.06104" lon="-0.94273">
        <ele>113</ele>
        <time>2014-11-09T09:48:55Z</time>
      </trkpt>
      <trkpt lat="47.06104" lon="-0.94273">
        <ele>113</ele>
        <time>2014-11-09T09:48:59Z</time>
      </trkpt>
      <trkpt lat="47.06105" lon="-0.94245">
        <ele>114</ele>
        <time>2014-11-09T09:49:02Z</time>
      </trkpt>
      <trkpt lat="47.06105" lon="-0.94245">
        <ele>114</ele>
        <time>2014-11-09T09:49:03Z</time>
      </trkpt>
      <trkpt lat="47.06105" lon="-0.94245">
        <ele>114</ele>
        <time>2014-11-09T09:49:11Z</time>
      </trkpt>
      <trkpt lat="47.06105" lon="-0.94245">
        <ele>114</ele>
        <time>2014-11-09T09:49:15Z</time>
      </trkpt>
      <trkpt lat="47.06106" lon="-0.94219">
        <ele>111</ele>
        <time>2014-11-09T09:49:18Z</time>
      </trkpt>
      <trkpt lat="47.06106" lon="-0.94219">
        <ele>111</ele>
        <time>2014-11-09T09:49:19Z</time>
      </trkpt>
      <trkpt lat="47.06106" lon="-0.94219">
        <ele>111</ele>
        <time>2014-11-09T09:49:27Z</time>
      </trkpt>
      <trkpt lat="47.06106" lon="-0.94219">
        <ele>111</ele>
        <time>2014-11-09T09:49:31Z</time>
      </trkpt>
      <trkpt lat="47.0611" lon="-0.94193">
        <ele>112</ele>
        <time>2014-11-09T09:49:34Z</time>
      </trkpt>
      <trkpt lat="47.0611" lon="-0.94193">
        <ele>112</ele>
        <time>2014-11-09T09:49:35Z</time>
      </trkpt>
      <trkpt lat="47.0611" lon="-0.94193">
        <ele>112</ele>
        <time>2014-11-09T09:49:43Z</time>
      </trkpt>
      <trkpt lat="47.0611" lon="-0.94193">
        <ele>112</ele>
        <time>2014-11-09T09:49:47Z</time>
      </trkpt>
      <trkpt lat="47.0611" lon="-0.94193">
        <ele>112</ele>
        <time>2014-11-09T09:49:51Z</time>
      </trkpt>
      <trkpt lat="47.06118" lon="-0.94167">
        <ele>116</ele>
        <time>2014-11-09T09:50:03Z</time>
      </trkpt>
      <trkpt lat="47.06118" lon="-0.94167">
        <ele>116</ele>
        <time>2014-11-09T09:50:07Z</time>
      </trkpt>
      <trkpt lat="47.06118" lon="-0.94167">
        <ele>116</ele>
        <time>2014-11-09T09:50:11Z</time>
      </trkpt>
      <trkpt lat="47.06129" lon="-0.94136">
        <ele>116</ele>
        <time>2014-11-09T09:50:12Z</time>
      </trkpt>
      <trkpt lat="47.06129" lon="-0.94136">
        <ele>116</ele>
        <time>2014-11-09T09:50:15Z</time>
      </trkpt>
      <trkpt lat="47.06129" lon="-0.94136">
        <ele>116</ele>
        <time>2014-11-09T09:50:23Z</time>
      </trkpt>
      <trkpt lat="47.06129" lon="-0.94136">
        <ele>116</ele>
        <time>2014-11-09T09:50:27Z</time>
      </trkpt>
      <trkpt lat="47.06129" lon="-0.94136">
        <ele>116</ele>
        <time>2014-11-09T09:50:31Z</time>
      </trkpt>
      <trkpt lat="47.06129" lon="-0.94136">
        <ele>67</ele>
        <time>2014-11-09T09:50:34Z</time>
      </trkpt>
      <trkpt lat="47.06129" lon="-0.94136">
        <ele>67</ele>
        <time>2014-11-09T09:51:14Z</time>
      </trkpt>
      <trkpt lat="47.06085" lon="-0.94125">
        <ele>111</ele>
        <time>2014-11-09T09:51:14Z</time>
      </trkpt>
      <trkpt lat="47.06085" lon="-0.94125">
        <ele>111</ele>
        <time>2014-11-09T09:51:15Z</time>
      </trkpt>
      <trkpt lat="47.06085" lon="-0.94125">
        <ele>111</ele>
        <time>2014-11-09T09:51:23Z</time>
      </trkpt>
      <trkpt lat="47.06077" lon="-0.94117">
        <ele>112</ele>
        <time>2014-11-09T09:51:25Z</time>
      </trkpt>
      <trkpt lat="47.06077" lon="-0.94117">
        <ele>112</ele>
        <time>2014-11-09T09:51:27Z</time>
      </trkpt>
      <trkpt lat="47.06077" lon="-0.94117">
        <ele>112</ele>
        <time>2014-11-09T09:51:35Z</time>
      </trkpt>
      <trkpt lat="47.06077" lon="-0.94117">
        <ele>112</ele>
        <time>2014-11-09T09:51:39Z</time>
      </trkpt>
      <trkpt lat="47.06064" lon="-0.94106">
        <ele>111</ele>
        <time>2014-11-09T09:51:42Z</time>
      </trkpt>
      <trkpt lat="47.06064" lon="-0.94106">
        <ele>111</ele>
        <time>2014-11-09T09:51:43Z</time>
      </trkpt>
      <trkpt lat="47.06064" lon="-0.94106">
        <ele>111</ele>
        <time>2014-11-09T09:51:51Z</time>
      </trkpt>
      <trkpt lat="47.06064" lon="-0.94106">
        <ele>111</ele>
        <time>2014-11-09T09:51:55Z</time>
      </trkpt>
      <trkpt lat="47.06064" lon="-0.94106">
        <ele>111</ele>
        <time>2014-11-09T09:51:59Z</time>
      </trkpt>
      <trkpt lat="47.06046" lon="-0.94094">
        <ele>109</ele>
        <time>2014-11-09T09:52:01Z</time>
      </trkpt>
      <trkpt lat="47.06046" lon="-0.94094">
        <ele>109</ele>
        <time>2014-11-09T09:52:03Z</time>
      </trkpt>
      <trkpt lat="47.06046" lon="-0.94094">
        <ele>109</ele>
        <time>2014-11-09T09:52:11Z</time>
      </trkpt>
      <trkpt lat="47.06046" lon="-0.94094">
        <ele>109</ele>
        <time>2014-11-09T09:52:16Z</time>
      </trkpt>
      <trkpt lat="47.06033" lon="-0.94091">
        <ele>108</ele>
        <time>2014-11-09T09:52:18Z</time>
      </trkpt>
      <trkpt lat="47.06033" lon="-0.94091">
        <ele>108</ele>
        <time>2014-11-09T09:52:19Z</time>
      </trkpt>
      <trkpt lat="47.06033" lon="-0.94091">
        <ele>108</ele>
        <time>2014-11-09T09:52:27Z</time>
      </trkpt>
      <trkpt lat="47.06033" lon="-0.94091">
        <ele>108</ele>
        <time>2014-11-09T09:52:31Z</time>
      </trkpt>
      <trkpt lat="47.06033" lon="-0.94091">
        <ele>108</ele>
        <time>2014-11-09T09:52:35Z</time>
      </trkpt>
      <trkpt lat="47.06015" lon="-0.94092">
        <ele>112</ele>
        <time>2014-11-09T09:52:37Z</time>
      </trkpt>
      <trkpt lat="47.06015" lon="-0.94092">
        <ele>112</ele>
        <time>2014-11-09T09:52:39Z</time>
      </trkpt>
      <trkpt lat="47.06015" lon="-0.94092">
        <ele>112</ele>
        <time>2014-11-09T09:52:47Z</time>
      </trkpt>
      <trkpt lat="47.06015" lon="-0.94092">
        <ele>112</ele>
        <time>2014-11-09T09:52:51Z</time>
      </trkpt>
      <trkpt lat="47.05997" lon="-0.94088">
        <ele>116</ele>
        <time>2014-11-09T09:52:53Z</time>
      </trkpt>
      <trkpt lat="47.05997" lon="-0.94088">
        <ele>116</ele>
        <time>2014-11-09T09:52:55Z</time>
      </trkpt>
      <trkpt lat="47.05997" lon="-0.94088">
        <ele>116</ele>
        <time>2014-11-09T09:53:03Z</time>
      </trkpt>
      <trkpt lat="47.05997" lon="-0.94088">
        <ele>116</ele>
        <time>2014-11-09T09:53:07Z</time>
      </trkpt>
      <trkpt lat="47.05984" lon="-0.94083">
        <ele>117</ele>
        <time>2014-11-09T09:53:08Z</time>
      </trkpt>
      <trkpt lat="47.05984" lon="-0.94083">
        <ele>117</ele>
        <time>2014-11-09T09:53:15Z</time>
      </trkpt>
      <trkpt lat="47.05984" lon="-0.94083">
        <ele>68.6</ele>
        <time>2014-11-09T09:53:15Z</time>
      </trkpt>
      <trkpt lat="47.05984" lon="-0.94083">
        <ele>68.6</ele>
        <time>2014-11-09T09:53:31Z</time>
      </trkpt>
      <trkpt lat="47.0597" lon="-0.94085">
        <ele>113</ele>
        <time>2014-11-09T09:53:31Z</time>
      </trkpt>
      <trkpt lat="47.0597" lon="-0.94085">
        <ele>113</ele>
        <time>2014-11-09T09:53:40Z</time>
      </trkpt>
      <trkpt lat="47.0597" lon="-0.94085">
        <ele>113</ele>
        <time>2014-11-09T09:53:44Z</time>
      </trkpt>
      <trkpt lat="47.0597" lon="-0.94085">
        <ele>113</ele>
        <time>2014-11-09T09:53:48Z</time>
      </trkpt>
      <trkpt lat="47.0597" lon="-0.94085">
        <ele>113</ele>
        <time>2014-11-09T09:53:52Z</time>
      </trkpt>
      <trkpt lat="47.05949" lon="-0.94089">
        <ele>113</ele>
        <time>2014-11-09T09:54:04Z</time>
      </trkpt>
      <trkpt lat="47.05949" lon="-0.94089">
        <ele>113</ele>
        <time>2014-11-09T09:54:08Z</time>
      </trkpt>
      <trkpt lat="47.05934" lon="-0.94097">
        <ele>115</ele>
        <time>2014-11-09T09:54:11Z</time>
      </trkpt>
      <trkpt lat="47.05934" lon="-0.94097">
        <ele>115</ele>
        <time>2014-11-09T09:54:12Z</time>
      </trkpt>
      <trkpt lat="47.05934" lon="-0.94097">
        <ele>115</ele>
        <time>2014-11-09T09:54:20Z</time>
      </trkpt>
      <trkpt lat="47.05934" lon="-0.94097">
        <ele>115</ele>
        <time>2014-11-09T09:54:24Z</time>
      </trkpt>
      <trkpt lat="47.05934" lon="-0.94097">
        <ele>115</ele>
        <time>2014-11-09T09:54:28Z</time>
      </trkpt>
      <trkpt lat="47.05918" lon="-0.94106">
        <ele>115</ele>
        <time>2014-11-09T09:54:40Z</time>
      </trkpt>
      <trkpt lat="47.05918" lon="-0.94106">
        <ele>115</ele>
        <time>2014-11-09T09:54:44Z</time>
      </trkpt>
      <trkpt lat="47.05918" lon="-0.94106">
        <ele>115</ele>
        <time>2014-11-09T09:54:48Z</time>
      </trkpt>
      <trkpt lat="47.05894" lon="-0.94105">
        <ele>123</ele>
        <time>2014-11-09T09:55:00Z</time>
      </trkpt>
      <trkpt lat="47.05894" lon="-0.94105">
        <ele>123</ele>
        <time>2014-11-09T09:55:04Z</time>
      </trkpt>
      <trkpt lat="47.05877" lon="-0.94115">
        <ele>124</ele>
        <time>2014-11-09T09:55:07Z</time>
      </trkpt>
      <trkpt lat="47.05877" lon="-0.94115">
        <ele>124</ele>
        <time>2014-11-09T09:55:08Z</time>
      </trkpt>
      <trkpt lat="47.05877" lon="-0.94115">
        <ele>124</ele>
        <time>2014-11-09T09:55:16Z</time>
      </trkpt>
      <trkpt lat="47.05877" lon="-0.94115">
        <ele>124</ele>
        <time>2014-11-09T09:55:20Z</time>
      </trkpt>
      <trkpt lat="47.05861" lon="-0.94127">
        <ele>124</ele>
        <time>2014-11-09T09:55:23Z</time>
      </trkpt>
      <trkpt lat="47.05861" lon="-0.94127">
        <ele>124</ele>
        <time>2014-11-09T09:55:24Z</time>
      </trkpt>
      <trkpt lat="47.05861" lon="-0.94127">
        <ele>124</ele>
        <time>2014-11-09T09:55:32Z</time>
      </trkpt>
      <trkpt lat="47.05853" lon="-0.94136">
        <ele>124</ele>
        <time>2014-11-09T09:55:45Z</time>
      </trkpt>
      <trkpt lat="47.05853" lon="-0.94136">
        <ele>124</ele>
        <time>2014-11-09T09:55:48Z</time>
      </trkpt>
      <trkpt lat="47.05851" lon="-0.94159">
        <ele>125</ele>
        <time>2014-11-09T09:55:49Z</time>
      </trkpt>
      <trkpt lat="47.05851" lon="-0.94159">
        <ele>125</ele>
        <time>2014-11-09T09:55:52Z</time>
      </trkpt>
      <trkpt lat="47.05851" lon="-0.94159">
        <ele>125</ele>
        <time>2014-11-09T09:56:00Z</time>
      </trkpt>
      <trkpt lat="47.05851" lon="-0.94159">
        <ele>125</ele>
        <time>2014-11-09T09:56:04Z</time>
      </trkpt>
      <trkpt lat="47.05861" lon="-0.94178">
        <ele>123</ele>
        <time>2014-11-09T09:56:06Z</time>
      </trkpt>
      <trkpt lat="47.05861" lon="-0.94178">
        <ele>123</ele>
        <time>2014-11-09T09:56:08Z</time>
      </trkpt>
      <trkpt lat="47.05861" lon="-0.94178">
        <ele>123</ele>
        <time>2014-11-09T09:56:16Z</time>
      </trkpt>
      <trkpt lat="47.05865" lon="-0.94197">
        <ele>123</ele>
        <time>2014-11-09T09:56:19Z</time>
      </trkpt>
      <trkpt lat="47.05865" lon="-0.94197">
        <ele>123</ele>
        <time>2014-11-09T09:56:20Z</time>
      </trkpt>
      <trkpt lat="47.05865" lon="-0.94197">
        <ele>123</ele>
        <time>2014-11-09T09:56:28Z</time>
      </trkpt>
      <trkpt lat="47.05865" lon="-0.94197">
        <ele>123</ele>
        <time>2014-11-09T09:56:32Z</time>
      </trkpt>
      <trkpt lat="47.05865" lon="-0.94197">
        <ele>123</ele>
        <time>2014-11-09T09:56:36Z</time>
      </trkpt>
      <trkpt lat="47.05865" lon="-0.94197">
        <ele>123</ele>
        <time>2014-11-09T09:56:40Z</time>
      </trkpt>
      <trkpt lat="47.05866" lon="-0.94226">
        <ele>123</ele>
        <time>2014-11-09T09:56:52Z</time>
      </trkpt>
      <trkpt lat="47.05866" lon="-0.94226">
        <ele>123</ele>
        <time>2014-11-09T09:56:56Z</time>
      </trkpt>
      <trkpt lat="47.05862" lon="-0.94246">
        <ele>122</ele>
        <time>2014-11-09T09:57:08Z</time>
      </trkpt>
      <trkpt lat="47.05862" lon="-0.94246">
        <ele>122</ele>
        <time>2014-11-09T09:57:12Z</time>
      </trkpt>
      <trkpt lat="47.0585" lon="-0.94247">
        <ele>121</ele>
        <time>2014-11-09T09:57:24Z</time>
      </trkpt>
      <trkpt lat="47.05838" lon="-0.94249">
        <ele>120</ele>
        <time>2014-11-09T09:57:25Z</time>
      </trkpt>
      <trkpt lat="47.05838" lon="-0.94249">
        <ele>120</ele>
        <time>2014-11-09T09:57:28Z</time>
      </trkpt>
      <trkpt lat="47.05838" lon="-0.94249">
        <ele>120</ele>
        <time>2014-11-09T09:57:36Z</time>
      </trkpt>
      <trkpt lat="47.05838" lon="-0.94249">
        <ele>120</ele>
        <time>2014-11-09T09:57:40Z</time>
      </trkpt>
      <trkpt lat="47.05838" lon="-0.94249">
        <ele>73.8</ele>
        <time>2014-11-09T09:57:42Z</time>
      </trkpt>
      <trkpt lat="47.05838" lon="-0.94249">
        <ele>73.8</ele>
        <time>2014-11-09T09:57:53Z</time>
      </trkpt>
    </trkseg>
  </trk>
</gpx>